Provisional Data: East Fork First Fork Sinnemahoning Creek near Logue, PA


Please select a monitoring station.
Please select start date.
Please select start date.

Toggle Unit: C/F Toggle Unit: C/F
Sample Time Temperature (C) Temperature (F) Specific Conductivity (mS/cm) pH   Turbidity (NTU+) DO (mg/L)
9/6/2021 12:00:00 AM 14.44 57.992 0.613 6.94 2.68 9.34
9/6/2021 12:15:00 AM 14.41 57.938 1.141 6.94 2.66 9.35
9/6/2021 12:30:00 AM 14.39 57.902 1.125 6.94 2.14 9.35
9/6/2021 12:45:00 AM 14.37 57.866 1.381 6.82 2.36 9.32
9/6/2021 1:00:00 AM 14.35 57.83 1.147 6.94 2.14 9.33
9/6/2021 1:15:00 AM 14.32 57.776 1.198 6.94 2.41 9.34
9/6/2021 1:30:00 AM 14.29 57.722 1.075 6.94 2.59 9.34
9/6/2021 1:45:00 AM 14.26 57.668 0.393 6.95 2.37 9.37
9/6/2021 2:00:00 AM 14.23 57.614 0.053 7.02 2.34 9.4
9/6/2021 2:15:00 AM 14.21 57.578 1.085 6.91 2.25 9.37
9/6/2021 2:30:00 AM 14.19 57.542 1.093 6.95 2.1 9.34
9/6/2021 2:45:00 AM 14.17 57.506 0.777 6.89 1.95 9.37
9/6/2021 3:00:00 AM 14.14 57.452 0.793 6.97 2.01 9.39
9/6/2021 3:15:00 AM 14.12 57.416 0.801 6.96 1.95 9.38
9/6/2021 3:30:00 AM 14.09 57.362 0.758 6.97 2.08 9.38
9/6/2021 3:45:00 AM 14.06 57.308 0.751 6.96 2.25 9.41
9/6/2021 4:00:00 AM 14.04 57.272 0.843 6.96 2.04 9.4
9/6/2021 4:15:00 AM 14.02 57.236 0.324 6.86 2.14 9.42
9/6/2021 4:30:00 AM 14 57.2 0.9 6.9 2.3 9.4
9/6/2021 4:45:00 AM 13.97 57.146 0.882 6.96 1.97 9.43
9/6/2021 5:00:00 AM 13.95 57.11 0.867 6.85 2.05 9.42
9/6/2021 5:15:00 AM 13.93 57.074 0.053 7.02 2.15 9.44
9/6/2021 5:30:00 AM 13.9 57.02 0.053 6.99 2.07 9.45
9/6/2021 5:45:00 AM 13.88 56.984 0.845 6.95 2.11 9.41
9/6/2021 6:00:00 AM 13.85 56.93 0.601 6.87 2.28 9.42
9/6/2021 6:15:00 AM 13.83 56.894 0.872 6.9 1.97 9.45
9/6/2021 6:30:00 AM 13.8 56.84 0.841 6.96 1.95 9.45
9/6/2021 6:45:00 AM 13.77 56.786 0.701 6.87 2.15 9.47
9/6/2021 7:00:00 AM 13.75 56.75 0.67 6.93 2.11 9.49
9/6/2021 7:15:00 AM 13.72 56.696 0.582 6.98 2.07 9.5
9/6/2021 7:30:00 AM 13.7 56.66 0.884 6.98 2.03 9.51
9/6/2021 7:45:00 AM 13.69 56.642 0.615 6.95 2 9.59
9/6/2021 8:00:00 AM 13.67 56.606 0.854 6.99 2.21 9.62
9/6/2021 8:15:00 AM 13.67 56.606 0.568 6.92 1.96 9.65
9/6/2021 8:30:00 AM 13.65 56.57 0.742 7.01 1.88 9.67
9/6/2021 8:45:00 AM 13.65 56.57 0.64 7.01 2.03 9.66
9/6/2021 9:00:00 AM 13.67 56.606 0.729 7.02 2.05 9.73
9/6/2021 9:15:00 AM 13.7 56.66 0.052 7.06 2.03 9.78
9/6/2021 9:30:00 AM 13.7 56.66 0.468 7.01 1.89 9.79
9/6/2021 9:45:00 AM 13.7 56.66 0.363 7.03 2.06 9.82
9/6/2021 10:00:00 AM 13.71 56.678 0.774 7.04 1.88 9.82
9/6/2021 10:15:00 AM 13.75 56.75 1.038 7.03 1.94 9.8
9/6/2021 10:30:00 AM 13.83 56.894 0.051 7.1 1.9 9.82
9/6/2021 10:45:00 AM 13.91 57.038 0.38 7.05 1.84 9.78
9/6/2021 11:00:00 AM 14.02 57.236 0.593 6.98 1.95 9.83
9/6/2021 11:15:00 AM 14.15 57.47 0.52 7.1 1.99 9.81
9/6/2021 11:30:00 AM 14.29 57.722 0.052 7.15 1.83 9.85
9/6/2021 11:45:00 AM 14.47 58.046 1.014 7.09 1.78 9.77
9/6/2021 12:00:00 PM 14.64 58.352 0.049 7.1 1.93 9.77
9/6/2021 12:15:00 PM 14.8 58.64 0.939 7.09 1.94 9.73
9/6/2021 12:30:00 PM 14.98 58.964 0.804 7.11 2.08 9.76
9/6/2021 12:45:00 PM 15.16 59.288 0.665 7.14 1.79 9.74
9/6/2021 1:00:00 PM 15.33 59.594 0.502 7.02 1.77 9.68
9/6/2021 1:15:00 PM 15.58 60.044 0.051 7.2 1.75 9.72
9/6/2021 1:30:00 PM 15.82 60.476 0.055 7.21 1.88 9.72
9/6/2021 1:45:00 PM 16.01 60.818 0.051 7.21 2.51 9.64
9/6/2021 2:00:00 PM 16.16 61.088 0.055 7.11 1.82 9.64
9/6/2021 2:15:00 PM 16.41 61.538 0.068 7.22 1.83 9.62
9/6/2021 2:30:00 PM 16.43 61.574 1.079 7.15 1.76 9.56
9/6/2021 2:45:00 PM 16.62 61.916 0.953 7.16 1.7 9.55
9/6/2021 3:00:00 PM 16.64 61.952 0.715 7.17 1.86 9.5
9/6/2021 3:15:00 PM 16.73 62.114 0.615 7.19 1.8 9.46
9/6/2021 3:30:00 PM 17.02 62.636 0.532 7.12 1.8 9.2
9/6/2021 3:45:00 PM 16.96 62.528 0.612 7.2 1.74 9.43
9/6/2021 4:00:00 PM 17.03 62.654 0.469 7.21 1.71 9.42
9/6/2021 4:15:00 PM 17.1 62.78 0.464 7.24 1.79 9.42
9/6/2021 4:30:00 PM 17.01 62.618 0.051 7.25 1.77 9.42
9/6/2021 4:45:00 PM 16.92 62.456 0.051 7.25 1.81 9.39
9/6/2021 5:00:00 PM 16.9 62.42 0.051 7.24 1.8 9.37
9/6/2021 5:15:00 PM 16.87 62.366 0.059 7.25 1.74 9.36
9/6/2021 5:30:00 PM 16.86 62.348 0.051 7.25 1.88 9.37
9/6/2021 5:45:00 PM 16.75 62.15 0.051 7.22 1.81 9.35
9/6/2021 6:00:00 PM 16.63 61.934 0.051 7.23 1.78 9.28
9/6/2021 6:15:00 PM 16.51 61.718 0.051 7.2 1.8 9.29
9/6/2021 6:30:00 PM 16.41 61.538 0.051 7.2 1.94 9.27
9/6/2021 6:45:00 PM 16.32 61.376 0.051 7.17 1.97 9.22
9/6/2021 7:00:00 PM 16.18 61.124 0.051 7.16 1.85 9.22
9/6/2021 7:15:00 PM 16.07 60.926 0.053 7.13 1.78 9.19
9/6/2021 7:30:00 PM 15.96 60.728 1.661 7.01 2.09 9.13
9/6/2021 7:45:00 PM 15.82 60.476 1.491 7 1.92 9.12
9/6/2021 8:00:00 PM 15.69 60.242 1.406 6.99 1.82 9.12
9/6/2021 8:15:00 PM 15.55 59.99 1.244 6.99 2.19 9.13
9/6/2021 8:30:00 PM 15.46 59.828 1.147 6.98 1.97 9.1
9/6/2021 8:45:00 PM 15.34 59.612 1.299 6.98 1.94 9.1
9/6/2021 9:00:00 PM 15.22 59.396 1.105 6.98 2.21 9.12
9/6/2021 9:15:00 PM 15.11 59.198 1.116 6.97 1.95 9.15
9/6/2021 9:30:00 PM 15 59 1.013 6.97 2.69 9.17
9/6/2021 9:45:00 PM 14.88 58.784 0.894 6.97 2.58 9.18
9/6/2021 10:00:00 PM 14.78 58.604 0.89 6.97 1.95 9.2
9/6/2021 10:15:00 PM 14.66 58.388 0.465 7.01 2.22 9.24
9/6/2021 10:30:00 PM 14.56 58.208 0.271 7 1.97 9.25
9/6/2021 10:45:00 PM 14.48 58.064 0.411 7 2.25 9.27
9/6/2021 11:00:00 PM 14.37 57.866 0.137 7.02 2.17 9.32
9/6/2021 11:15:00 PM 14.3 57.74 0.525 6.99 2.31 9.31
9/6/2021 11:30:00 PM 14.2 57.56 0.617 6.99 2.24 9.34
9/6/2021 11:45:00 PM 14.12 57.416 0.725 6.88 2.26 9.35
9/7/2021 12:00:00 AM 14.03 57.254 0.052 7.02 2.19 9.38
9/7/2021 12:15:00 AM 13.94 57.092 0.052 6.9 2 9.4
9/7/2021 12:30:00 AM 13.84 56.912 0.053 7.02 2.06 9.45
9/7/2021 12:45:00 AM 13.8 56.84 0.087 7.02 2.14 9.43
9/7/2021 1:00:00 AM 13.72 56.696 0.095 7.01 2.04 9.46
9/7/2021 1:15:00 AM 13.64 56.552 0.055 6.89 2.04 9.47
9/7/2021 1:30:00 AM 13.58 56.444 0.053 6.95 1.95 9.46
9/7/2021 1:45:00 AM 13.5 56.3 0.053 7 2.09 9.52
9/7/2021 2:00:00 AM 13.43 56.174 0.053 6.99 2.09 9.51
9/7/2021 2:15:00 AM 13.37 56.066 0.053 7 1.94 9.52
9/7/2021 2:30:00 AM 13.29 55.922 0.053 7.01 2.09 9.54
9/7/2021 2:45:00 AM 13.21 55.778 0.053 7.01 2.03 9.58
9/7/2021 3:00:00 AM 13.12 55.616 0.053 7.02 2.16 9.61
9/7/2021 3:15:00 AM 13.05 55.49 0.053 7.01 2.16 9.64
9/7/2021 3:30:00 AM 12.98 55.364 0.053 6.88 2.34 9.65
9/7/2021 3:45:00 AM 12.92 55.256 0.053 7.01 1.99 9.66
9/7/2021 4:00:00 AM 12.88 55.184 0.053 7 2.1 9.64
9/7/2021 4:15:00 AM 12.8 55.04 0.053 7 2.09 9.68
9/7/2021 4:30:00 AM 12.77 54.986 0.053 6.99 3.15 9.63
9/7/2021 4:45:00 AM 12.71 54.878 0.053 6.86 2.3 9.66
9/7/2021 5:00:00 AM 12.65 54.77 0.053 7 2.24 9.69
9/7/2021 5:15:00 AM 12.6 54.68 0.053 6.99 2.08 9.73
9/7/2021 5:30:00 AM 12.55 54.59 0.053 7 1.97 9.74
9/7/2021 5:45:00 AM 12.5 54.5 0.053 6.88 2.21 9.75
9/7/2021 6:00:00 AM 12.45 54.41 0.053 6.92 2.1 9.76
9/7/2021 6:15:00 AM 12.42 54.356 0.053 7 1.98 9.78
9/7/2021 6:30:00 AM 12.36 54.248 0.053 7.01 1.9 9.82
9/7/2021 6:45:00 AM 12.33 54.194 0.053 6.98 2.01 9.83
9/7/2021 7:00:00 AM 12.29 54.122 0.053 7.01 1.89 9.83
9/7/2021 7:15:00 AM 12.26 54.068 0.053 7.01 2.01 9.88
9/7/2021 7:30:00 AM 12.24 54.032 0.053 7.01 1.99 9.89
9/7/2021 7:45:00 AM 12.22 53.996 0.053 7.02 2.15 9.94
9/7/2021 8:00:00 AM 12.17 53.906 0.053 7.04 2.49 10.02
9/7/2021 8:15:00 AM 12.18 53.924 0.052 7.04 2.08 10.03
9/7/2021 8:30:00 AM 12.15 53.87 0.052 7.03 1.98 10.07
9/7/2021 8:45:00 AM 12.12 53.816 0.052 7.06 1.98 10.08
9/7/2021 9:00:00 AM 12.09 53.762 0.052 6.94 1.9 10.1
9/7/2021 9:15:00 AM 12.09 53.762 0.052 7.07 1.95 10.12
9/7/2021 9:30:00 AM 12.07 53.726 0.052 7.05 1.83 10.14
9/7/2021 9:45:00 AM 12.08 53.744 0.052 7.05 1.96 10.15
9/7/2021 10:00:00 AM 12.1 53.78 0.052 6.99 1.86 10.18
9/7/2021 10:15:00 AM 12.21 53.978 0.052 7.09 1.8 10.2
9/7/2021 10:30:00 AM 12.32 54.176 0.052 7.08 1.82 10.26
9/7/2021 10:45:00 AM 12.39 54.302 0.052 7.1 1.83 10.19
9/7/2021 11:00:00 AM 12.52 54.536 0.052 7 1.82 10.18
9/7/2021 11:15:00 AM 12.67 54.806 0.052 7.12 1.86 10.16
9/7/2021 11:30:00 AM 12.84 55.112 0.052 7.13 1.83 10.15
9/7/2021 11:45:00 AM 13.02 55.436 0.052 7.13 1.81 10.14
9/7/2021 12:00:00 PM 13.23 55.814 0.052 7.14 1.85 10.1
9/7/2021 12:15:00 PM 13.37 56.066 0.052 7.14 1.76 10.08
9/7/2021 12:30:00 PM 13.62 56.516 0.052 7.15 2.1 10.06
9/7/2021 12:45:00 PM 13.92 57.056 0.052 7.04 1.74 9.97
9/7/2021 1:00:00 PM 14.15 57.47 0.052 7.17 1.75 9.94
9/7/2021 1:15:00 PM 14.55 58.19 0.052 7.18 1.85 9.93
9/7/2021 1:30:00 PM 14.81 58.658 0.051 7.18 1.81 9.88
9/7/2021 1:45:00 PM 15.06 59.108 0.051 7.09 1.95 9.87
9/7/2021 2:00:00 PM 15.3 59.54 0.051 7.18 1.95 9.82
9/7/2021 2:15:00 PM 15.54 59.972 0.051 7.13 2 9.78
9/7/2021 2:30:00 PM 15.7 60.26 0.051 7.22 1.8 9.77
9/7/2021 2:45:00 PM 15.92 60.656 0.051 7.23 1.7 9.75
9/7/2021 3:00:00 PM 16.12 61.016 0.051 7.21 1.81 9.69
9/7/2021 3:15:00 PM 16.3 61.34 0.051 7.17 1.77 9.64
9/7/2021 3:30:00 PM 16.5 61.7 0.051 7.25 1.84 9.65
9/7/2021 3:45:00 PM 16.65 61.97 0.051 7.26 1.66 9.61
9/7/2021 4:00:00 PM 16.72 62.096 0.051 7.26 1.78 9.56
9/7/2021 4:15:00 PM 16.87 62.366 0.051 7.25 1.72 9.55
9/7/2021 4:30:00 PM 16.83 62.294 0.051 7.15 1.8 9.52
9/7/2021 4:45:00 PM 16.83 62.294 0.051 7.26 1.65 9.49
9/7/2021 5:00:00 PM 16.78 62.204 0.051 7.25 1.71 9.44
9/7/2021 5:15:00 PM 16.74 62.132 0.051 7.24 1.82 9.38
9/7/2021 5:30:00 PM 16.71 62.078 0.051 7.24 1.8 9.36
9/7/2021 5:45:00 PM 16.65 61.97 0.051 7.22 1.99 9.33
9/7/2021 6:00:00 PM 16.49 61.682 0.051 7.09 1.7 9.3
9/7/2021 6:15:00 PM 16.37 61.466 0.052 7.11 1.9 9.29
9/7/2021 6:30:00 PM 16.26 61.268 0.052 7.1 1.99 9.26
9/7/2021 6:45:00 PM 16.16 61.088 0.052 7.16 1.85 9.25
9/7/2021 7:00:00 PM 16.03 60.854 0.052 7.03 1.84 9.23
9/7/2021 7:15:00 PM 15.97 60.746 0.052 7.12 1.9 9.2
9/7/2021 7:30:00 PM 15.84 60.512 0.052 7.12 1.79 9.19
9/7/2021 7:45:00 PM 15.77 60.386 0.052 7.07 1.84 9.16
9/7/2021 8:00:00 PM 15.63 60.134 0.052 7.09 1.9 9.17
9/7/2021 8:15:00 PM 15.54 59.972 0.052 7.08 1.82 9.17
9/7/2021 8:30:00 PM 15.42 59.756 0.052 7.06 1.88 9.18
9/7/2021 8:45:00 PM 15.34 59.612 0.052 7.04 1.84 9.17
9/7/2021 9:00:00 PM 15.29 59.522 0.052 7.05 1.85 9.15
9/7/2021 9:15:00 PM 15.19 59.342 0.052 6.99 1.91 9.18
9/7/2021 9:30:00 PM 15.15 59.27 0.053 7.04 1.89 9.17
9/7/2021 9:45:00 PM 15.07 59.126 0.053 6.91 1.85 9.23
9/7/2021 10:00:00 PM 15.03 59.054 0.053 7.03 2.08 9.2
9/7/2021 10:15:00 PM 14.95 58.91 0.053 6.94 2.13 9.23
9/7/2021 10:30:00 PM 14.92 58.856 0.053 7.03 1.94 9.21
9/7/2021 10:45:00 PM 14.86 58.748 0.053 6.98 2 9.23
9/7/2021 11:00:00 PM 14.79 58.622 0.053 7.02 2.1 9.25
9/7/2021 11:15:00 PM 14.74 58.532 0.053 6.93 2.03 9.26
9/7/2021 11:30:00 PM 14.7 58.46 0.053 6.95 2.29 9.25
9/7/2021 11:45:00 PM 14.65 58.37 0.053 6.94 2.02 9.26
9/8/2021 12:00:00 AM 14.6 58.28 0.053 6.94 2.08 9.28
9/8/2021 12:15:00 AM 14.56 58.208 0.053 7 1.91 9.29
9/8/2021 12:30:00 AM 14.52 58.136 0.053 7.01 1.95 9.28
9/8/2021 12:45:00 AM 14.44 57.992 0.053 6.92 1.88 9.32
9/8/2021 1:00:00 AM 14.4 57.92 0.053 7.01 1.92 9.33
9/8/2021 1:15:00 AM 14.35 57.83 0.053 7.01 1.86 9.33
9/8/2021 1:30:00 AM 14.3 57.74 0.053 6.89 2.02 9.35
9/8/2021 1:45:00 AM 14.25 57.65 0.053 7.01 1.9 9.38
9/8/2021 2:00:00 AM 14.22 57.596 0.053 6.98 1.99 9.35
9/8/2021 2:15:00 AM 14.17 57.506 0.053 7 1.9 9.38
9/8/2021 2:30:00 AM 14.13 57.434 0.053 7 1.84 9.37
9/8/2021 2:45:00 AM 14.08 57.344 0.053 6.99 1.95 9.4
9/8/2021 3:00:00 AM 14.05 57.29 0.053 6.93 1.83 9.4
9/8/2021 3:15:00 AM 14.02 57.236 0.053 7 2.06 9.4
9/8/2021 3:30:00 AM 13.97 57.146 0.053 6.95 1.98 9.43
9/8/2021 3:45:00 AM 13.94 57.092 0.053 7 1.92 9.42
9/8/2021 4:00:00 AM 13.91 57.038 0.053 6.91 1.93 9.41
9/8/2021 4:15:00 AM 13.89 57.002 0.053 6.99 1.91 9.37
9/8/2021 4:30:00 AM 13.84 56.912 0.053 6.93 1.98 9.46
9/8/2021 4:45:00 AM 13.81 56.858 0.053 6.98 1.95 9.41
9/8/2021 5:00:00 AM 13.77 56.786 0.053 6.97 1.97 9.45
9/8/2021 5:15:00 AM 13.74 56.732 0.053 6.99 1.96 9.45
9/8/2021 5:30:00 AM 13.69 56.642 0.053 6.97 1.97 9.46
9/8/2021 5:45:00 AM 13.66 56.588 0.053 6.94 1.96 9.47
9/8/2021 6:00:00 AM 13.64 56.552 0.053 6.98 2.02 9.44
9/8/2021 6:15:00 AM 13.61 56.498 0.053 6.99 1.98 9.47
9/8/2021 6:30:00 AM 13.58 56.444 0.053 6.99 1.96 9.51
9/8/2021 6:45:00 AM 13.56 56.408 0.053 6.99 1.97 9.5
9/8/2021 7:00:00 AM 13.53 56.354 0.053 6.98 1.99 9.52
9/8/2021 7:15:00 AM 13.52 56.336 0.053 6.98 1.98 9.52
9/8/2021 7:30:00 AM 13.5 56.3 0.053 7 1.88 9.54
9/8/2021 7:45:00 AM 13.47 56.246 0.053 7.01 2.07 9.59
9/8/2021 8:00:00 AM 13.46 56.228 0.053 6.95 2.39 9.62
9/8/2021 8:15:00 AM 13.46 56.228 0.053 7.03 2.25 9.69
9/8/2021 8:30:00 AM 13.48 56.264 0.053 7.03 2.03 9.73
9/8/2021 8:45:00 AM 13.5 56.3 0.053 6.95 2 9.79
9/8/2021 9:00:00 AM 13.52 56.336 0.053 7.07 1.97 9.84
9/8/2021 9:15:00 AM 13.58 56.444 0.053 7.07 1.86 9.86
9/8/2021 9:30:00 AM 13.65 56.57 0.053 7.09 1.89 9.93
9/8/2021 9:45:00 AM 13.69 56.642 0.052 7.11 1.89 9.95
9/8/2021 10:00:00 AM 13.76 56.768 0.052 7.08 1.91 9.96
9/8/2021 10:15:00 AM 13.86 56.948 0.052 7.11 1.76 9.99
9/8/2021 10:30:00 AM 13.99 57.182 0.052 7.17 1.76 9.96
9/8/2021 10:45:00 AM 14.11 57.398 0.052 7.17 1.81 9.96
9/8/2021 11:00:00 AM 14.24 57.632 0.052 7.19 1.76 9.95
9/8/2021 11:15:00 AM 14.42 57.956 0.052 7.17 1.8 9.96
9/8/2021 11:30:00 AM 14.58 58.244 0.052 7.21 1.78 9.97
9/8/2021 11:45:00 AM 14.68 58.424 0.052 7.22 1.88 9.9
9/8/2021 12:00:00 PM 14.76 58.568 0.052 7.24 1.77 9.88
9/8/2021 12:15:00 PM 14.87 58.766 0.052 7.16 1.93 9.9
9/8/2021 12:30:00 PM 14.95 58.91 0.052 7.17 1.92 9.84
9/8/2021 12:45:00 PM 15.02 59.036 0.052 7.25 1.79 9.81
9/8/2021 1:00:00 PM 15.03 59.054 0.052 7.16 1.76 9.71
9/8/2021 1:15:00 PM 15.04 59.072 0.052 7.21 1.78 9.64
9/8/2021 1:30:00 PM 15.05 59.09 0.052 7.2 1.74 9.62
9/8/2021 1:45:00 PM 15.04 59.072 0.051 7.17 2.06 9.51
9/8/2021 2:00:00 PM 15.07 59.126 0.051 7.05 1.85 9.53
9/8/2021 2:15:00 PM 15.06 59.108 0.051 7.15 1.96 9.55
9/8/2021 2:30:00 PM 15.08 59.144 0.051 7.06 1.96 9.55
9/8/2021 2:45:00 PM 15.08 59.144 0.051 7.15 2.08 9.59
9/8/2021 3:00:00 PM 15.07 59.126 0.051 7.15 1.93 9.63
9/8/2021 3:15:00 PM 15.05 59.09 0.051 7.18 1.93 9.64
9/8/2021 3:30:00 PM 15.04 59.072 0.051 7.18 1.87 9.62
9/8/2021 3:45:00 PM 15.09 59.162 0.051 7.18 1.93 9.66
9/8/2021 4:00:00 PM 15.12 59.216 0.051 7.11 1.85 9.66
9/8/2021 4:15:00 PM 15.15 59.27 0.051 7.21 2 9.69
9/8/2021 4:30:00 PM 15.17 59.306 0.051 7.11 1.81 9.63
9/8/2021 4:45:00 PM 15.18 59.324 0.051 7.16 1.95 9.63
9/8/2021 5:00:00 PM 15.2 59.36 0.051 7.18 1.88 9.66
9/8/2021 5:15:00 PM 15.22 59.396 0.051 7.21 1.94 9.65
9/8/2021 5:30:00 PM 15.24 59.432 0.051 7.19 1.89 9.64
9/8/2021 5:45:00 PM 15.28 59.504 0.051 7.21 1.95 9.63
9/8/2021 6:00:00 PM 15.28 59.504 0.051 7.2 1.79 9.6
9/8/2021 6:15:00 PM 15.26 59.468 0.051 7.19 1.91 9.57
9/8/2021 6:30:00 PM 15.25 59.45 0.051 7.18 1.92 9.51
9/8/2021 6:45:00 PM 15.25 59.45 0.051 7.18 1.89 9.53
9/8/2021 7:00:00 PM 15.22 59.396 0.052 7.16 1.82 9.48
9/8/2021 7:15:00 PM 15.22 59.396 0.052 7.14 1.84 9.46
9/8/2021 7:30:00 PM 15.19 59.342 0.052 7.08 1.84 9.42
9/8/2021 7:45:00 PM 15.16 59.288 0.052 7.12 1.84 9.37
9/8/2021 8:00:00 PM 15.11 59.198 0.052 7.09 1.96 9.32
9/8/2021 8:15:00 PM 15.07 59.126 0.052 7.07 1.9 9.27
9/8/2021 8:30:00 PM 15.02 59.036 0.052 7.07 2.13 9.27
9/8/2021 8:45:00 PM 14.97 58.946 0.053 7.06 2.02 9.25
9/8/2021 9:00:00 PM 14.92 58.856 0.053 7.04 2.12 9.22
9/8/2021 9:15:00 PM 14.89 58.802 0.053 7.03 2.04 9.2
9/8/2021 9:30:00 PM 14.83 58.694 0.053 7.02 2.13 9.23
9/8/2021 9:45:00 PM 14.79 58.622 0.053 7.02 1.96 9.24
9/8/2021 10:00:00 PM 14.76 58.568 0.053 6.88 2.06 9.23
9/8/2021 10:15:00 PM 14.72 58.496 0.053 7.01 2.02 9.23
9/8/2021 10:30:00 PM 14.7 58.46 0.054 6.99 1.98 9.23
9/8/2021 10:45:00 PM 14.69 58.442 0.492 6.96 1.97 9.19
9/8/2021 11:00:00 PM 14.66 58.388 1.958 6.87 1.98 9.2
9/8/2021 11:15:00 PM 14.66 58.388 1.872 6.86 1.99 9.17
9/8/2021 11:30:00 PM 14.64 58.352 1.828 6.86 1.95 9.17
9/8/2021 11:45:00 PM 14.62 58.316 1.855 6.86 1.99 9.19
9/9/2021 12:00:00 AM 14.6 58.28 1.871 6.8 2 9.22
9/9/2021 12:15:00 AM 14.58 58.244 1.906 6.88 2.16 9.21
9/9/2021 12:30:00 AM 14.56 58.208 1.906 6.87 2.07 9.19
9/9/2021 12:45:00 AM 14.54 58.172 1.929 6.87 1.96 9.18
9/9/2021 1:00:00 AM 14.51 58.118 1.961 6.88 1.99 9.2
9/9/2021 1:15:00 AM 14.48 58.064 0.098 6.91 2.05 9.27
9/9/2021 1:30:00 AM 14.45 58.01 1.911 6.88 2.02 9.24
9/9/2021 1:45:00 AM 14.44 57.992 0.057 6.99 1.93 9.27
9/9/2021 2:00:00 AM 14.4 57.92 1.931 6.89 1.92 9.28
9/9/2021 2:15:00 AM 14.36 57.848 1.877 6.89 1.98 9.29
9/9/2021 2:30:00 AM 14.34 57.812 1.849 6.9 2.13 9.28
9/9/2021 2:45:00 AM 14.33 57.794 1.89 6.89 1.99 9.26
9/9/2021 3:00:00 AM 14.3 57.74 1.91 6.89 1.92 9.27
9/9/2021 3:15:00 AM 14.28 57.704 1.817 6.89 1.96 9.27
9/9/2021 3:30:00 AM 14.25 57.65 1.859 6.88 2.07 9.28
9/9/2021 3:45:00 AM 14.22 57.596 1.798 6.9 2.15 9.3
9/9/2021 4:00:00 AM 14.19 57.542 1.866 6.89 2.01 9.31
9/9/2021 4:15:00 AM 14.16 57.488 0.054 6.85 2.06 9.4
9/9/2021 4:30:00 AM 14.14 57.452 1.783 6.9 2.04 9.29
9/9/2021 4:45:00 AM 14.11 57.398 1.802 6.9 2 9.34
9/9/2021 5:00:00 AM 14.1 57.38 1.811 6.89 1.95 9.3
9/9/2021 5:15:00 AM 14.06 57.308 1.787 6.85 2.11 9.34
9/9/2021 5:30:00 AM 14.05 57.29 1.967 6.96 1.93 9.32
9/9/2021 5:45:00 AM 14.03 57.254 1.797 6.86 2.03 9.32
9/9/2021 6:00:00 AM 14 57.2 0.058 7 2.15 9.39
9/9/2021 6:15:00 AM 13.98 57.164 0.055 6.93 1.92 9.39
9/9/2021 6:30:00 AM 13.96 57.128 1.796 6.89 2.02 9.35
9/9/2021 6:45:00 AM 13.93 57.074 0.284 6.84 2.09 9.42
9/9/2021 7:00:00 AM 13.9 57.02 1.809 6.89 1.94 9.4
9/9/2021 7:15:00 AM 13.89 57.002 0.05 7 1.92 9.45
9/9/2021 7:30:00 AM 13.88 56.984 1.878 6.93 2.13 9.39
9/9/2021 7:45:00 AM 13.87 56.966 1.845 6.88 2.31 9.38
9/9/2021 8:00:00 AM 13.86 56.948 1.876 6.89 2.19 9.43
9/9/2021 8:15:00 AM 13.85 56.93 2.108 6.89 2.11 9.42
9/9/2021 8:30:00 AM 13.83 56.894 0.054 6.92 2.18 9.53
9/9/2021 8:45:00 AM 13.82 56.876 1.888 6.88 2.44 9.47
9/9/2021 9:00:00 AM 13.84 56.912 0.056 7 2.31 9.61
9/9/2021 9:15:00 AM 13.86 56.948 1.896 6.93 2.06 9.62
9/9/2021 9:30:00 AM 13.88 56.984 1.802 6.94 1.91 9.69
9/9/2021 9:45:00 AM 13.92 57.056 1.811 6.95 2.02 9.73
9/9/2021 10:00:00 AM 13.95 57.11 1.78 6.92 1.97 9.8
9/9/2021 10:15:00 AM 14 57.2 1.753 6.99 1.88 9.82
9/9/2021 10:30:00 AM 14.03 57.254 1.765 7.03 1.92 9.83
9/9/2021 10:45:00 AM 14.08 57.344 1.7 6.97 1.92 9.85
9/9/2021 11:00:00 AM 14.19 57.542 0.208 7.14 1.85 9.93
9/9/2021 11:15:00 AM 14.26 57.668 1.816 7.1 1.84 9.88
9/9/2021 11:30:00 AM 14.35 57.83 0.058 7.17 1.88 9.92
9/9/2021 11:45:00 AM 14.48 58.064 1.768 7.08 1.83 9.9
9/9/2021 12:00:00 PM 14.63 58.334 0.06 7.19 1.83 9.87
9/9/2021 12:15:00 PM 14.81 58.658 0.069 7.17 1.86 9.87
9/9/2021 12:30:00 PM 15.06 59.108 1.631 7.04 2.73 9.81
9/9/2021 12:45:00 PM 15.18 59.324 1.677 7.06 1.91 9.78
9/9/2021 1:00:00 PM 15.37 59.666 0.054 7.22 1.74 9.83
9/9/2021 1:15:00 PM 15.55 59.99 1.525 7.07 1.7 9.75
9/9/2021 1:30:00 PM 15.79 60.422 0.052 7.19 1.76 9.77
9/9/2021 1:45:00 PM 15.87 60.566 1.047 7.21 1.9 9.72
9/9/2021 2:00:00 PM 16.03 60.854 0.741 7.23 1.84 9.7
9/9/2021 2:15:00 PM 16.14 61.052 0.852 7.23 1.87 9.68
9/9/2021 2:30:00 PM 16.19 61.142 0.816 7.22 1.93 9.65
9/9/2021 2:45:00 PM 16.34 61.412 0.815 7.18 1.8 9.65
9/9/2021 3:00:00 PM 16.51 61.718 0.81 7.23 1.74 9.65
9/9/2021 3:15:00 PM 16.65 61.97 0.613 7.23 1.74 9.61
9/9/2021 3:30:00 PM 16.78 62.204 0.636 7.27 1.73 9.59
9/9/2021 3:45:00 PM 16.94 62.492 0.628 7.27 1.76 9.56
9/9/2021 4:00:00 PM 16.86 62.348 0.615 7.18 1.74 9.49
9/9/2021 4:15:00 PM 16.81 62.258 0.602 7.2 1.7 9.44
9/9/2021 4:30:00 PM 16.8 62.24 0.588 7.21 1.75 9.44
9/9/2021 4:45:00 PM 16.79 62.222 0.051 7.3 1.77 9.42
9/9/2021 5:00:00 PM 16.71 62.078 0.052 7.27 1.75 9.36
9/9/2021 5:15:00 PM 16.63 61.934 0.052 7.27 1.81 9.35
9/9/2021 5:30:00 PM 16.63 61.934 0.052 7.13 1.89 9.37
9/9/2021 5:45:00 PM 16.53 61.754 0.052 7.26 1.98 9.37
9/9/2021 6:00:00 PM 16.43 61.574 0.052 7.26 1.75 9.38
9/9/2021 6:15:00 PM 16.34 61.412 0.052 7.25 1.78 9.37
9/9/2021 6:30:00 PM 16.23 61.214 0.052 7.23 1.83 9.33
9/9/2021 6:45:00 PM 16.15 61.07 0.052 7.21 1.83 9.29
9/9/2021 7:00:00 PM 16.03 60.854 0.052 7.2 1.85 9.26
9/9/2021 7:15:00 PM 15.91 60.638 0.052 7.18 1.75 9.24
9/9/2021 7:30:00 PM 15.8 60.44 0.318 7.15 1.82 9.21
9/9/2021 7:45:00 PM 15.67 60.206 0.563 7 1.89 9.19
9/9/2021 8:00:00 PM 15.59 60.062 0.748 7.07 1.92 9.13
9/9/2021 8:15:00 PM 15.44 59.792 0.899 7.06 1.8 9.16
9/9/2021 8:30:00 PM 15.33 59.594 0.673 7.06 1.9 9.14
9/9/2021 8:45:00 PM 15.19 59.342 0.053 7.1 1.94 9.19
9/9/2021 9:00:00 PM 15.09 59.162 0.053 7.08 2.07 9.18
9/9/2021 9:15:00 PM 15.03 59.054 0.053 7.06 2.11 9.12
9/9/2021 9:30:00 PM 14.85 58.73 0.053 7.08 2.17 9.23
9/9/2021 9:45:00 PM 14.75 58.55 0.053 6.98 2.06 9.24
9/9/2021 10:00:00 PM 14.66 58.388 0.468 7.03 1.96 9.23
9/9/2021 10:15:00 PM 14.58 58.244 0.053 7.04 1.95 9.21
9/9/2021 10:30:00 PM 14.48 58.064 0.172 7.04 2.11 9.26
9/9/2021 10:45:00 PM 14.36 57.848 0.053 6.93 2.01 9.33
9/9/2021 11:00:00 PM 14.28 57.704 0.057 7.06 2 9.35
9/9/2021 11:15:00 PM 14.22 57.596 0.065 7.04 2.07 9.32
9/9/2021 11:30:00 PM 14.12 57.416 0.348 7.02 2.59 9.33
9/9/2021 11:45:00 PM 14.05 57.29 0.411 7.01 1.95 9.36
9/10/2021 12:00:00 AM 13.98 57.164 0.057 7.01 2.06 9.4
9/10/2021 12:15:00 AM 13.9 57.02 0.213 7.03 2.04 9.42
9/10/2021 12:30:00 AM 13.85 56.93 0.054 7.03 2.38 9.42
9/10/2021 12:45:00 AM 13.79 56.822 0.054 7.04 2.08 9.45
9/10/2021 1:00:00 AM 13.73 56.714 0.054 7.05 1.95 9.48
9/10/2021 1:15:00 AM 13.69 56.642 0.054 6.94 2.14 9.49
9/10/2021 1:30:00 AM 13.67 56.606 0.054 7.03 2.01 9.47
9/10/2021 1:45:00 AM 13.64 56.552 0.054 7.03 1.99 9.47
9/10/2021 2:00:00 AM 13.59 56.462 0.054 6.96 2.05 9.5
9/10/2021 2:15:00 AM 13.54 56.372 0.054 7.04 2.03 9.55
9/10/2021 2:30:00 AM 13.53 56.354 0.054 6.95 1.93 9.51
9/10/2021 2:45:00 AM 13.51 56.318 0.054 7.04 1.96 9.52
9/10/2021 3:00:00 AM 13.48 56.264 0.054 7.04 1.97 9.55
9/10/2021 3:15:00 AM 13.45 56.21 0.054 7.05 2 9.56
9/10/2021 3:30:00 AM 13.43 56.174 0.054 7.03 1.87 9.54
9/10/2021 3:45:00 AM 13.39 56.102 0.054 6.92 1.9 9.55
9/10/2021 4:00:00 AM 13.36 56.048 0.054 7.03 2.02 9.52
9/10/2021 4:15:00 AM 13.32 55.976 0.054 7.03 1.98 9.54
9/10/2021 4:30:00 AM 13.29 55.922 0.054 7.02 2.04 9.57
9/10/2021 4:45:00 AM 13.26 55.868 0.054 6.95 1.99 9.58
9/10/2021 5:00:00 AM 13.23 55.814 0.054 7.02 1.89 9.59
9/10/2021 5:15:00 AM 13.2 55.76 0.054 7 2.05 9.59
9/10/2021 5:30:00 AM 13.17 55.706 0.054 7.02 2.15 9.6
9/10/2021 5:45:00 AM 13.12 55.616 0.054 7.02 2.05 9.62
9/10/2021 6:00:00 AM 13.09 55.562 0.054 7.03 2.18 9.66
9/10/2021 6:15:00 AM 13.07 55.526 0.054 7.02 2.16 9.63
9/10/2021 6:30:00 AM 13.05 55.49 0.054 7.02 2.14 9.64
9/10/2021 6:45:00 AM 13.02 55.436 0.054 7.03 1.97 9.67
9/10/2021 7:00:00 AM 13 55.4 0.054 7.03 2.07 9.67
9/10/2021 7:15:00 AM 12.98 55.364 0.054 7.02 2.12 9.67
9/10/2021 7:30:00 AM 12.94 55.292 0.054 6.92 2 9.73
9/10/2021 7:45:00 AM 12.92 55.256 0.054 7.04 2.02 9.78
9/10/2021 8:00:00 AM 12.92 55.256 0.054 7.04 2.01 9.78
9/10/2021 8:15:00 AM 12.89 55.202 0.054 7.07 2 9.86
9/10/2021 8:30:00 AM 12.87 55.166 0.054 7.07 2.08 9.9
9/10/2021 8:45:00 AM 12.85 55.13 0.053 6.98 1.83 9.97
9/10/2021 9:00:00 AM 12.88 55.184 0.053 7.11 2.04 10.03
9/10/2021 9:15:00 AM 12.89 55.202 0.053 7.13 1.93 10.06
9/10/2021 9:30:00 AM 12.95 55.31 0.053 7.02 1.95 10.11
9/10/2021 9:45:00 AM 12.96 55.328 0.053 7.11 1.97 10.13
9/10/2021 10:00:00 AM 12.99 55.382 0.053 7.11 1.89 10.15
9/10/2021 10:15:00 AM 13.06 55.508 0.053 7.1 1.94 10.17
9/10/2021 10:30:00 AM 13.11 55.598 0.053 7.16 1.83 10.16
9/10/2021 10:45:00 AM 13.18 55.724 0.053 7.1 1.96 10.15
9/10/2021 11:00:00 AM 13.27 55.886 0.053 7.2 1.86 10.15
9/10/2021 11:15:00 AM 13.38 56.084 0.053 7.21 1.88 10.12
9/10/2021 11:30:00 AM 13.49 56.282 0.053 7.2 1.88 10.12
9/10/2021 11:45:00 AM 13.59 56.462 0.052 7.21 2.41 10.12
9/10/2021 12:00:00 PM 13.76 56.768 0.052 7.23 2.77 10.1
9/10/2021 12:15:00 PM 13.94 57.092 0.052 7.21 1.85 10.08
9/10/2021 12:30:00 PM 14.07 57.326 0.052 7.12 1.83 10.05
9/10/2021 12:45:00 PM 14.21 57.578 0.052 7.25 1.76 10.03
9/10/2021 1:00:00 PM 14.37 57.866 0.052 7.26 1.9 10.02
9/10/2021 1:15:00 PM 14.58 58.244 0.052 7.26 1.86 10.01
9/10/2021 1:30:00 PM 14.73 58.514 0.052 7.27 1.93 9.98
9/10/2021 1:45:00 PM 14.84 58.712 0.052 7.19 1.83 9.97
9/10/2021 2:00:00 PM 14.92 58.856 0.052 7.28 1.8 9.96
9/10/2021 2:15:00 PM 15.12 59.216 0.052 7.23 2.19 9.93
9/10/2021 2:30:00 PM 15.32 59.576 0.052 7.3 1.77 9.91
9/10/2021 2:45:00 PM 15.51 59.918 0.052 7.2 1.75 9.89
9/10/2021 3:00:00 PM 15.58 60.044 0.052 7.32 1.76 9.84
9/10/2021 3:15:00 PM 15.58 60.044 0.052 7.31 1.79 9.81
9/10/2021 3:30:00 PM 15.88 60.584 0.052 7.31 1.76 9.78
9/10/2021 3:45:00 PM 15.97 60.746 0.052 7.31 1.74 9.78
9/10/2021 4:00:00 PM 15.92 60.656 0.052 7.26 1.72 9.75
9/10/2021 4:15:00 PM 15.93 60.674 0.052 7.23 1.79 9.71
9/10/2021 4:30:00 PM 15.82 60.476 0.052 7.31 1.64 9.66
9/10/2021 4:45:00 PM 15.79 60.422 0.052 7.29 1.76 9.66
9/10/2021 5:00:00 PM 15.75 60.35 0.052 7.29 1.76 9.64
9/10/2021 5:15:00 PM 15.7 60.26 0.052 7.25 1.91 9.64
9/10/2021 5:30:00 PM 15.69 60.242 0.052 7.28 1.73 9.63
9/10/2021 5:45:00 PM 15.62 60.116 0.052 7.28 1.74 9.62
9/10/2021 6:00:00 PM 15.54 59.972 0.052 7.25 1.75 9.58
9/10/2021 6:15:00 PM 15.48 59.864 0.052 7.11 1.75 9.54
9/10/2021 6:30:00 PM 15.4 59.72 0.052 7.13 1.83 9.51
9/10/2021 6:45:00 PM 15.31 59.558 0.052 7.2 1.93 9.46
9/10/2021 7:00:00 PM 15.22 59.396 0.052 7.18 1.74 9.44
9/10/2021 7:15:00 PM 15.15 59.27 0.052 7.17 1.86 9.41
9/10/2021 7:30:00 PM 15.05 59.09 0.053 7.14 1.92 9.39
9/10/2021 7:45:00 PM 14.95 58.91 0.053 7.14 1.78 9.37
9/10/2021 8:00:00 PM 14.82 58.676 0.053 7.11 1.77 9.39
9/10/2021 8:15:00 PM 14.74 58.532 0.053 7.11 2.12 9.35
9/10/2021 8:30:00 PM 14.62 58.316 0.053 7.1 1.79 9.37
9/10/2021 8:45:00 PM 14.53 58.154 0.053 7.08 3.35 9.36
9/10/2021 9:00:00 PM 14.42 57.956 0.053 6.95 1.91 9.39
9/10/2021 9:15:00 PM 14.32 57.776 0.053 7.06 2.04 9.39
9/10/2021 9:30:00 PM 14.22 57.596 0.053 7.06 2.11 9.41
9/10/2021 9:45:00 PM 14.11 57.398 0.053 7.06 1.93 9.44
9/10/2021 10:00:00 PM 14.03 57.254 0.054 7.07 1.95 9.45
9/10/2021 10:15:00 PM 13.94 57.092 0.054 7.07 1.91 9.47
9/10/2021 10:30:00 PM 13.85 56.93 0.054 6.93 1.85 9.5
9/10/2021 10:45:00 PM 13.77 56.786 0.054 7.06 1.99 9.5
9/10/2021 11:00:00 PM 13.68 56.624 0.054 7.06 1.99 9.53
9/10/2021 11:15:00 PM 13.59 56.462 0.054 7.06 1.79 9.54
9/10/2021 11:30:00 PM 13.5 56.3 0.054 6.97 1.98 9.58
9/10/2021 11:45:00 PM 13.42 56.156 0.054 7.06 2.29 9.59
9/11/2021 12:00:00 AM 13.33 55.994 0.054 7 2.04 9.62
9/11/2021 12:15:00 AM 13.26 55.868 0.054 6.96 2.04 9.61
9/11/2021 12:30:00 AM 13.17 55.706 0.054 7.05 2.22 9.64
9/11/2021 12:45:00 AM 13.1 55.58 0.054 6.94 2.15 9.67
9/11/2021 1:00:00 AM 13.03 55.454 0.054 6.97 2.25 9.67
9/11/2021 1:15:00 AM 12.95 55.31 0.054 7.04 2.08 9.73
9/11/2021 1:30:00 AM 12.88 55.184 0.054 7.04 2.16 9.73
9/11/2021 1:45:00 AM 12.81 55.058 0.054 7.04 1.92 9.75
9/11/2021 2:00:00 AM 12.76 54.968 0.054 7.03 2.22 9.72
9/11/2021 2:15:00 AM 12.68 54.824 0.054 7.04 1.99 9.75
9/11/2021 2:30:00 AM 12.61 54.698 0.054 6.96 2 9.78
9/11/2021 2:45:00 AM 12.56 54.608 0.054 7.02 2.19 9.78
9/11/2021 3:00:00 AM 12.48 54.464 0.054 7.03 2.08 9.82
9/11/2021 3:15:00 AM 12.42 54.356 0.054 6.91 1.96 9.79
9/11/2021 3:30:00 AM 12.35 54.23 0.054 7.04 2.18 9.85
9/11/2021 3:45:00 AM 12.28 54.104 0.054 7.02 2.07 9.85
9/11/2021 4:00:00 AM 12.24 54.032 0.054 7.02 2 9.87
9/11/2021 4:15:00 AM 12.17 53.906 0.054 6.95 2.1 9.9
9/11/2021 4:30:00 AM 12.12 53.816 0.054 7.03 2.05 9.91
9/11/2021 4:45:00 AM 12.08 53.744 0.054 7.02 2 9.9
9/11/2021 5:00:00 AM 12.04 53.672 0.054 7.01 2.08 9.88
9/11/2021 5:15:00 AM 11.99 53.582 0.054 7.02 2.06 9.93
9/11/2021 5:30:00 AM 11.95 53.51 0.054 6.99 2.01 9.94
9/11/2021 5:45:00 AM 11.91 53.438 0.054 7.02 1.99 9.96
9/11/2021 6:00:00 AM 11.88 53.384 0.054 7.02 1.94 9.98
9/11/2021 6:15:00 AM 11.84 53.312 0.054 7.03 2.03 9.99
9/11/2021 6:30:00 AM 11.8 53.24 0.054 7.02 1.95 10.01
9/11/2021 6:45:00 AM 11.76 53.168 0.054 7.03 2.07 10.03
9/11/2021 7:00:00 AM 11.72 53.096 0.054 7 2.16 10.04
9/11/2021 7:15:00 AM 11.68 53.024 0.054 7.03 1.98 10.07
9/11/2021 7:30:00 AM 11.65 52.97 0.054 6.98 2.01 10.1
9/11/2021 7:45:00 AM 11.62 52.916 0.054 7.05 2.3 10.18
9/11/2021 8:00:00 AM 11.6 52.88 0.054 7.06 2.19 10.22
9/11/2021 8:15:00 AM 11.58 52.844 0.054 7.07 2.05 10.27
9/11/2021 8:30:00 AM 11.58 52.844 0.054 7.07 1.98 10.3
9/11/2021 8:45:00 AM 11.58 52.844 0.054 7.09 1.92 10.37
9/11/2021 9:00:00 AM 11.59 52.862 0.054 7.11 1.91 10.43
9/11/2021 9:15:00 AM 11.6 52.88 0.053 7.13 1.97 10.47
9/11/2021 9:30:00 AM 11.62 52.916 0.053 7.13 1.94 10.47
9/11/2021 9:45:00 AM 11.64 52.952 0.053 7.04 1.89 10.49
9/11/2021 10:00:00 AM 11.7 53.06 0.053 7.1 1.95 10.53
9/11/2021 10:15:00 AM 11.73 53.114 0.053 7.15 1.91 10.51
9/11/2021 10:30:00 AM 11.78 53.204 0.053 7.06 1.8 10.5
9/11/2021 10:45:00 AM 11.87 53.366 0.053 7.16 1.93 10.49
9/11/2021 11:00:00 AM 11.96 53.528 0.053 7.17 1.73 10.48
9/11/2021 11:15:00 AM 12.08 53.744 0.053 7.18 2.08 10.44
9/11/2021 11:30:00 AM 12.26 54.068 0.053 7.19 1.86 10.44
9/11/2021 11:45:00 AM 12.47 54.446 0.054 7.19 1.78 10.41
9/11/2021 12:00:00 PM 12.72 54.896 0.053 7.19 1.8 10.38
9/11/2021 12:15:00 PM 12.91 55.238 0.053 7.22 1.81 10.35
9/11/2021 12:30:00 PM 13.15 55.67 0.053 7.2 1.89 10.34
9/11/2021 12:45:00 PM 13.5 56.3 0.053 7.22 1.82 10.27
9/11/2021 1:00:00 PM 13.72 56.696 0.053 7.25 1.83 10.23
9/11/2021 1:15:00 PM 14.09 57.362 0.052 7.26 1.84 10.18
9/11/2021 1:30:00 PM 14.37 57.866 0.052 7.27 1.87 10.15
9/11/2021 1:45:00 PM 14.66 58.388 0.052 7.21 1.72 10.1
9/11/2021 2:00:00 PM 14.89 58.802 0.052 7.3 1.86 10.08
9/11/2021 2:15:00 PM 15.05 59.09 0.052 7.3 1.89 10.03
9/11/2021 2:30:00 PM 15.21 59.378 0.052 7.31 1.79 9.97
9/11/2021 2:45:00 PM 15.43 59.774 0.052 7.23 1.77 9.91
9/11/2021 3:00:00 PM 15.62 60.116 0.052 7.18 1.76 9.93
9/11/2021 3:15:00 PM 15.8 60.44 0.052 7.3 1.67 9.87
9/11/2021 3:30:00 PM 16.04 60.872 0.052 7.31 1.83 9.88
9/11/2021 3:45:00 PM 15.96 60.728 0.052 7.25 1.79 9.81
9/11/2021 4:00:00 PM 15.97 60.746 0.052 7.33 1.79 9.76
9/11/2021 4:15:00 PM 16.13 61.034 0.052 7.32 1.84 9.77
9/11/2021 4:30:00 PM 16.11 60.998 0.052 7.35 1.75 9.74
9/11/2021 4:45:00 PM 16.09 60.962 0.052 7.32 1.76 9.73
9/11/2021 5:00:00 PM 16.1 60.98 0.052 7.34 1.67 9.71
9/11/2021 5:15:00 PM 16.09 60.962 0.052 7.34 1.66 9.68
9/11/2021 5:30:00 PM 16.04 60.872 0.052 7.31 1.7 9.63
9/11/2021 5:45:00 PM 15.97 60.746 0.052 7.31 1.67 9.58
9/11/2021 6:00:00 PM 15.89 60.602 0.052 7.29 1.66 9.55
9/11/2021 6:15:00 PM 15.81 60.458 0.052 7.26 1.64 9.5
9/11/2021 6:30:00 PM 15.7 60.26 0.052 7.21 1.64 9.47
9/11/2021 6:45:00 PM 15.61 60.098 0.052 7.22 1.77 9.44
9/11/2021 7:00:00 PM 15.53 59.954 0.053 7.07 1.71 9.41
9/11/2021 7:15:00 PM 15.41 59.738 0.053 7.18 1.74 9.39
9/11/2021 7:30:00 PM 15.32 59.576 0.053 7.17 1.77 9.36
9/11/2021 7:45:00 PM 15.21 59.378 0.053 7.16 1.71 9.35
9/11/2021 8:00:00 PM 15.1 59.18 0.053 7.14 1.72 9.32
9/11/2021 8:15:00 PM 15 59 0.053 7.12 1.74 9.34
9/11/2021 8:30:00 PM 14.89 58.802 0.053 6.99 1.77 9.34
9/11/2021 8:45:00 PM 14.79 58.622 0.053 7.1 1.93 9.34
9/11/2021 9:00:00 PM 14.7 58.46 0.053 7.08 1.8 9.33
9/11/2021 9:15:00 PM 14.61 58.298 0.054 7.09 1.84 9.35
9/11/2021 9:30:00 PM 14.52 58.136 0.054 7.07 1.92 9.38
9/11/2021 9:45:00 PM 14.45 58.01 0.054 7.08 1.78 9.37
9/11/2021 10:00:00 PM 14.34 57.812 0.054 7.08 1.96 9.42
9/11/2021 10:15:00 PM 14.28 57.704 0.054 7.07 1.79 9.41
9/11/2021 10:30:00 PM 14.2 57.56 0.054 6.99 1.97 9.42
9/11/2021 10:45:00 PM 14.14 57.452 0.054 7.07 1.89 9.43
9/11/2021 11:00:00 PM 14.06 57.308 0.054 7.06 1.86 9.45
9/11/2021 11:15:00 PM 14 57.2 0.054 7.06 1.89 9.45
9/11/2021 11:30:00 PM 13.92 57.056 0.054 6.94 1.79 9.49
9/11/2021 11:45:00 PM 13.85 56.93 0.054 7.06 1.83 9.51
9/12/2021 12:00:00 AM 13.79 56.822 0.054 7.05 1.95 9.52
9/12/2021 12:15:00 AM 13.74 56.732 0.054 7.05 1.98 9.53
9/12/2021 12:30:00 AM 13.68 56.624 0.054 7.05 1.92 9.55
9/12/2021 12:45:00 AM 13.62 56.516 0.054 7.05 1.77 9.56
9/12/2021 1:00:00 AM 13.57 56.426 0.054 7.05 1.8 9.58
9/12/2021 1:15:00 AM 13.52 56.336 0.054 7.05 2.08 9.59
9/12/2021 1:30:00 AM 13.48 56.264 0.054 7.04 1.96 9.59
9/12/2021 1:45:00 AM 13.45 56.21 0.054 7.05 1.96 9.59
9/12/2021 2:00:00 AM 13.41 56.138 0.054 6.96 1.92 9.6
9/12/2021 2:15:00 AM 13.37 56.066 0.055 7.05 1.99 9.61
9/12/2021 2:30:00 AM 13.34 56.012 0.055 6.97 1.84 9.62
9/12/2021 2:45:00 AM 13.31 55.958 0.055 7.04 1.84 9.62
9/12/2021 3:00:00 AM 13.28 55.904 0.055 7.03 1.94 9.63
9/12/2021 3:15:00 AM 13.27 55.886 0.055 7.04 1.89 9.64
9/12/2021 3:30:00 AM 13.24 55.832 0.055 7.01 2.17 9.64
9/12/2021 3:45:00 AM 13.2 55.76 0.055 7.04 1.9 9.66
9/12/2021 4:00:00 AM 13.18 55.724 0.055 7 1.97 9.65
9/12/2021 4:15:00 AM 13.17 55.706 0.055 7.04 1.81 9.66
9/12/2021 4:30:00 AM 13.16 55.688 0.055 6.91 1.95 9.66
9/12/2021 4:45:00 AM 13.16 55.688 0.055 7.04 1.9 9.66
9/12/2021 5:00:00 AM 13.15 55.67 0.055 7.03 1.82 9.68
9/12/2021 5:15:00 AM 13.15 55.67 0.055 7.03 1.93 9.68
9/12/2021 5:30:00 AM 13.15 55.67 0.055 7.02 1.95 9.66
9/12/2021 5:45:00 AM 13.15 55.67 0.055 7 1.94 9.66
9/12/2021 6:00:00 AM 13.15 55.67 0.055 7.03 1.96 9.67
9/12/2021 6:15:00 AM 13.15 55.67 0.055 7.02 1.85 9.67
9/12/2021 6:30:00 AM 13.15 55.67 0.055 7.02 1.94 9.66
9/12/2021 6:45:00 AM 13.16 55.688 0.055 7.02 1.93 9.66
9/12/2021 7:00:00 AM 13.16 55.688 0.055 6.92 1.94 9.67
9/12/2021 7:15:00 AM 13.18 55.724 0.055 7.02 1.86 9.7
9/12/2021 7:30:00 AM 13.19 55.742 0.055 7.04 1.93 9.71
9/12/2021 7:45:00 AM 13.22 55.796 0.055 6.93 1.9 9.74
9/12/2021 8:00:00 AM 13.23 55.814 0.055 7.06 1.95 9.81
9/12/2021 8:15:00 AM 13.26 55.868 0.055 7.03 2.26 9.84
9/12/2021 8:30:00 AM 13.28 55.904 0.054 7.07 2.06 9.9
9/12/2021 8:45:00 AM 13.33 55.994 0.054 7.08 2.27 9.94
9/12/2021 9:00:00 AM 13.38 56.084 0.054 7.03 5.35 9.94
9/12/2021 9:15:00 AM 13.42 56.156 0.054 7.05 4.57 9.95
9/12/2021 9:30:00 AM 13.46 56.228 0.054 7.13 1.76 9.97
9/12/2021 9:45:00 AM 13.52 56.336 0.054 7.06 1.74 9.99
9/12/2021 10:00:00 AM 13.59 56.462 0.054 7.16 2.05 10
9/12/2021 10:15:00 AM 13.65 56.57 0.054 7.16 3.92 9.99
9/12/2021 10:30:00 AM 13.75 56.75 0.054 7.17 1.89 10.01
9/12/2021 10:45:00 AM 13.83 56.894 0.053 7.1 1.85 10.02
9/12/2021 11:00:00 AM 13.9 57.02 0.054 7.2 1.95 10.02
9/12/2021 11:15:00 AM 13.97 57.146 0.056 7.21 1.85 10.02
9/12/2021 11:30:00 AM 14.04 57.272 0.059 7.12 1.92 10.03
9/12/2021 11:45:00 AM 14.12 57.416 0.053 7.24 1.83 10.03
9/12/2021 12:00:00 PM 14.2 57.56 0.053 7.24 1.87 10.05
9/12/2021 12:15:00 PM 14.24 57.632 0.053 7.15 1.85 10.02
9/12/2021 12:30:00 PM 14.32 57.776 0.053 7.26 1.83 10.03
9/12/2021 12:45:00 PM 14.41 57.938 0.053 7.16 1.87 10.04
9/12/2021 1:00:00 PM 14.52 58.136 0.053 7.19 1.85 10.03
9/12/2021 1:15:00 PM 14.57 58.226 0.053 7.24 1.87 10
9/12/2021 1:30:00 PM 14.65 58.37 0.053 7.28 1.94 10
9/12/2021 1:45:00 PM 14.77 58.586 0.053 7.29 1.77 10.01
9/12/2021 2:00:00 PM 14.87 58.766 0.053 7.22 1.83 10
9/12/2021 2:15:00 PM 15.01 59.018 0.053 7.3 1.89 10.01
9/12/2021 2:30:00 PM 15.2 59.36 0.053 7.31 1.81 10.01
9/12/2021 2:45:00 PM 15.31 59.558 0.053 7.34 1.87 9.98
9/12/2021 3:00:00 PM 15.47 59.846 0.052 7.25 1.76 9.97
9/12/2021 3:15:00 PM 15.62 60.116 0.052 7.36 1.86 9.95
9/12/2021 3:30:00 PM 15.66 60.188 0.052 7.25 1.88 9.92
9/12/2021 3:45:00 PM 15.75 60.35 0.052 7.28 1.84 9.87
9/12/2021 4:00:00 PM 15.88 60.584 0.052 7.31 1.85 9.84
9/12/2021 4:15:00 PM 16.01 60.818 0.052 7.37 1.78 9.8
9/12/2021 4:30:00 PM 16.14 61.052 0.052 7.35 1.83 9.79
9/12/2021 4:45:00 PM 16.21 61.178 0.052 7.37 1.88 9.79
9/12/2021 5:00:00 PM 16.18 61.124 0.052 7.35 1.83 9.69
9/12/2021 5:15:00 PM 16.19 61.142 0.052 7.33 1.9 9.65
9/12/2021 5:30:00 PM 16.2 61.16 0.052 7.32 1.77 9.63
9/12/2021 5:45:00 PM 16.17 61.106 0.053 7.31 1.82 9.6
9/12/2021 6:00:00 PM 16.16 61.088 0.053 7.28 1.83 9.57
9/12/2021 6:15:00 PM 16.14 61.052 0.053 7.26 1.88 9.52
9/12/2021 6:30:00 PM 16.09 60.962 0.053 7.24 1.89 9.47
9/12/2021 6:45:00 PM 16.03 60.854 0.053 7.09 1.88 9.42
9/12/2021 7:00:00 PM 15.97 60.746 0.053 7.17 1.87 9.37
9/12/2021 7:15:00 PM 15.91 60.638 0.053 7.16 1.85 9.32
9/12/2021 7:30:00 PM 15.85 60.53 0.053 7.14 1.96 9.27
9/12/2021 7:45:00 PM 15.8 60.44 0.053 7.1 1.95 9.23
9/12/2021 8:00:00 PM 15.74 60.332 0.053 7.09 1.91 9.21
9/12/2021 8:15:00 PM 15.68 60.224 0.054 7.07 2 9.2
9/12/2021 8:30:00 PM 15.65 60.17 0.054 7.05 2.03 9.18
9/12/2021 8:45:00 PM 15.61 60.098 0.054 7.04 1.99 9.17
9/12/2021 9:00:00 PM 15.56 60.008 0.054 7.02 1.99 9.17
9/12/2021 9:15:00 PM 15.52 59.936 0.054 7.02 1.97 9.17
9/12/2021 9:30:00 PM 15.5 59.9 0.054 7.01 2.02 9.14
9/12/2021 9:45:00 PM 15.47 59.846 0.055 6.98 2.09 9.13
9/12/2021 10:00:00 PM 15.43 59.774 0.055 7.01 2.08 9.16
9/12/2021 10:15:00 PM 15.41 59.738 0.055 7.01 2.02 9.16
9/12/2021 10:30:00 PM 15.39 59.702 0.055 7 2.02 9.14
9/12/2021 10:45:00 PM 15.37 59.666 0.055 7.01 2.37 9.16
9/12/2021 11:00:00 PM 15.34 59.612 0.055 7.01 2.1 9.17
9/12/2021 11:15:00 PM 15.32 59.576 0.055 6.92 2.02 9.17
9/12/2021 11:30:00 PM 15.29 59.522 0.055 6.98 1.98 9.18
9/12/2021 11:45:00 PM 15.27 59.486 0.055 6.97 2.07 9.18
9/13/2021 12:00:00 AM 15.25 59.45 0.055 7.01 2.11 9.16
9/13/2021 12:15:00 AM 15.22 59.396 0.055 7 2.36 9.18
9/13/2021 12:30:00 AM 15.21 59.378 0.055 6.91 2 9.2
9/13/2021 12:45:00 AM 15.2 59.36 0.055 7.02 2.02 9.2
9/13/2021 1:00:00 AM 15.18 59.324 0.055 7.02 2.09 9.21
9/13/2021 1:15:00 AM 15.17 59.306 0.055 7.02 1.96 9.21
9/13/2021 1:30:00 AM 15.16 59.288 0.055 7.01 2 9.2
9/13/2021 1:45:00 AM 15.14 59.252 0.055 7.02 2.09 9.23
9/13/2021 2:00:00 AM 15.13 59.234 0.055 7.02 2.09 9.22
9/13/2021 2:15:00 AM 15.12 59.216 0.055 7.01 2.01 9.22
9/13/2021 2:30:00 AM 15.12 59.216 0.055 7.02 2.01 9.22
9/13/2021 2:45:00 AM 15.11 59.198 0.056 7.02 2.14 9.22
9/13/2021 3:00:00 AM 15.11 59.198 0.056 7.02 1.95 9.23
9/13/2021 3:15:00 AM 15.12 59.216 0.056 7.01 2.06 9.21
9/13/2021 3:30:00 AM 15.13 59.234 0.056 7.01 2.04 9.21
9/13/2021 3:45:00 AM 15.12 59.216 0.056 7.01 1.95 9.21
9/13/2021 4:00:00 AM 15.12 59.216 0.056 6.91 1.96 9.21
9/13/2021 4:15:00 AM 15.12 59.216 0.056 7.01 1.98 9.22
9/13/2021 4:30:00 AM 15.11 59.198 0.056 6.98 2.27 9.22
9/13/2021 4:45:00 AM 15.1 59.18 0.056 6.99 2.18 9.21
9/13/2021 5:00:00 AM 15.09 59.162 0.056 6.99 2.17 9.21
9/13/2021 5:15:00 AM 15.09 59.162 0.056 6.91 2.38 9.21
9/13/2021 5:30:00 AM 15.08 59.144 0.09 6.98 2.26 9.23
9/13/2021 5:45:00 AM 15.08 59.144 0.151 6.97 2.22 9.21
9/13/2021 6:00:00 AM 15.07 59.126 0.228 6.97 2.19 9.21
9/13/2021 6:15:00 AM 15.07 59.126 0.524 6.95 2.19 9.19
9/13/2021 6:30:00 AM 15.07 59.126 0.673 6.92 2.02 9.19
9/13/2021 6:45:00 AM 15.07 59.126 0.78 6.87 2.07 9.19
9/13/2021 7:00:00 AM 15.07 59.126 0.829 6.93 2.22 9.2
9/13/2021 7:15:00 AM 15.06 59.108 0.904 6.92 2.14 9.2
9/13/2021 7:30:00 AM 15.06 59.108 0.892 6.82 2.25 9.23
9/13/2021 7:45:00 AM 15.07 59.126 0.927 6.93 2.24 9.25
9/13/2021 8:00:00 AM 15.08 59.144 0.92 6.93 2.11 9.26
9/13/2021 8:15:00 AM 15.08 59.144 0.918 6.84 1.98 9.28
9/13/2021 8:30:00 AM 15.09 59.162 0.916 6.86 2.01 9.26
9/13/2021 8:45:00 AM 15.11 59.198 0.902 6.95 2.08 9.37
9/13/2021 9:00:00 AM 15.13 59.234 0.908 6.98 2.01 9.43
9/13/2021 9:15:00 AM 15.17 59.306 0.907 7.02 1.97 9.48
9/13/2021 9:30:00 AM 15.23 59.414 0.919 7.04 1.89 9.54
9/13/2021 9:45:00 AM 15.28 59.504 0.935 7.07 1.93 9.58
9/13/2021 10:00:00 AM 15.32 59.576 0.92 7.02 1.86 9.62
9/13/2021 10:15:00 AM 15.39 59.702 0.965 7.09 1.9 9.64
9/13/2021 10:30:00 AM 15.43 59.774 0.926 7.05 1.94 9.67
9/13/2021 10:45:00 AM 15.49 59.882 0.953 7.08 1.94 9.65
9/13/2021 11:00:00 AM 15.56 60.008 0.967 7.08 1.91 9.71
9/13/2021 11:15:00 AM 15.63 60.134 0.911 7.13 1.9 9.72
9/13/2021 11:30:00 AM 15.66 60.188 0.914 7.17 1.98 9.69
9/13/2021 11:45:00 AM 15.7 60.26 0.913 7.12 1.92 9.62
9/13/2021 12:00:00 PM 15.72 60.296 0.911 7.16 1.93 9.61
9/13/2021 12:15:00 PM 15.78 60.404 0.898 7.16 1.94 9.62
9/13/2021 12:30:00 PM 15.85 60.53 0.916 7.17 1.97 9.64
9/13/2021 12:45:00 PM 15.89 60.602 0.897 7.16 1.88 9.62
9/13/2021 1:00:00 PM 15.92 60.656 0.896 7.17 1.88 9.59
9/13/2021 1:15:00 PM 16.03 60.854 0.859 7.17 1.93 9.63
9/13/2021 1:30:00 PM 16.22 61.196 0.795 7.19 1.87 9.64
9/13/2021 1:45:00 PM 16.22 61.196 0.79 7.22 1.91 9.69
9/13/2021 2:00:00 PM 16.4 61.52 0.815 7.24 1.88 9.72
9/13/2021 2:15:00 PM 16.57 61.826 0.804 7.24 1.82 9.72
9/13/2021 2:30:00 PM 16.72 62.096 0.796 7.29 1.92 9.72
9/13/2021 2:45:00 PM 16.9 62.42 0.776 7.2 1.89 9.71
9/13/2021 3:00:00 PM 17.1 62.78 0.781 7.31 1.78 9.68
9/13/2021 3:15:00 PM 17.28 63.104 0.75 7.32 1.8 9.63
9/13/2021 3:30:00 PM 17.48 63.464 0.723 7.22 1.9 9.62
9/13/2021 3:45:00 PM 17.72 63.896 0.744 7.28 1.96 9.59
9/13/2021 4:00:00 PM 17.84 64.112 0.707 7.34 1.74 9.51
9/13/2021 4:15:00 PM 17.94 64.292 0.612 7.36 1.83 9.47
9/13/2021 4:30:00 PM 17.99 64.382 0.053 7.39 1.81 9.45
9/13/2021 4:45:00 PM 18.05 64.49 0.721 7.34 1.79 9.39
9/13/2021 5:00:00 PM 18.07 64.526 0.069 7.33 1.79 9.39
9/13/2021 5:15:00 PM 18.07 64.526 0.053 7.34 1.75 9.35
9/13/2021 5:30:00 PM 18 64.4 0.449 7.32 1.82 9.29
9/13/2021 5:45:00 PM 17.96 64.328 0.055 7.33 1.81 9.26
9/13/2021 6:00:00 PM 17.9 64.22 2.265 7.14 1.72 9.11
9/13/2021 6:15:00 PM 17.86 64.148 1.788 7.08 1.93 9.02
9/13/2021 6:30:00 PM 17.79 64.022 1.799 7.09 2.01 8.96
9/13/2021 6:45:00 PM 17.72 63.896 1.718 7.02 2.27 8.9
9/13/2021 7:00:00 PM 17.69 63.842 1.756 6.91 2.02 8.74
9/13/2021 7:15:00 PM 17.58 63.644 1.895 7.01 2.07 8.8
9/13/2021 7:30:00 PM 17.53 63.554 1.698 6.89 1.95 8.74
9/13/2021 7:45:00 PM 17.44 63.392 1.751 6.96 2.16 8.73
9/13/2021 8:00:00 PM 17.38 63.284 1.845 6.94 2.02 8.68
9/13/2021 8:15:00 PM 17.29 63.122 1.868 6.93 2.03 8.68
9/13/2021 8:30:00 PM 17.19 62.942 1.844 6.86 2.3 8.7
9/13/2021 8:45:00 PM 17.1 62.78 1.907 6.94 2.02 8.75
9/13/2021 9:00:00 PM 17.03 62.654 1.886 6.94 2.2 8.73
9/13/2021 9:15:00 PM 16.96 62.528 1.904 6.93 2.07 8.73
9/13/2021 9:30:00 PM 16.88 62.384 1.887 6.93 1.98 8.77
9/13/2021 9:45:00 PM 16.84 62.312 1.87 6.9 2.08 8.74
9/13/2021 10:00:00 PM 16.78 62.204 1.926 6.9 2.12 8.77
9/13/2021 10:15:00 PM 16.73 62.114 1.901 6.89 2.04 8.75
9/13/2021 10:30:00 PM 16.68 62.024 1.909 6.83 2.08 8.77
9/13/2021 10:45:00 PM 16.64 61.952 1.931 6.87 2.31 8.79
9/13/2021 11:00:00 PM 16.58 61.844 1.911 6.91 2.14 8.82
9/13/2021 11:15:00 PM 16.55 61.79 2.132 6.87 2.13 8.73
9/13/2021 11:30:00 PM 16.51 61.718 1.931 6.89 2.31 8.8
9/13/2021 11:45:00 PM 16.46 61.628 2.061 6.9 2.38 8.83
9/14/2021 12:00:00 AM 16.42 61.556 0.055 7.05 2.13 8.9
9/14/2021 12:15:00 AM 16.38 61.484 0.055 7.05 2.5 8.93
9/14/2021 12:30:00 AM 16.36 61.448 0.056 7.05 2.22 8.93
9/14/2021 12:45:00 AM 16.33 61.394 0.056 6.98 2.39 8.95
9/14/2021 1:00:00 AM 16.31 61.358 0.056 7.05 2.39 8.97
9/14/2021 1:15:00 AM 16.3 61.34 0.056 7.04 2.29 8.93
9/14/2021 1:30:00 AM 16.29 61.322 0.056 7.04 2.23 8.92
9/14/2021 1:45:00 AM 16.26 61.268 0.056 7.06 2.33 8.99
9/14/2021 2:00:00 AM 16.24 61.232 0.056 7.01 2.6 8.94
9/14/2021 2:15:00 AM 16.22 61.196 0.056 6.94 2.36 8.96
9/14/2021 2:30:00 AM 16.17 61.106 0.056 7.02 2.31 9.01
9/14/2021 2:45:00 AM 16.15 61.07 0.143 6.98 2.17 8.97
9/14/2021 3:00:00 AM 16.13 61.034 0.528 6.99 2.48 8.96
9/14/2021 3:15:00 AM 16.08 60.944 0.678 6.98 2.25 9
9/14/2021 3:30:00 AM 16.07 60.926 1.223 6.88 2.37 8.92
9/14/2021 3:45:00 AM 16.04 60.872 1.285 6.84 2.31 8.93
9/14/2021 4:00:00 AM 15.99 60.782 1.427 6.91 2.35 8.95
9/14/2021 4:15:00 AM 15.95 60.71 1.467 6.83 2.34 8.96
9/14/2021 4:30:00 AM 15.92 60.656 1.493 6.9 2.17 9
9/14/2021 4:45:00 AM 15.89 60.602 1.525 6.85 2.23 8.99
9/14/2021 5:00:00 AM 15.86 60.548 0.076 6.9 2.21 9.02
9/14/2021 5:15:00 AM 15.82 60.476 1.39 6.89 2.23 8.99
9/14/2021 5:30:00 AM 15.8 60.44 1.331 6.84 2.18 9.01
9/14/2021 5:45:00 AM 15.77 60.386 1.394 6.88 2.18 9
9/14/2021 6:00:00 AM 15.74 60.332 0.055 6.96 2.15 9.04
9/14/2021 6:15:00 AM 15.72 60.296 0.056 6.94 2.39 9.05
9/14/2021 6:30:00 AM 15.68 60.224 0.06 6.89 2.31 9.08
9/14/2021 6:45:00 AM 15.66 60.188 0.063 6.97 2.22 9.08
9/14/2021 7:00:00 AM 15.63 60.134 1.166 6.91 2.25 9.07
9/14/2021 7:15:00 AM 15.63 60.134 1.527 6.79 2.25 9.03
9/14/2021 7:30:00 AM 15.61 60.098 1.366 6.85 2.14 9.09
9/14/2021 7:45:00 AM 15.61 60.098 0.056 6.92 2.18 9.12
9/14/2021 8:00:00 AM 15.59 60.062 1.359 6.92 2.22 9.15
9/14/2021 8:15:00 AM 15.59 60.062 0.055 7.01 2.12 9.26
9/14/2021 8:30:00 AM 15.59 60.062 0.055 7.05 2.16 9.3
9/14/2021 8:45:00 AM 15.61 60.098 0.055 7.03 2.34 9.27
9/14/2021 9:00:00 AM 15.6 60.08 0.058 7.06 2.18 9.37
9/14/2021 9:15:00 AM 15.61 60.098 0.055 7.05 2.17 9.39
9/14/2021 9:30:00 AM 15.63 60.134 0.055 7.08 2.18 9.43
9/14/2021 9:45:00 AM 15.65 60.17 0.055 7.03 2.13 9.47
9/14/2021 10:00:00 AM 15.68 60.224 1.395 7.01 2.06 9.47
9/14/2021 10:15:00 AM 15.72 60.296 1.224 6.96 2.05 9.51
9/14/2021 10:30:00 AM 15.77 60.386 1.147 7.04 2.16 9.55
9/14/2021 10:45:00 AM 15.84 60.512 1.209 7.07 2 9.59
9/14/2021 11:00:00 AM 15.91 60.638 0.053 7.13 3.23 9.66
9/14/2021 11:15:00 AM 16.01 60.818 0.054 7.18 2.01 9.68
9/14/2021 11:30:00 AM 16.1 60.98 0.053 7.21 1.97 9.7
9/14/2021 11:45:00 AM 16.21 61.178 0.053 7.23 2.12 9.73
9/14/2021 12:00:00 PM 16.29 61.322 0.053 7.14 2.08 9.72
9/14/2021 12:15:00 PM 16.41 61.538 0.053 7.27 2.07 9.71
9/14/2021 12:30:00 PM 16.55 61.79 0.053 7.23 2 9.69
9/14/2021 12:45:00 PM 16.74 62.132 0.053 7.3 1.89 9.66
9/14/2021 1:00:00 PM 16.93 62.474 0.053 7.29 1.93 9.63
9/14/2021 1:15:00 PM 17.15 62.87 0.053 7.25 2.01 9.58
9/14/2021 1:30:00 PM 17.38 63.284 0.053 7.31 1.9 9.54
9/14/2021 1:45:00 PM 17.6 63.68 0.053 7.34 2.04 9.52
9/14/2021 2:00:00 PM 17.78 64.004 0.053 7.22 1.89 9.49
9/14/2021 2:15:00 PM 17.95 64.31 0.053 7.33 1.88 9.44
9/14/2021 2:30:00 PM 18.16 64.688 0.053 7.34 1.94 9.39
9/14/2021 2:45:00 PM 18.32 64.976 0.053 7.33 1.9 9.37
9/14/2021 3:00:00 PM 18.43 65.174 0.053 7.25 1.95 9.35
9/14/2021 3:15:00 PM 18.51 65.318 0.053 7.36 1.91 9.32
9/14/2021 3:30:00 PM 18.52 65.336 0.053 7.35 1.92 9.28
9/14/2021 3:45:00 PM 18.58 65.444 0.053 7.36 1.93 9.26
9/14/2021 4:00:00 PM 18.67 65.606 0.053 7.29 1.96 9.24
9/14/2021 4:15:00 PM 18.68 65.624 0.053 7.35 1.95 9.26
9/14/2021 4:30:00 PM 18.62 65.516 0.053 7.36 1.97 9.2
9/14/2021 4:45:00 PM 18.62 65.516 0.053 7.32 1.85 9.18
9/14/2021 5:00:00 PM 18.68 65.624 0.053 7.18 1.88 9.1
9/14/2021 5:15:00 PM 18.6 65.48 0.053 7.34 1.93 9.16
9/14/2021 5:30:00 PM 18.59 65.462 0.053 7.33 1.89 9.14
9/14/2021 5:45:00 PM 18.57 65.426 0.053 7.32 1.95 9.14
9/14/2021 6:00:00 PM 18.52 65.336 0.053 7.32 2.02 9.08
9/14/2021 6:15:00 PM 18.49 65.282 0.053 7.28 1.92 9.04
9/14/2021 6:30:00 PM 18.44 65.192 0.053 7.27 1.99 8.98
9/14/2021 6:45:00 PM 18.37 65.066 0.053 7.17 2.06 8.89
9/14/2021 7:00:00 PM 18.29 64.922 0.054 7.12 2.02 8.83
9/14/2021 7:15:00 PM 18.21 64.778 0.054 7.1 1.97 8.79
9/14/2021 7:30:00 PM 18.13 64.634 0.054 7.16 2.01 8.74
9/14/2021 7:45:00 PM 18.06 64.508 0.054 7.14 1.98 8.67
9/14/2021 8:00:00 PM 17.98 64.364 0.054 7.1 2.05 8.63
9/14/2021 8:15:00 PM 17.9 64.22 0.054 7.09 2.11 8.61
9/14/2021 8:30:00 PM 17.81 64.058 0.055 7.09 2.14 8.63
9/14/2021 8:45:00 PM 17.71 63.878 0.055 7.07 2.18 8.65
9/14/2021 9:00:00 PM 17.63 63.734 0.055 7.07 2.1 8.62
9/14/2021 9:15:00 PM 17.52 63.536 0.055 7.07 2.06 8.67
9/14/2021 9:30:00 PM 17.44 63.392 0.055 7.06 2.18 8.67
9/14/2021 9:45:00 PM 17.37 63.266 0.055 6.97 2.17 8.66
9/14/2021 10:00:00 PM 17.29 63.122 0.055 7.05 2.18 8.7
9/14/2021 10:15:00 PM 17.22 62.996 0.056 7.05 2.15 8.7
9/14/2021 10:30:00 PM 17.15 62.87 0.056 7.04 2.08 8.7
9/14/2021 10:45:00 PM 17.08 62.744 0.056 6.93 2.12 8.72
9/14/2021 11:00:00 PM 17.01 62.618 0.056 6.96 2.1 8.75
9/14/2021 11:15:00 PM 16.95 62.51 0.056 7.04 2.17 8.75
9/14/2021 11:30:00 PM 16.88 62.384 0.056 7.04 2.17 8.75
9/14/2021 11:45:00 PM 16.82 62.276 0.057 7.03 2.07 8.76
9/15/2021 12:00:00 AM 16.75 62.15 0.056 7.04 2.01 8.79
9/15/2021 12:15:00 AM 16.68 62.024 0.056 7.04 2.25 8.79
9/15/2021 12:30:00 AM 16.62 61.916 0.06 7.03 2.23 8.82
9/15/2021 12:45:00 AM 16.56 61.808 0.062 7.03 2.2 8.83
9/15/2021 1:00:00 AM 16.5 61.7 0.059 7.01 2.26 8.84
9/15/2021 1:15:00 AM 16.46 61.628 0.059 7.01 2.16 8.83
9/15/2021 1:30:00 AM 16.4 61.52 0.06 7.02 2.28 8.86
9/15/2021 1:45:00 AM 16.35 61.43 2.006 6.9 2.2 8.82
9/15/2021 2:00:00 AM 16.3 61.34 0.057 7.02 2.07 8.87
9/15/2021 2:15:00 AM 16.25 61.25 0.056 7.01 2.26 8.9
9/15/2021 2:30:00 AM 16.21 61.178 0.056 7.02 2.23 8.89
9/15/2021 2:45:00 AM 16.16 61.088 0.056 6.97 2.15 8.92
9/15/2021 3:00:00 AM 16.12 61.016 0.056 7.02 2.06 8.92
9/15/2021 3:15:00 AM 16.08 60.944 0.056 7.01 2.05 8.91
9/15/2021 3:30:00 AM 16.04 60.872 0.056 7.01 2.15 8.91
9/15/2021 3:45:00 AM 16 60.8 0.056 7.01 2.27 8.94
9/15/2021 4:00:00 AM 15.97 60.746 0.056 6.86 2.24 8.86
9/15/2021 4:15:00 AM 15.93 60.674 0.057 7.01 2.18 8.94
9/15/2021 4:30:00 AM 15.89 60.602 0.057 6.89 2.21 8.97
9/15/2021 4:45:00 AM 15.85 60.53 0.057 7.01 2.11 8.96
9/15/2021 5:00:00 AM 15.82 60.476 0.056 6.92 2.07 8.96
9/15/2021 5:15:00 AM 15.78 60.404 0.056 7.01 2.1 8.98
9/15/2021 5:30:00 AM 15.74 60.332 0.056 6.9 2.19 8.98
9/15/2021 5:45:00 AM 15.7 60.26 0.057 7.01 2.1 9.01
9/15/2021 6:00:00 AM 15.67 60.206 0.057 7.01 2.19 9.01
9/15/2021 6:15:00 AM 15.65 60.17 0.056 6.91 2.23 9.01
9/15/2021 6:30:00 AM 15.63 60.134 0.056 6.93 2.17 9.02
9/15/2021 6:45:00 AM 15.62 60.116 0.057 6.92 2.29 9
9/15/2021 7:00:00 AM 15.58 60.044 0.057 7.01 2.02 9.05
9/15/2021 7:15:00 AM 15.57 60.026 0.056 7.01 1.98 9.06
9/15/2021 7:30:00 AM 15.56 60.008 0.056 6.99 2.1 9.09
9/15/2021 7:45:00 AM 15.55 59.99 0.056 7.02 2.08 9.13
9/15/2021 8:00:00 AM 15.55 59.99 0.056 7.02 2.18 9.16
9/15/2021 8:15:00 AM 15.54 59.972 0.056 7.04 2.19 9.22
9/15/2021 8:30:00 AM 15.54 59.972 0.056 7.04 2.02 9.24
9/15/2021 8:45:00 AM 15.55 59.99 0.056 7.05 2.26 9.32
9/15/2021 9:00:00 AM 15.58 60.044 0.056 7.06 2.11 9.38
9/15/2021 9:15:00 AM 15.6 60.08 0.056 7.08 2.04 9.44
9/15/2021 9:30:00 AM 15.62 60.116 0.056 7.09 1.9 9.48
9/15/2021 9:45:00 AM 15.68 60.224 0.056 7.1 1.94 9.52
9/15/2021 10:00:00 AM 15.77 60.386 0.056 7.13 1.97 9.6
9/15/2021 10:15:00 AM 15.85 60.53 0.055 7.08 1.94 9.63
9/15/2021 10:30:00 AM 15.91 60.638 0.055 7.19 1.92 9.63
9/15/2021 10:45:00 AM 16.04 60.872 0.054 7.19 2.02 9.5
9/15/2021 11:00:00 AM 16.14 61.052 0.054 7.18 2.28 9.53
9/15/2021 11:15:00 AM 16.21 61.178 0.054 7.18 2.38 9.5
9/15/2021 11:30:00 AM 16.29 61.322 0.054 7.19 2.32 9.45
9/15/2021 11:45:00 AM 16.37 61.466 0.054 7.14 2.29 9.41
9/15/2021 12:00:00 PM 16.44 61.592 0.054 7.15 2.29 9.41
9/15/2021 12:15:00 PM 16.52 61.736 0.054 7.18 2.12 9.43
9/15/2021 12:30:00 PM 16.58 61.844 0.054 7.21 1.98 9.47
9/15/2021 12:45:00 PM 16.59 61.862 0.054 7.19 2.13 9.43
9/15/2021 1:00:00 PM 16.55 61.79 0.054 7.21 2.12 9.4
9/15/2021 1:15:00 PM 16.52 61.736 0.054 7.19 2.04 9.32
9/15/2021 1:30:00 PM 16.5 61.7 0.054 7.17 1.98 9.26
9/15/2021 1:45:00 PM 16.49 61.682 0.054 7.02 2.04 9.22
9/15/2021 2:00:00 PM 16.5 61.7 0.054 7.06 2.05 9.22
9/15/2021 2:15:00 PM 16.53 61.754 0.054 7.08 2.13 9.25
9/15/2021 2:30:00 PM 16.56 61.808 0.054 7.13 2.02 9.25
9/15/2021 2:45:00 PM 16.56 61.808 0.054 7.16 1.99 9.29
9/15/2021 3:00:00 PM 16.59 61.862 0.054 7.15 2.03 9.36
9/15/2021 3:15:00 PM 16.58 61.844 0.054 7.2 1.91 9.38
9/15/2021 3:30:00 PM 16.58 61.844 0.054 7.17 1.96 9.38
9/15/2021 3:45:00 PM 16.62 61.916 0.054 7.1 2.04 9.39
9/15/2021 4:00:00 PM 16.62 61.916 0.054 7.13 1.9 9.29
9/15/2021 4:15:00 PM 16.64 61.952 0.054 7.18 2.28 9.23
9/15/2021 4:30:00 PM 16.66 61.988 0.053 7.17 2.45 9.18
9/15/2021 4:45:00 PM 16.67 62.006 0.053 7.15 2.35 9.13
9/15/2021 5:00:00 PM 16.68 62.024 0.053 7.12 2.71 9.07
9/15/2021 5:15:00 PM 16.67 62.006 0.053 7.12 2.71 9.08
9/15/2021 5:30:00 PM 16.64 61.952 0.053 7 2.94 9.05
9/15/2021 5:45:00 PM 16.58 61.844 0.053 7.09 2.59 9.03
9/15/2021 6:00:00 PM 16.54 61.772 0.053 7 2.76 9.04
9/15/2021 6:15:00 PM 16.47 61.646 0.054 7.1 2.64 9.04
9/15/2021 6:30:00 PM 16.41 61.538 0.054 7.09 2.64 9.03
9/15/2021 6:45:00 PM 16.34 61.412 0.054 6.99 3 9.05
9/15/2021 7:00:00 PM 16.29 61.322 0.054 7.09 3.53 9.05
9/15/2021 7:15:00 PM 16.25 61.25 0.054 7.06 4.4 9.06
9/15/2021 7:30:00 PM 16.23 61.214 0.054 6.99 4.05 9.05
9/15/2021 7:45:00 PM 16.21 61.178 0.054 7.07 4.84 9.04
9/15/2021 8:00:00 PM 16.19 61.142 0.055 7.07 4.78 9.03
9/15/2021 8:15:00 PM 16.16 61.088 0.055 6.95 5.51 9.05
9/15/2021 8:30:00 PM 16.12 61.016 0.055 7.07 5.94 9.05
9/15/2021 8:45:00 PM 16.07 60.926 0.056 7.08 6.91 9.07
9/15/2021 9:00:00 PM 16.03 60.854 0.056 7.07 7.68 9.07
9/15/2021 9:15:00 PM 15.98 60.764 0.056 7 7.21 9.08
9/15/2021 9:30:00 PM 15.93 60.674 0.056 7.07 7.45 9.1
9/15/2021 9:45:00 PM 15.88 60.584 0.055 7.04 6.73 9.11
9/15/2021 10:00:00 PM 15.84 60.512 0.055 7.07 6.67 9.12
9/15/2021 10:15:00 PM 15.8 60.44 0.055 7.06 5.76 9.13
9/15/2021 10:30:00 PM 15.75 60.35 0.054 7.06 5.83 9.14
9/15/2021 10:45:00 PM 15.71 60.278 0.054 6.94 5.79 9.14
9/15/2021 11:00:00 PM 15.66 60.188 0.054 7.05 5.6 9.16
9/15/2021 11:15:00 PM 15.62 60.116 0.054 6.94 5.49 9.16
9/15/2021 11:30:00 PM 15.58 60.044 0.054 7.05 5.24 9.17
9/15/2021 11:45:00 PM 15.53 59.954 0.054 7.05 5.1 9.18
9/16/2021 12:00:00 AM 15.49 59.882 0.054 6.94 4.72 9.18
9/16/2021 12:15:00 AM 15.44 59.792 0.054 7.03 4.6 9.19
9/16/2021 12:30:00 AM 15.4 59.72 0.054 7.01 3.99 9.19
9/16/2021 12:45:00 AM 15.35 59.63 0.054 7.04 4.19 9.2
9/16/2021 1:00:00 AM 15.32 59.576 0.054 6.93 4.24 9.21
9/16/2021 1:15:00 AM 15.28 59.504 0.054 7.04 3.99 9.22
9/16/2021 1:30:00 AM 15.24 59.432 0.055 7.01 3.89 9.23
9/16/2021 1:45:00 AM 15.2 59.36 0.055 7.04 4.03 9.23
9/16/2021 2:00:00 AM 15.17 59.306 0.055 7.04 3.79 9.23
9/16/2021 2:15:00 AM 15.13 59.234 0.055 7.05 4.07 9.25
9/16/2021 2:30:00 AM 15.1 59.18 0.055 6.96 3.84 9.25
9/16/2021 2:45:00 AM 15.07 59.126 0.055 7.04 3.4 9.25
9/16/2021 3:00:00 AM 15.02 59.036 0.055 7.06 3.46 9.27
9/16/2021 3:15:00 AM 14.98 58.964 0.055 7.05 3.53 9.28
9/16/2021 3:30:00 AM 14.94 58.892 0.054 7.06 3.5 9.29
9/16/2021 3:45:00 AM 14.9 58.82 0.054 7.05 3.28 9.29
9/16/2021 4:00:00 AM 14.87 58.766 0.054 7.05 3.22 9.29
9/16/2021 4:15:00 AM 14.83 58.694 0.054 7.03 3.24 9.3
9/16/2021 4:30:00 AM 14.78 58.604 0.054 7.05 3.38 9.31
9/16/2021 4:45:00 AM 14.75 58.55 0.054 7.05 3.13 9.31
9/16/2021 5:00:00 AM 14.7 58.46 0.054 7.04 3.31 9.33
9/16/2021 5:15:00 AM 14.66 58.388 0.054 7.05 3.15 9.33
9/16/2021 5:30:00 AM 14.61 58.298 0.054 6.93 3.19 9.34
9/16/2021 5:45:00 AM 14.56 58.208 0.054 7.05 3.21 9.34
9/16/2021 6:00:00 AM 14.5 58.1 0.054 7.05 3.37 9.36
9/16/2021 6:15:00 AM 14.44 57.992 0.054 7.05 2.93 9.36
9/16/2021 6:30:00 AM 14.39 57.902 0.054 6.92 3.03 9.39
9/16/2021 6:45:00 AM 14.35 57.83 0.054 7.04 3.01 9.4
9/16/2021 7:00:00 AM 14.31 57.758 0.054 7.04 3.08 9.41
9/16/2021 7:15:00 AM 14.27 57.686 0.054 7.04 2.96 9.43
9/16/2021 7:30:00 AM 14.25 57.65 0.054 7.04 3.01 9.45
9/16/2021 7:45:00 AM 14.24 57.632 0.054 7.05 2.83 9.48
9/16/2021 8:00:00 AM 14.22 57.596 0.054 6.95 2.74 9.53
9/16/2021 8:15:00 AM 14.23 57.614 0.054 7.07 3.04 9.59
9/16/2021 8:30:00 AM 14.24 57.632 0.054 7.08 5.28 9.63
9/16/2021 8:45:00 AM 14.25 57.65 0.054 7.06 11.07 9.69
9/16/2021 9:00:00 AM 14.26 57.668 0.054 7.11 6.62 9.73
9/16/2021 9:15:00 AM 14.28 57.704 0.054 7.09 2.49 9.77
9/16/2021 9:30:00 AM 14.3 57.74 0.054 7.15 2.29 9.83
9/16/2021 9:45:00 AM 14.33 57.794 0.054 7.14 2.31 9.79
9/16/2021 10:00:00 AM 14.39 57.902 0.054 7.16 2.28 9.86
9/16/2021 10:15:00 AM 14.45 58.01 0.054 7.08 2.19 9.91
9/16/2021 10:30:00 AM 14.52 58.136 0.054 7.19 2.28 9.93
9/16/2021 10:45:00 AM 14.56 58.208 0.054 7.2 2.14 9.9
9/16/2021 11:00:00 AM 14.62 58.316 0.054 7.13 2.12 9.85
9/16/2021 11:15:00 AM 14.66 58.388 0.054 7.2 2.3 9.8
9/16/2021 11:30:00 AM 14.74 58.532 0.054 7.17 2.15 9.8
9/16/2021 11:45:00 AM 14.87 58.766 0.054 7.22 2.07 9.87
9/16/2021 12:00:00 PM 15.03 59.054 0.054 7.24 2.3 9.87
9/16/2021 12:15:00 PM 15.22 59.396 0.054 7.24 2.13 9.85
9/16/2021 12:30:00 PM 15.46 59.828 0.054 7.15 2.17 9.88
9/16/2021 12:45:00 PM 15.64 60.152 0.053 7.18 2.12 9.87
9/16/2021 1:00:00 PM 15.8 60.44 0.054 7.3 2.2 9.87
9/16/2021 1:15:00 PM 15.87 60.566 0.054 7.28 11.34 9.83
9/16/2021 1:30:00 PM 15.92 60.656 0.054 7.31 3.54 9.84
9/16/2021 1:45:00 PM 15.97 60.746 0.054 7.31 5.18 9.81
9/16/2021 2:00:00 PM 16.04 60.872 0.054 7.31 2.3 9.85
9/16/2021 2:15:00 PM 16.06 60.908 0.054 7.34 1.99 9.86
9/16/2021 2:30:00 PM 16.09 60.962 0.054 7.33 2.06 9.85
9/16/2021 2:45:00 PM 16.16 61.088 0.053 7.28 2.07 9.84
9/16/2021 3:00:00 PM 16.2 61.16 0.053 7.33 1.89 9.8
9/16/2021 3:15:00 PM 16.28 61.304 0.054 7.25 2 9.81
9/16/2021 3:30:00 PM 16.45 61.61 0.054 7.34 2.08 9.79
9/16/2021 3:45:00 PM 16.51 61.718 0.054 7.35 1.88 9.74
9/16/2021 4:00:00 PM 16.54 61.772 0.054 7.23 1.91 9.7
9/16/2021 4:15:00 PM 16.54 61.772 0.054 7.27 1.88 9.62
9/16/2021 4:30:00 PM 16.56 61.808 0.054 7.27 1.81 9.61
9/16/2021 4:45:00 PM 16.57 61.826 0.054 7.32 1.97 9.59
9/16/2021 5:00:00 PM 16.59 61.862 0.054 7.29 2.19 9.6
9/16/2021 5:15:00 PM 16.57 61.826 0.054 7.3 2.64 9.56
9/16/2021 5:30:00 PM 16.56 61.808 0.054 7.24 2.39 9.55
9/16/2021 5:45:00 PM 16.55 61.79 0.054 7.29 2.02 9.49
9/16/2021 6:00:00 PM 16.54 61.772 0.054 7.26 2.08 9.42
9/16/2021 6:15:00 PM 16.53 61.754 0.054 7.12 2.01 9.34
9/16/2021 6:30:00 PM 16.47 61.646 0.054 7.2 1.98 9.3
9/16/2021 6:45:00 PM 16.43 61.574 0.054 7.18 1.94 9.25
9/16/2021 7:00:00 PM 16.34 61.412 0.055 7.16 1.88 9.21
9/16/2021 7:15:00 PM 16.26 61.268 0.055 7.14 2.4 9.18
9/16/2021 7:30:00 PM 16.19 61.142 0.055 7.12 2.02 9.15
9/16/2021 7:45:00 PM 16.12 61.016 0.055 7.1 2.01 9.13
9/16/2021 8:00:00 PM 16.06 60.908 0.055 7.09 2.07 9.1
9/16/2021 8:15:00 PM 15.99 60.782 0.055 6.96 2.07 9.09
9/16/2021 8:30:00 PM 15.92 60.656 0.056 6.98 2.07 9.09
9/16/2021 8:45:00 PM 15.88 60.584 0.056 7.06 2.05 9.09
9/16/2021 9:00:00 PM 15.85 60.53 0.056 7.05 2.01 9.08
9/16/2021 9:15:00 PM 15.79 60.422 0.056 7.03 2.06 9.1
9/16/2021 9:30:00 PM 15.75 60.35 0.056 7.04 2.07 9.09
9/16/2021 9:45:00 PM 15.71 60.278 0.056 7.02 2.09 9.11
9/16/2021 10:00:00 PM 15.67 60.206 0.056 6.91 2.09 9.12
9/16/2021 10:15:00 PM 15.64 60.152 0.056 7.02 2.16 9.11
9/16/2021 10:30:00 PM 15.61 60.098 0.056 6.9 2.24 9.13
9/16/2021 10:45:00 PM 15.57 60.026 0.056 6.94 2.4 9.12
9/16/2021 11:00:00 PM 15.55 59.99 0.056 7.01 2.2 9.13
9/16/2021 11:15:00 PM 15.52 59.936 0.056 7.01 1.89 9.12
9/16/2021 11:30:00 PM 15.5 59.9 0.056 7.01 1.93 9.15
9/16/2021 11:45:00 PM 15.47 59.846 0.056 7.01 2.07 9.13
9/17/2021 12:00:00 AM 15.45 59.81 0.056 7.01 2.05 9.15
9/17/2021 12:15:00 AM 15.42 59.756 0.056 7.01 2.13 9.15
9/17/2021 12:30:00 AM 15.4 59.72 0.056 7.01 2.03 9.16
9/17/2021 12:45:00 AM 15.38 59.684 0.056 7.01 1.97 9.14
9/17/2021 1:00:00 AM 15.37 59.666 0.057 6.98 2.16 9.12
9/17/2021 1:15:00 AM 15.35 59.63 0.057 6.91 2.01 9.15
9/17/2021 1:30:00 AM 15.32 59.576 0.057 6.99 2.23 9.17
9/17/2021 1:45:00 AM 15.3 59.54 0.057 7.02 2.1 9.18
9/17/2021 2:00:00 AM 15.28 59.504 0.057 7.01 2.31 9.17
9/17/2021 2:15:00 AM 15.26 59.468 0.057 7 2.25 9.19
9/17/2021 2:30:00 AM 15.25 59.45 0.057 6.89 2.12 9.17
9/17/2021 2:45:00 AM 15.24 59.432 0.057 7 2.09 9.19
9/17/2021 3:00:00 AM 15.22 59.396 0.057 7.01 2.13 9.21
9/17/2021 3:15:00 AM 15.21 59.378 0.057 6.97 2.16 9.2
9/17/2021 3:30:00 AM 15.2 59.36 0.057 7 2.12 9.19
9/17/2021 3:45:00 AM 15.19 59.342 0.057 6.99 1.94 9.18
9/17/2021 4:00:00 AM 15.18 59.324 0.057 6.99 2.25 9.19
9/17/2021 4:15:00 AM 15.17 59.306 0.057 6.98 2.17 9.16
9/17/2021 4:30:00 AM 15.15 59.27 0.057 6.89 2.14 9.2
9/17/2021 4:45:00 AM 15.14 59.252 0.057 6.99 2.08 9.21
9/17/2021 5:00:00 AM 15.12 59.216 0.057 6.99 2 9.22
9/17/2021 5:15:00 AM 15.11 59.198 0.057 6.99 2.11 9.21
9/17/2021 5:30:00 AM 15.09 59.162 0.057 6.99 2.12 9.24
9/17/2021 5:45:00 AM 15.08 59.144 0.057 6.97 2.14 9.23
9/17/2021 6:00:00 AM 15.08 59.144 0.057 6.98 2.14 9.23
9/17/2021 6:15:00 AM 15.08 59.144 0.057 6.96 2.11 9.2
9/17/2021 6:30:00 AM 15.06 59.108 0.057 6.91 2.16 9.22
9/17/2021 6:45:00 AM 15.05 59.09 0.057 6.97 2.02 9.24
9/17/2021 7:00:00 AM 15.04 59.072 0.057 6.96 1.97 9.22
9/17/2021 7:15:00 AM 15.02 59.036 0.057 6.97 2.13 9.28
9/17/2021 7:30:00 AM 15.02 59.036 0.057 6.97 2.28 9.27
9/17/2021 7:45:00 AM 15.01 59.018 0.057 6.98 2.26 9.28
9/17/2021 8:00:00 AM 15.01 59.018 0.057 6.99 2.29 9.31
9/17/2021 8:15:00 AM 15.01 59.018 0.056 7 2.15 9.34
9/17/2021 8:30:00 AM 15.01 59.018 0.056 7.01 1.97 9.38
9/17/2021 8:45:00 AM 15.02 59.036 0.056 6.88 1.95 9.38
9/17/2021 9:00:00 AM 15.03 59.054 0.056 7.03 2 9.44
9/17/2021 9:15:00 AM 15.04 59.072 0.056 7 2.06 9.47
9/17/2021 9:30:00 AM 15.05 59.09 0.056 7.05 1.93 9.52
9/17/2021 9:45:00 AM 15.07 59.126 0.056 6.94 1.86 9.55
9/17/2021 10:00:00 AM 15.1 59.18 0.056 7.07 1.83 9.59
9/17/2021 10:15:00 AM 15.13 59.234 0.056 7.08 1.84 9.64
9/17/2021 10:30:00 AM 15.16 59.288 0.056 7.08 1.87 9.68
9/17/2021 10:45:00 AM 15.21 59.378 0.056 7.04 2.08 9.74
9/17/2021 11:00:00 AM 15.25 59.45 0.055 7.13 1.92 9.75
9/17/2021 11:15:00 AM 15.3 59.54 0.055 7.04 1.83 9.76
9/17/2021 11:30:00 AM 15.35 59.63 0.055 7.17 1.83 9.77
9/17/2021 11:45:00 AM 15.4 59.72 0.055 7.08 1.87 9.76
9/17/2021 12:00:00 PM 15.46 59.828 0.055 7.18 1.98 9.81
9/17/2021 12:15:00 PM 15.55 59.99 0.055 7.14 1.83 9.84
9/17/2021 12:30:00 PM 15.67 60.206 0.055 7.24 1.87 9.86
9/17/2021 12:45:00 PM 15.77 60.386 0.055 7.23 1.8 9.89
9/17/2021 1:00:00 PM 15.84 60.512 0.055 7.26 1.99 9.9
9/17/2021 1:15:00 PM 15.93 60.674 0.055 7.22 1.87 9.87
9/17/2021 1:30:00 PM 16.02 60.836 0.055 7.3 1.91 9.88
9/17/2021 1:45:00 PM 16.08 60.944 0.054 7.2 2.05 9.86
9/17/2021 2:00:00 PM 16.18 61.124 0.054 7.3 2.43 9.82
9/17/2021 2:15:00 PM 16.28 61.304 0.054 7.32 1.77 9.81
9/17/2021 2:30:00 PM 16.38 61.484 0.054 7.2 1.77 9.8
9/17/2021 2:45:00 PM 16.48 61.664 0.054 7.33 1.75 9.82
9/17/2021 3:00:00 PM 16.59 61.862 0.054 7.32 1.85 9.79
9/17/2021 3:15:00 PM 16.84 62.312 0.054 7.34 1.72 9.76
9/17/2021 3:30:00 PM 17.02 62.636 0.054 7.34 1.86 9.75
9/17/2021 3:45:00 PM 17.06 62.708 0.054 7.35 1.74 9.71
9/17/2021 4:00:00 PM 17.09 62.762 0.054 7.35 1.73 9.66
9/17/2021 4:15:00 PM 17.09 62.762 0.054 7.35 1.9 9.63
9/17/2021 4:30:00 PM 17.13 62.834 0.054 7.34 1.83 9.58
9/17/2021 4:45:00 PM 17.19 62.942 0.054 7.32 1.78 9.54
9/17/2021 5:00:00 PM 17.24 63.032 0.054 7.18 1.89 9.48
9/17/2021 5:15:00 PM 17.25 63.05 0.054 7.3 1.84 9.42
9/17/2021 5:30:00 PM 17.26 63.068 0.054 7.28 2.09 9.36
9/17/2021 5:45:00 PM 17.23 63.014 0.054 7.27 1.84 9.33
9/17/2021 6:00:00 PM 17.19 62.942 0.054 7.17 1.8 9.25
9/17/2021 6:15:00 PM 17.13 62.834 0.054 7.12 2.05 9.22
9/17/2021 6:30:00 PM 17.07 62.726 0.054 7.21 1.83 9.18
9/17/2021 6:45:00 PM 17.01 62.618 0.054 7.19 1.81 9.14
9/17/2021 7:00:00 PM 16.93 62.474 0.055 7.06 3.08 9.1
9/17/2021 7:15:00 PM 16.87 62.366 0.055 7.14 6.38 9.04
9/17/2021 7:30:00 PM 16.8 62.24 0.055 7.01 1.91 8.99
9/17/2021 7:45:00 PM 16.72 62.096 0.055 7.09 1.93 8.95
9/17/2021 8:00:00 PM 16.65 61.97 0.055 7.08 1.93 8.93
9/17/2021 8:15:00 PM 16.58 61.844 0.055 7.04 2.01 8.94
9/17/2021 8:30:00 PM 16.52 61.736 0.055 7.02 2.04 8.91
9/17/2021 8:45:00 PM 16.42 61.556 0.055 6.96 1.96 8.94
9/17/2021 9:00:00 PM 16.36 61.448 0.055 7.05 2 8.95
9/17/2021 9:15:00 PM 16.31 61.358 0.055 6.95 1.97 8.93
9/17/2021 9:30:00 PM 16.24 61.232 0.056 7.02 1.94 8.95
9/17/2021 9:45:00 PM 16.16 61.088 0.056 6.92 2.05 8.95
9/17/2021 10:00:00 PM 16.11 60.998 0.056 7.01 2.16 8.95
9/17/2021 10:15:00 PM 16.03 60.854 0.056 7.01 2.13 8.97
9/17/2021 10:30:00 PM 15.97 60.746 0.056 6.99 2.12 8.96
9/17/2021 10:45:00 PM 15.9 60.62 0.056 7 2.14 8.99
9/17/2021 11:00:00 PM 15.85 60.53 0.056 6.89 2.42 9
9/17/2021 11:15:00 PM 15.81 60.458 0.056 6.92 2.07 9.01
9/17/2021 11:30:00 PM 15.75 60.35 0.056 7 2.14 9.05
9/17/2021 11:45:00 PM 15.72 60.296 0.056 6.96 2.24 9.06
9/18/2021 12:00:00 AM 15.71 60.278 0.056 6.99 2.06 9
9/18/2021 12:15:00 AM 15.67 60.206 0.056 6.98 2.97 9.04
9/18/2021 12:30:00 AM 15.64 60.152 0.056 6.99 2.04 9.06
9/18/2021 12:45:00 AM 15.62 60.116 0.056 6.99 2.12 9.05
9/18/2021 1:00:00 AM 15.6 60.08 0.056 7 2.22 9.1
9/18/2021 1:15:00 AM 15.58 60.044 0.056 6.87 2.1 9.09
9/18/2021 1:30:00 AM 15.56 60.008 0.056 6.92 2.2 9.1
9/18/2021 1:45:00 AM 15.54 59.972 0.056 6.99 2.16 9.09
9/18/2021 2:00:00 AM 15.53 59.954 0.056 6.98 2.27 9.06
9/18/2021 2:15:00 AM 15.51 59.918 0.056 6.99 2.45 9.11
9/18/2021 2:30:00 AM 15.51 59.918 0.056 6.96 2.23 9.06
9/18/2021 2:45:00 AM 15.48 59.864 0.056 6.98 2.28 9.1
9/18/2021 3:00:00 AM 15.47 59.846 0.056 6.98 2.23 9.1
9/18/2021 3:15:00 AM 15.44 59.792 0.056 6.99 2.12 9.11
9/18/2021 3:30:00 AM 15.42 59.756 0.056 6.98 2.22 9.12
9/18/2021 3:45:00 AM 15.42 59.756 0.056 6.97 2.21 9.05
9/18/2021 4:00:00 AM 15.4 59.72 0.056 6.97 2.1 9.11
9/18/2021 4:15:00 AM 15.38 59.684 0.056 6.87 2.07 9.1
9/18/2021 4:30:00 AM 15.38 59.684 0.056 6.94 2.33 9.1
9/18/2021 4:45:00 AM 15.36 59.648 0.056 6.9 2.26 9.1
9/18/2021 5:00:00 AM 15.34 59.612 0.056 6.97 2.02 9.11
9/18/2021 5:15:00 AM 15.32 59.576 0.056 6.89 2.22 9.14
9/18/2021 5:30:00 AM 15.3 59.54 0.056 6.97 2.31 9.13
9/18/2021 5:45:00 AM 15.29 59.522 0.056 6.86 2.09 9.09
9/18/2021 6:00:00 AM 15.28 59.504 0.056 6.96 2.12 9.11
9/18/2021 6:15:00 AM 15.26 59.468 0.056 6.85 2.1 9.12
9/18/2021 6:30:00 AM 15.24 59.432 0.056 6.98 2.23 9.18
9/18/2021 6:45:00 AM 15.22 59.396 0.056 6.96 2.06 9.16
9/18/2021 7:00:00 AM 15.22 59.396 0.056 6.97 2.15 9.16
9/18/2021 7:15:00 AM 15.2 59.36 0.056 6.92 2.07 9.14
9/18/2021 7:30:00 AM 15.18 59.324 0.056 6.98 1.98 9.19
9/18/2021 7:45:00 AM 15.18 59.324 0.056 6.87 2.23 9.2
9/18/2021 8:00:00 AM 15.17 59.306 0.056 6.99 2.26 9.22
9/18/2021 8:15:00 AM 15.17 59.306 0.055 6.92 2.44 9.26
9/18/2021 8:30:00 AM 15.18 59.324 0.055 7.02 2.39 9.34
9/18/2021 8:45:00 AM 15.19 59.342 0.055 7.02 2.29 9.39
9/18/2021 9:00:00 AM 15.21 59.378 0.055 6.91 2.19 9.4
9/18/2021 9:15:00 AM 15.2 59.36 0.055 7.06 1.96 9.5
9/18/2021 9:30:00 AM 15.2 59.36 0.055 7.04 2.02 9.55
9/18/2021 9:45:00 AM 15.23 59.414 0.055 6.97 2.01 9.52
9/18/2021 10:00:00 AM 15.23 59.414 0.055 7.01 1.88 9.59
9/18/2021 10:15:00 AM 15.27 59.486 0.055 7.06 1.97 9.59
9/18/2021 10:30:00 AM 15.32 59.576 0.055 7.09 2.16 9.62
9/18/2021 10:45:00 AM 15.4 59.72 0.055 7.04 1.95 9.68
9/18/2021 11:00:00 AM 15.5 59.9 0.054 7.15 1.97 9.7
9/18/2021 11:15:00 AM 15.63 60.134 0.054 7.16 2.16 9.7
9/18/2021 11:30:00 AM 15.76 60.368 0.054 7.17 1.94 9.68
9/18/2021 11:45:00 AM 15.93 60.674 0.054 7.2 1.9 9.69
9/18/2021 12:00:00 PM 16.11 60.998 0.054 7.21 1.87 9.67
9/18/2021 12:15:00 PM 16.25 61.25 0.054 7.2 1.9 9.64
9/18/2021 12:30:00 PM 16.44 61.592 0.054 7.24 2.01 9.66
9/18/2021 12:45:00 PM 16.6 61.88 0.054 7.24 1.99 9.63
9/18/2021 1:00:00 PM 16.8 62.24 0.054 7.26 2.21 9.59
9/18/2021 1:15:00 PM 17.04 62.672 0.054 7.14 1.91 9.57
9/18/2021 1:30:00 PM 17.25 63.05 0.054 7.28 1.88 9.62
9/18/2021 1:45:00 PM 17.36 63.248 0.054 7.3 2.26 9.58
9/18/2021 2:00:00 PM 17.46 63.428 0.054 7.31 2 9.56
9/18/2021 2:15:00 PM 17.54 63.572 0.054 7.31 1.96 9.54
9/18/2021 2:30:00 PM 17.62 63.716 0.054 7.29 2.13 9.5
9/18/2021 2:45:00 PM 17.7 63.86 0.054 7.23 1.88 9.49
9/18/2021 3:00:00 PM 17.78 64.004 0.053 7.25 1.87 9.44
9/18/2021 3:15:00 PM 17.87 64.166 0.053 7.33 2.06 9.44
9/18/2021 3:30:00 PM 17.96 64.328 0.053 7.35 1.96 9.46
9/18/2021 3:45:00 PM 18.05 64.49 0.053 7.34 1.89 9.45
9/18/2021 4:00:00 PM 18.13 64.634 0.053 7.26 1.83 9.41
9/18/2021 4:15:00 PM 18.14 64.652 0.053 7.35 1.89 9.42
9/18/2021 4:30:00 PM 18.15 64.67 0.053 7.25 1.87 9.4
9/18/2021 4:45:00 PM 18.15 64.67 0.053 7.35 1.93 9.38
9/18/2021 5:00:00 PM 18.11 64.598 0.053 7.27 1.9 9.33
9/18/2021 5:15:00 PM 18.09 64.562 0.053 7.33 1.96 9.31
9/18/2021 5:30:00 PM 18.06 64.508 0.053 7.22 1.96 9.29
9/18/2021 5:45:00 PM 17.98 64.364 0.053 7.3 1.86 9.22
9/18/2021 6:00:00 PM 17.87 64.166 0.053 7.27 2.1 9.16
9/18/2021 6:15:00 PM 17.81 64.058 0.053 7.14 1.93 9.11
9/18/2021 6:30:00 PM 17.71 63.878 0.054 7.22 1.91 9.08
9/18/2021 6:45:00 PM 17.58 63.644 0.054 7.19 1.81 9.01
9/18/2021 7:00:00 PM 17.51 63.518 0.054 7.18 1.91 9
9/18/2021 7:15:00 PM 17.38 63.284 0.054 7.02 1.99 8.94
9/18/2021 7:30:00 PM 17.32 63.176 0.054 7.13 1.95 8.9
9/18/2021 7:45:00 PM 17.23 63.014 0.054 6.97 2.38 8.84
9/18/2021 8:00:00 PM 17.17 62.906 0.054 7.01 1.98 8.82
9/18/2021 8:15:00 PM 17.08 62.744 0.054 7.08 1.81 8.82
9/18/2021 8:30:00 PM 17.02 62.636 0.054 7.07 1.96 8.8
9/18/2021 8:45:00 PM 16.92 62.456 0.055 6.95 1.98 8.81
9/18/2021 9:00:00 PM 16.85 62.33 0.055 7.05 2.15 8.81
9/18/2021 9:15:00 PM 16.76 62.168 0.055 7.04 2.04 8.81
9/18/2021 9:30:00 PM 16.7 62.06 0.055 7.04 1.89 8.81
9/18/2021 9:45:00 PM 16.62 61.916 0.055 7.03 2 8.82
9/18/2021 10:00:00 PM 16.51 61.718 0.055 7.03 2 8.88
9/18/2021 10:15:00 PM 16.46 61.628 0.055 6.98 2.2 8.84
9/18/2021 10:30:00 PM 16.36 61.448 0.055 7.02 2.08 8.89
9/18/2021 10:45:00 PM 16.29 61.322 0.055 7.03 2.03 8.91
9/18/2021 11:00:00 PM 16.2 61.16 0.055 7.02 2.08 8.92
9/18/2021 11:15:00 PM 16.14 61.052 0.055 7.02 2.18 8.92
9/18/2021 11:30:00 PM 16.05 60.89 0.055 7 2.08 8.94
9/18/2021 11:45:00 PM 15.99 60.782 0.055 7.02 2.14 8.97
9/19/2021 12:00:00 AM 15.94 60.692 0.055 6.89 2.15 8.97
9/19/2021 12:15:00 AM 15.85 60.53 0.055 7.01 2.16 8.98
9/19/2021 12:30:00 AM 15.77 60.386 0.055 7.02 2.17 9.02
9/19/2021 12:45:00 AM 15.72 60.296 0.055 7.02 2.01 9.02
9/19/2021 1:00:00 AM 15.65 60.17 0.055 7.01 2.16 9.03
9/19/2021 1:15:00 AM 15.59 60.062 0.055 7.01 2.16 9.02
9/19/2021 1:30:00 AM 15.51 59.918 0.055 7.02 2.33 9.09
9/19/2021 1:45:00 AM 15.45 59.81 0.055 6.91 2.09 9.09
9/19/2021 2:00:00 AM 15.38 59.684 0.055 7.01 2.16 9.09
9/19/2021 2:15:00 AM 15.31 59.558 0.055 7.01 2.31 9.11
9/19/2021 2:30:00 AM 15.22 59.396 0.055 7.03 2.17 9.18
9/19/2021 2:45:00 AM 15.18 59.324 0.055 7.01 1.98 9.14
9/19/2021 3:00:00 AM 15.15 59.27 0.055 6.95 2.07 9.15
9/19/2021 3:15:00 AM 15.08 59.144 0.055 7 2.07 9.17
9/19/2021 3:30:00 AM 15.04 59.072 0.055 7.02 2.31 9.2
9/19/2021 3:45:00 AM 15.01 59.018 0.055 6.94 2.11 9.19
9/19/2021 4:00:00 AM 14.98 58.964 0.055 7.01 2.1 9.21
9/19/2021 4:15:00 AM 14.93 58.874 0.055 7.02 2.08 9.21
9/19/2021 4:30:00 AM 14.89 58.802 0.055 7.02 2.06 9.23
9/19/2021 4:45:00 AM 14.85 58.73 0.055 7.02 2.19 9.25
9/19/2021 5:00:00 AM 14.84 58.712 0.055 6.98 2.19 9.23
9/19/2021 5:15:00 AM 14.79 58.622 0.055 7.04 2.03 9.27
9/19/2021 5:30:00 AM 14.74 58.532 0.055 7.04 2.15 9.33
9/19/2021 5:45:00 AM 14.72 58.496 0.055 7.04 2.23 9.29
9/19/2021 6:00:00 AM 14.69 58.442 0.055 7.03 2.1 9.28
9/19/2021 6:15:00 AM 14.67 58.406 0.055 7.03 2.12 9.27
9/19/2021 6:30:00 AM 14.63 58.334 0.055 6.98 2.21 9.31
9/19/2021 6:45:00 AM 14.61 58.298 0.055 6.93 2.17 9.26
9/19/2021 7:00:00 AM 14.56 58.208 0.055 7.04 2.23 9.31
9/19/2021 7:15:00 AM 14.52 58.136 0.055 6.99 2.09 9.32
9/19/2021 7:30:00 AM 14.47 58.046 0.055 7.04 2.17 9.38
9/19/2021 7:45:00 AM 14.45 58.01 0.055 6.97 2.29 9.41
9/19/2021 8:00:00 AM 14.41 57.938 0.055 7.05 2.2 9.46
9/19/2021 8:15:00 AM 14.38 57.884 0.055 7.06 2.09 9.5
9/19/2021 8:30:00 AM 14.37 57.866 0.055 7.05 2.76 9.53
9/19/2021 8:45:00 AM 14.34 57.812 0.054 7.06 2.18 9.67
9/19/2021 9:00:00 AM 14.35 57.83 0.054 7.1 2.11 9.75
9/19/2021 9:15:00 AM 14.38 57.884 0.054 7.02 2.34 9.8
9/19/2021 9:30:00 AM 14.39 57.902 0.054 7.15 2.01 9.88
9/19/2021 9:45:00 AM 14.38 57.884 0.054 7.15 1.93 9.93
9/19/2021 10:00:00 AM 14.45 58.01 0.054 7.17 1.92 9.93
9/19/2021 10:15:00 AM 14.43 57.974 0.054 7.19 2.01 9.97
9/19/2021 10:30:00 AM 14.45 58.01 0.054 7.2 1.91 9.97
9/19/2021 10:45:00 AM 14.48 58.064 0.054 7.07 1.87 9.93
9/19/2021 11:00:00 AM 14.52 58.136 0.054 7.2 2.02 9.94
9/19/2021 11:15:00 AM 14.54 58.172 0.054 7.2 1.96 9.85
9/19/2021 11:30:00 AM 14.6 58.28 0.054 7.07 1.95 9.84
9/19/2021 11:45:00 AM 14.7 58.46 0.053 7.21 1.94 9.89
9/19/2021 12:00:00 PM 14.85 58.73 0.053 7.17 1.89 9.93
9/19/2021 12:15:00 PM 15 59 0.053 7.15 1.91 9.9
9/19/2021 12:30:00 PM 15.17 59.306 0.053 7.21 1.86 9.85
9/19/2021 12:45:00 PM 15.36 59.648 0.053 7.22 1.95 9.8
9/19/2021 1:00:00 PM 15.48 59.864 0.053 7.21 1.91 9.73
9/19/2021 1:15:00 PM 15.69 60.242 0.053 7.23 1.83 9.72
9/19/2021 1:30:00 PM 15.97 60.746 0.053 7.22 1.79 9.67
9/19/2021 1:45:00 PM 16.21 61.178 0.053 7.25 1.91 9.67
9/19/2021 2:00:00 PM 16.37 61.466 0.053 7.25 1.84 9.66
9/19/2021 2:15:00 PM 16.47 61.646 0.053 7.26 1.8 9.62
9/19/2021 2:30:00 PM 16.62 61.916 0.053 7.14 1.85 9.59
9/19/2021 2:45:00 PM 16.77 62.186 0.053 7.26 2.04 9.56
9/19/2021 3:00:00 PM 16.96 62.528 0.053 7.27 4.24 9.57
9/19/2021 3:15:00 PM 17.23 63.014 0.053 7.29 4.05 9.52
9/19/2021 3:30:00 PM 17.42 63.356 0.053 7.28 4.28 9.51
9/19/2021 3:45:00 PM 17.46 63.428 0.053 7.18 4.17 9.47
9/19/2021 4:00:00 PM 17.59 63.662 0.053 7.22 5.15 9.49
9/19/2021 4:15:00 PM 17.57 63.626 0.053 7.23 2.2 9.43
9/19/2021 4:30:00 PM 17.6 63.68 0.053 7.3 3.29 9.41
9/19/2021 4:45:00 PM 17.51 63.518 0.053 7.3 4.01 9.41
9/19/2021 5:00:00 PM 17.46 63.428 0.053 7.17 4.2 9.35
9/19/2021 5:15:00 PM 17.38 63.284 0.053 7.27 3.65 9.33
9/19/2021 5:30:00 PM 17.29 63.122 0.053 7.13 3.35 9.26
9/19/2021 5:45:00 PM 17.13 62.834 0.053 7.2 4.88 9.23
9/19/2021 6:00:00 PM 17 62.6 0.053 7.22 4.11 9.2
9/19/2021 6:15:00 PM 16.84 62.312 0.053 7.2 2.54 9.18
9/19/2021 6:30:00 PM 16.76 62.168 0.053 7.19 4.08 9.15
9/19/2021 6:45:00 PM 16.67 62.006 0.054 7.17 3.77 9.1
9/19/2021 7:00:00 PM 16.52 61.736 0.054 7.02 3.79 9.11
9/19/2021 7:15:00 PM 16.42 61.556 0.054 7.14 3.28 9.08
9/19/2021 7:30:00 PM 16.29 61.322 0.054 7.11 1.86 9.07
9/19/2021 7:45:00 PM 16.13 61.034 0.054 7.11 1.78 9.08
9/19/2021 8:00:00 PM 16.01 60.818 0.054 7.11 1.79 9.06
9/19/2021 8:15:00 PM 15.93 60.674 0.054 7.09 1.74 9.02
9/19/2021 8:30:00 PM 15.79 60.422 0.054 6.96 1.83 9.08
9/19/2021 8:45:00 PM 15.66 60.188 0.054 7.07 1.8 9.13
9/19/2021 9:00:00 PM 15.58 60.044 0.054 7.06 1.89 9.11
9/19/2021 9:15:00 PM 15.49 59.882 0.054 7.06 1.94 9.09
9/19/2021 9:30:00 PM 15.37 59.666 0.054 6.96 1.87 9.14
9/19/2021 9:45:00 PM 15.29 59.522 0.054 7.07 1.74 9.15
9/19/2021 10:00:00 PM 15.2 59.36 0.055 7.03 1.84 9.17
9/19/2021 10:15:00 PM 15.1 59.18 0.055 6.95 1.83 9.16
9/19/2021 10:30:00 PM 14.97 58.946 0.055 7.07 1.97 9.25
9/19/2021 10:45:00 PM 14.91 58.838 0.055 7.02 1.84 9.24
9/19/2021 11:00:00 PM 14.82 58.676 0.055 7.06 1.97 9.27
9/19/2021 11:15:00 PM 14.75 58.55 0.055 7.05 1.79 9.25
9/19/2021 11:30:00 PM 14.65 58.37 0.055 7.06 1.97 9.31
9/19/2021 11:45:00 PM 14.58 58.244 0.055 7.06 1.94 9.31
9/20/2021 12:00:00 AM 14.51 58.118 0.055 7.05 2.14 9.32
9/20/2021 12:15:00 AM 14.42 57.956 0.055 7.05 2.02 9.38
9/20/2021 12:30:00 AM 14.36 57.848 0.055 7.06 1.94 9.37
9/20/2021 12:45:00 AM 14.29 57.722 0.055 7.06 1.78 9.41
9/20/2021 1:00:00 AM 14.22 57.596 0.055 7.05 1.95 9.37
9/20/2021 1:15:00 AM 14.19 57.542 0.055 7.05 1.86 9.38
9/20/2021 1:30:00 AM 14.11 57.398 0.055 7.04 1.91 9.39
9/20/2021 1:45:00 AM 14.02 57.236 0.055 7.04 1.86 9.46
9/20/2021 2:00:00 AM 13.95 57.11 0.055 7.05 1.97 9.47
9/20/2021 2:15:00 AM 13.89 57.002 0.055 7.04 2.01 9.46
9/20/2021 2:30:00 AM 13.82 56.876 0.055 7.04 2.02 9.49
9/20/2021 2:45:00 AM 13.74 56.732 0.055 7.05 1.92 9.54
9/20/2021 3:00:00 AM 13.69 56.642 0.055 6.92 2.03 9.52
9/20/2021 3:15:00 AM 13.63 56.534 0.055 7.04 1.95 9.53
9/20/2021 3:30:00 AM 13.53 56.354 0.055 6.95 1.81 9.58
9/20/2021 3:45:00 AM 13.47 56.246 0.055 6.99 2.09 9.57
9/20/2021 4:00:00 AM 13.41 56.138 0.055 7.04 2.16 9.57
9/20/2021 4:15:00 AM 13.35 56.03 0.055 7.04 1.93 9.57
9/20/2021 4:30:00 AM 13.27 55.886 0.055 7.04 2.08 9.62
9/20/2021 4:45:00 AM 13.2 55.76 0.055 7.04 2.04 9.66
9/20/2021 5:00:00 AM 13.14 55.652 0.055 7.02 1.91 9.62
9/20/2021 5:15:00 AM 13.08 55.544 0.055 6.91 1.93 9.66
9/20/2021 5:30:00 AM 13 55.4 0.055 7.03 2.21 9.71
9/20/2021 5:45:00 AM 12.95 55.31 0.055 7.01 1.91 9.68
9/20/2021 6:00:00 AM 12.88 55.184 0.055 7.02 1.94 9.7
9/20/2021 6:15:00 AM 12.8 55.04 0.055 7.03 1.9 9.76
9/20/2021 6:30:00 AM 12.75 54.95 0.055 6.89 1.92 9.71
9/20/2021 6:45:00 AM 12.68 54.824 0.055 6.95 2.22 9.78
9/20/2021 7:00:00 AM 12.63 54.734 0.055 7.02 1.96 9.77
9/20/2021 7:15:00 AM 12.56 54.608 0.055 7.03 1.88 9.84
9/20/2021 7:30:00 AM 12.52 54.536 0.055 7.02 1.83 9.84
9/20/2021 7:45:00 AM 12.45 54.41 0.055 7.03 1.86 9.9
9/20/2021 8:00:00 AM 12.4 54.32 0.054 7.04 1.83 9.95
9/20/2021 8:15:00 AM 12.37 54.266 0.054 7.04 1.85 9.96
9/20/2021 8:30:00 AM 12.31 54.158 0.054 7.06 1.85 10.03
9/20/2021 8:45:00 AM 12.28 54.104 0.054 7.06 1.83 10.04
9/20/2021 9:00:00 AM 12.27 54.086 0.054 7 1.84 10.07
9/20/2021 9:15:00 AM 12.23 54.014 0.054 7.09 1.79 10.13
9/20/2021 9:30:00 AM 12.25 54.05 0.054 7.08 1.81 10.14
9/20/2021 9:45:00 AM 12.25 54.05 0.054 7.09 1.71 10.18
9/20/2021 10:00:00 AM 12.3 54.14 0.054 7.08 1.83 10.2
9/20/2021 10:15:00 AM 12.35 54.23 0.054 7.12 2.32 10.25
9/20/2021 10:30:00 AM 12.43 54.374 0.054 7.14 1.75 10.27
9/20/2021 10:45:00 AM 12.55 54.59 0.054 7.14 1.69 10.27
9/20/2021 11:00:00 AM 12.68 54.824 0.054 7.05 1.77 10.28
9/20/2021 11:15:00 AM 12.79 55.022 0.053 7.11 1.68 10.3
9/20/2021 11:30:00 AM 12.98 55.364 0.053 7.16 1.72 10.26
9/20/2021 11:45:00 AM 13.2 55.76 0.053 7.08 1.69 10.2
9/20/2021 12:00:00 PM 13.44 56.192 0.053 7.2 2.04 10.22
9/20/2021 12:15:00 PM 13.6 56.48 0.053 7.13 2.1 10.26
9/20/2021 12:30:00 PM 13.88 56.984 0.053 7.23 1.68 10.27
9/20/2021 12:45:00 PM 14.08 57.344 0.053 7.19 1.62 10.25
9/20/2021 1:00:00 PM 14.29 57.722 0.053 7.26 1.66 10.26
9/20/2021 1:15:00 PM 14.51 58.118 0.053 7.29 1.64 10.23
9/20/2021 1:30:00 PM 14.67 58.406 0.053 7.31 1.77 10.21
9/20/2021 1:45:00 PM 14.8 58.64 0.053 7.3 1.81 10.17
9/20/2021 2:00:00 PM 14.93 58.874 0.053 7.34 1.68 10.23
9/20/2021 2:15:00 PM 15.04 59.072 0.053 7.36 1.68 10.17
9/20/2021 2:30:00 PM 15.22 59.396 0.053 7.33 1.71 10.15
9/20/2021 2:45:00 PM 15.31 59.558 0.053 7.32 1.67 10.12
9/20/2021 3:00:00 PM 15.31 59.558 0.053 7.36 1.67 10.05
9/20/2021 3:15:00 PM 15.39 59.702 0.052 7.37 1.68 10.03
9/20/2021 3:30:00 PM 15.42 59.756 0.052 7.37 1.66 10.03
9/20/2021 3:45:00 PM 15.5 59.9 0.052 7.38 1.64 10
9/20/2021 4:00:00 PM 15.54 59.972 0.052 7.27 1.69 10.01
9/20/2021 4:15:00 PM 15.49 59.882 0.052 7.37 1.89 9.97
9/20/2021 4:30:00 PM 15.5 59.9 0.052 7.34 3.74 9.89
9/20/2021 4:45:00 PM 15.52 59.936 0.052 7.28 3.51 9.84
9/20/2021 5:00:00 PM 15.55 59.99 0.052 7.33 3.35 9.79
9/20/2021 5:15:00 PM 15.58 60.044 0.052 7.29 3.89 9.67
9/20/2021 5:30:00 PM 15.62 60.116 0.053 7.26 2.18 9.6
9/20/2021 5:45:00 PM 15.65 60.17 0.053 7.12 4.37 9.58
9/20/2021 6:00:00 PM 15.66 60.188 0.053 7.23 4.48 9.54
9/20/2021 6:15:00 PM 15.66 60.188 0.053 7.09 4.27 9.5
9/20/2021 6:30:00 PM 15.63 60.134 0.053 7.2 4.93 9.45
9/20/2021 6:45:00 PM 15.61 60.098 0.053 7.18 5.48 9.4
9/20/2021 7:00:00 PM 15.56 60.008 0.053 7.02 4.72 9.36
9/20/2021 7:15:00 PM 15.51 59.918 0.053 7.14 1.65 9.33
9/20/2021 7:30:00 PM 15.47 59.846 0.053 7.12 1.75 9.29
9/20/2021 7:45:00 PM 15.4 59.72 0.053 7.11 1.88 9.27
9/20/2021 8:00:00 PM 15.31 59.558 0.053 7.07 1.74 9.29
9/20/2021 8:15:00 PM 15.25 59.45 0.054 7.08 1.76 9.27
9/20/2021 8:30:00 PM 15.18 59.324 0.054 7.08 1.83 9.26
9/20/2021 8:45:00 PM 15.11 59.198 0.054 7.05 1.91 9.28
9/20/2021 9:00:00 PM 15.06 59.108 0.054 7.05 1.98 9.26
9/20/2021 9:15:00 PM 14.97 58.946 0.054 7.02 1.78 9.28
9/20/2021 9:30:00 PM 14.91 58.838 0.054 7.06 1.82 9.29
9/20/2021 9:45:00 PM 14.85 58.73 0.054 6.95 1.88 9.29
9/20/2021 10:00:00 PM 14.78 58.604 0.054 6.98 1.87 9.33
9/20/2021 10:15:00 PM 14.74 58.532 0.054 7.04 1.77 9.26
9/20/2021 10:30:00 PM 14.66 58.388 0.054 7.01 1.75 9.35
9/20/2021 10:45:00 PM 14.62 58.316 0.054 7.05 1.91 9.35
9/20/2021 11:00:00 PM 14.57 58.226 0.054 7.04 1.83 9.34
9/20/2021 11:15:00 PM 14.52 58.136 0.054 6.94 1.75 9.35
9/20/2021 11:30:00 PM 14.46 58.028 0.055 7.05 1.94 9.39
9/20/2021 11:45:00 PM 14.43 57.974 0.055 6.94 1.83 9.38
9/21/2021 12:00:00 AM 14.4 57.92 0.055 7.03 2.08 9.35
9/21/2021 12:15:00 AM 14.35 57.83 0.055 7.04 1.75 9.39
9/21/2021 12:30:00 AM 14.3 57.74 0.055 7.05 1.89 9.4
9/21/2021 12:45:00 AM 14.27 57.686 0.055 6.91 1.95 9.41
9/21/2021 1:00:00 AM 14.23 57.614 0.055 7.04 1.94 9.42
9/21/2021 1:15:00 AM 14.19 57.542 0.055 6.93 1.95 9.41
9/21/2021 1:30:00 AM 14.15 57.47 0.055 7.04 2.04 9.42
9/21/2021 1:45:00 AM 14.12 57.416 0.055 7.04 1.97 9.46
9/21/2021 2:00:00 AM 14.1 57.38 0.055 7.04 1.84 9.43
9/21/2021 2:15:00 AM 14.08 57.344 0.055 7.04 1.91 9.43
9/21/2021 2:30:00 AM 14.04 57.272 0.055 7.05 1.84 9.49
9/21/2021 2:45:00 AM 14.04 57.272 0.055 6.92 1.83 9.46
9/21/2021 3:00:00 AM 14.01 57.218 0.055 7.04 1.95 9.5
9/21/2021 3:15:00 AM 14 57.2 0.055 7.04 1.82 9.48
9/21/2021 3:30:00 AM 14 57.2 0.055 7.04 1.89 9.46
9/21/2021 3:45:00 AM 13.98 57.164 0.055 7.04 1.93 9.49
9/21/2021 4:00:00 AM 13.98 57.164 0.055 7.03 1.92 9.47
9/21/2021 4:15:00 AM 13.98 57.164 0.055 7.04 2.15 9.48
9/21/2021 4:30:00 AM 13.97 57.146 0.055 6.99 1.85 9.51
9/21/2021 4:45:00 AM 13.98 57.164 0.055 7.04 1.97 9.49
9/21/2021 5:00:00 AM 13.98 57.164 0.055 7.02 1.99 9.47
9/21/2021 5:15:00 AM 13.98 57.164 0.055 6.92 1.93 9.49
9/21/2021 5:30:00 AM 13.98 57.164 0.055 7.05 2.12 9.52
9/21/2021 5:45:00 AM 13.97 57.146 0.055 7.06 1.87 9.54
9/21/2021 6:00:00 AM 13.98 57.164 0.055 6.92 1.87 9.49
9/21/2021 6:15:00 AM 13.98 57.164 0.055 7.05 1.96 9.51
9/21/2021 6:30:00 AM 13.97 57.146 0.055 7.04 1.91 9.54
9/21/2021 6:45:00 AM 13.97 57.146 0.055 7.05 1.97 9.51
9/21/2021 7:00:00 AM 13.98 57.164 0.055 6.91 1.92 9.47
9/21/2021 7:15:00 AM 13.98 57.164 0.055 7.05 2.01 9.48
9/21/2021 7:30:00 AM 13.98 57.164 0.055 6.94 1.89 9.53
9/21/2021 7:45:00 AM 13.98 57.164 0.055 7.05 2.09 9.56
9/21/2021 8:00:00 AM 13.98 57.164 0.055 7.07 1.98 9.59
9/21/2021 8:15:00 AM 14.01 57.218 0.055 7.05 2.03 9.67
9/21/2021 8:30:00 AM 14.03 57.254 0.055 7.05 2 9.7
9/21/2021 8:45:00 AM 14.04 57.272 0.055 7.1 1.86 9.73
9/21/2021 9:00:00 AM 14.07 57.326 0.054 7.11 1.92 9.73
9/21/2021 9:15:00 AM 14.11 57.398 0.054 7.13 1.78 9.83
9/21/2021 9:30:00 AM 14.13 57.434 0.054 7.11 1.68 9.83
9/21/2021 9:45:00 AM 14.16 57.488 0.054 7.17 1.72 9.9
9/21/2021 10:00:00 AM 14.25 57.65 0.054 7.07 1.77 9.93
9/21/2021 10:15:00 AM 14.3 57.74 0.054 7.2 1.67 10
9/21/2021 10:30:00 AM 14.37 57.866 0.054 7.24 1.77 10.05
9/21/2021 10:45:00 AM 14.44 57.992 0.054 7.13 3.68 10.08
9/21/2021 11:00:00 AM 14.52 58.136 0.053 7.25 1.8 10.08
9/21/2021 11:15:00 AM 14.6 58.28 0.053 7.25 1.74 10.06
9/21/2021 11:30:00 AM 14.64 58.352 0.053 7.2 1.74 10.02
9/21/2021 11:45:00 AM 14.74 58.532 0.053 7.25 1.74 10.01
9/21/2021 12:00:00 PM 14.89 58.802 0.053 7.24 1.75 10.01
9/21/2021 12:15:00 PM 14.96 58.928 0.053 7.29 1.66 10.03
9/21/2021 12:30:00 PM 15.06 59.108 0.053 7.32 1.77 10.05
9/21/2021 12:45:00 PM 15.17 59.306 0.053 7.29 1.71 10.06
9/21/2021 1:00:00 PM 15.23 59.414 0.053 7.34 1.75 10.04
9/21/2021 1:15:00 PM 15.28 59.504 0.053 7.35 1.63 9.99
9/21/2021 1:30:00 PM 15.34 59.612 0.053 7.33 1.66 9.95
9/21/2021 1:45:00 PM 15.43 59.774 0.053 7.2 1.67 9.93
9/21/2021 2:00:00 PM 15.5 59.9 0.053 7.24 1.68 9.92
9/21/2021 2:15:00 PM 15.53 59.954 0.053 7.33 1.67 9.88
9/21/2021 2:30:00 PM 15.58 60.044 0.053 7.21 1.75 9.86
9/21/2021 2:45:00 PM 15.63 60.134 0.053 7.32 1.65 9.85
9/21/2021 3:00:00 PM 15.69 60.242 0.053 7.26 1.71 9.82
9/21/2021 3:15:00 PM 15.7 60.26 0.053 7.34 1.72 9.84
9/21/2021 3:30:00 PM 15.71 60.278 0.052 7.31 1.65 9.82
9/21/2021 3:45:00 PM 15.67 60.206 0.053 7.19 1.96 9.76
9/21/2021 4:00:00 PM 15.66 60.188 0.053 7.31 1.77 9.71
9/21/2021 4:15:00 PM 15.67 60.206 0.053 7.29 1.73 9.7
9/21/2021 4:30:00 PM 15.66 60.188 0.053 7.29 1.8 9.68
9/21/2021 4:45:00 PM 15.72 60.296 0.053 7.29 1.74 9.71
9/21/2021 5:00:00 PM 15.75 60.35 0.052 7.29 1.73 9.73
9/21/2021 5:15:00 PM 15.74 60.332 0.053 7.3 1.7 9.72
9/21/2021 5:30:00 PM 15.71 60.278 0.053 7.27 1.65 9.65
9/21/2021 5:45:00 PM 15.67 60.206 0.053 7.26 1.78 9.58
9/21/2021 6:00:00 PM 15.65 60.17 0.053 7.24 1.75 9.54
9/21/2021 6:15:00 PM 15.63 60.134 0.053 7.1 1.74 9.53
9/21/2021 6:30:00 PM 15.62 60.116 0.053 7.2 1.87 9.47
9/21/2021 6:45:00 PM 15.59 60.062 0.053 7.19 1.99 9.41
9/21/2021 7:00:00 PM 15.55 59.99 0.053 7.16 2.05 9.38
9/21/2021 7:15:00 PM 15.51 59.918 0.053 7.15 1.82 9.33
9/21/2021 7:30:00 PM 15.47 59.846 0.053 7.13 1.86 9.29
9/21/2021 7:45:00 PM 15.44 59.792 0.054 7.12 2.06 9.26
9/21/2021 8:00:00 PM 15.41 59.738 0.054 7.05 2 9.22
9/21/2021 8:15:00 PM 15.35 59.63 0.054 7.1 1.89 9.26
9/21/2021 8:30:00 PM 15.33 59.594 0.054 7.08 1.93 9.22
9/21/2021 8:45:00 PM 15.3 59.54 0.054 7.09 1.89 9.22
9/21/2021 9:00:00 PM 15.27 59.486 0.054 7.03 1.88 9.21
9/21/2021 9:15:00 PM 15.25 59.45 0.054 7 1.95 9.19
9/21/2021 9:30:00 PM 15.22 59.396 0.054 7.07 2.1 9.21
9/21/2021 9:45:00 PM 15.21 59.378 0.054 7.04 1.95 9.15
9/21/2021 10:00:00 PM 15.17 59.306 0.054 7.06 2 9.22
9/21/2021 10:15:00 PM 15.15 59.27 0.054 7.05 2.16 9.22
9/21/2021 10:30:00 PM 15.14 59.252 0.054 7.04 1.96 9.21
9/21/2021 10:45:00 PM 15.12 59.216 0.054 7.01 2.06 9.23
9/21/2021 11:00:00 PM 15.12 59.216 0.054 7.03 1.97 9.18
9/21/2021 11:15:00 PM 15.1 59.18 0.055 7.02 1.96 9.2
9/21/2021 11:30:00 PM 15.1 59.18 0.055 7.02 1.99 9.19
9/21/2021 11:45:00 PM 15.11 59.198 0.055 7 2.31 9.11
9/22/2021 12:00:00 AM 15.08 59.144 0.055 6.89 1.98 9.19
9/22/2021 12:15:00 AM 15.07 59.126 0.055 7.02 2.05 9.18
9/22/2021 12:30:00 AM 15.05 59.09 0.055 7.02 2.02 9.19
9/22/2021 12:45:00 AM 15.04 59.072 0.055 7.01 2 9.21
9/22/2021 1:00:00 AM 15.03 59.054 0.055 7.02 1.93 9.2
9/22/2021 1:15:00 AM 15.03 59.054 0.055 6.86 1.85 9.19
9/22/2021 1:30:00 AM 15.01 59.018 0.055 7.01 1.93 9.22
9/22/2021 1:45:00 AM 15 59 0.055 6.99 1.91 9.22
9/22/2021 2:00:00 AM 15.01 59.018 0.055 7 1.93 9.19
9/22/2021 2:15:00 AM 14.99 58.982 0.055 7.01 2.07 9.22
9/22/2021 2:30:00 AM 14.98 58.964 0.055 7.02 1.95 9.24
9/22/2021 2:45:00 AM 14.98 58.964 0.055 7.01 2.1 9.21
9/22/2021 3:00:00 AM 14.97 58.946 0.055 6.89 1.95 9.23
9/22/2021 3:15:00 AM 14.96 58.928 0.055 7.02 1.98 9.23
9/22/2021 3:30:00 AM 14.95 58.91 0.055 6.98 1.97 9.25
9/22/2021 3:45:00 AM 14.95 58.91 0.055 6.91 1.95 9.19
9/22/2021 4:00:00 AM 14.93 58.874 0.055 6.95 1.97 9.23
9/22/2021 4:15:00 AM 14.93 58.874 0.055 7.02 1.95 9.2
9/22/2021 4:30:00 AM 14.92 58.856 0.055 7.01 1.97 9.2
9/22/2021 4:45:00 AM 14.91 58.838 0.055 7.01 2.1 9.23
9/22/2021 5:00:00 AM 14.9 58.82 0.055 7 2 9.22
9/22/2021 5:15:00 AM 14.9 58.82 0.055 6.94 2 9.2
9/22/2021 5:30:00 AM 14.88 58.784 0.055 7.02 1.98 9.26
9/22/2021 5:45:00 AM 14.88 58.784 0.055 7.01 2.1 9.18
9/22/2021 6:00:00 AM 14.87 58.766 0.055 7.01 2.18 9.23
9/22/2021 6:15:00 AM 14.86 58.748 0.055 7.02 2.22 9.24
9/22/2021 6:30:00 AM 14.86 58.748 0.055 7.03 2.01 9.22
9/22/2021 6:45:00 AM 14.86 58.748 0.055 7.02 2.08 9.22
9/22/2021 7:00:00 AM 14.85 58.73 0.055 7.03 2.06 9.25
9/22/2021 7:15:00 AM 14.84 58.712 0.055 6.9 2.18 9.24
9/22/2021 7:30:00 AM 14.85 58.73 0.055 7.02 2 9.24
9/22/2021 7:45:00 AM 14.84 58.712 0.055 7.04 2.01 9.26
9/22/2021 8:00:00 AM 14.84 58.712 0.055 7.01 1.94 9.27
9/22/2021 8:15:00 AM 14.85 58.73 0.055 7.03 2.03 9.23
9/22/2021 8:30:00 AM 14.84 58.712 0.055 7.04 1.93 9.31
9/22/2021 8:45:00 AM 14.85 58.73 0.055 6.96 1.91 9.33
9/22/2021 9:00:00 AM 14.86 58.748 0.055 7.07 1.85 9.4
9/22/2021 9:15:00 AM 14.88 58.784 0.055 7.08 2.44 9.4
9/22/2021 9:30:00 AM 14.9 58.82 0.055 7.08 1.89 9.44
9/22/2021 9:45:00 AM 14.91 58.838 0.055 6.99 1.9 9.46
9/22/2021 10:00:00 AM 14.94 58.892 0.055 7.03 1.85 9.49
9/22/2021 10:15:00 AM 15 59 0.055 7.11 1.85 9.55
9/22/2021 10:30:00 AM 15.04 59.072 0.055 7.05 1.9 9.56
9/22/2021 10:45:00 AM 15.07 59.126 0.054 7.12 2.07 9.62
9/22/2021 11:00:00 AM 15.1 59.18 0.054 7.14 1.83 9.59
9/22/2021 11:15:00 AM 15.12 59.216 0.054 7.13 3.71 9.55
9/22/2021 11:30:00 AM 15.18 59.324 0.054 7.05 2.95 9.59
9/22/2021 11:45:00 AM 15.22 59.396 0.054 7.17 2.11 9.6
9/22/2021 12:00:00 PM 15.26 59.468 0.054 7.16 4 9.59
9/22/2021 12:15:00 PM 15.29 59.522 0.054 7.16 3.77 9.55
9/22/2021 12:30:00 PM 15.34 59.612 0.053 7.17 3.6 9.57
9/22/2021 12:45:00 PM 15.39 59.702 0.053 7.17 3.61 9.57
9/22/2021 1:00:00 PM 15.47 59.846 0.053 7.09 3.18 9.6
9/22/2021 1:15:00 PM 15.5 59.9 0.053 7.19 4.61 9.6
9/22/2021 1:30:00 PM 15.53 59.954 0.053 7.19 4.9 9.57
9/22/2021 1:45:00 PM 15.57 60.026 0.052 7.09 3.28 9.57
9/22/2021 2:00:00 PM 15.61 60.098 0.052 7.19 5.28 9.53
9/22/2021 2:15:00 PM 15.64 60.152 0.052 7.09 4.17 9.54
9/22/2021 2:30:00 PM 15.66 60.188 0.052 7.17 4.31 9.51
9/22/2021 2:45:00 PM 15.7 60.26 0.052 7.08 4.47 9.49
9/22/2021 3:00:00 PM 15.75 60.35 0.052 7.17 4.19 9.47
9/22/2021 3:15:00 PM 15.82 60.476 0.052 7.06 6.62 9.51
9/22/2021 3:30:00 PM 15.88 60.584 0.052 7.18 4.05 9.52
9/22/2021 3:45:00 PM 15.9 60.62 0.052 7.11 7.54 9.53
9/22/2021 4:00:00 PM 15.94 60.692 0.052 7.21 2.69 9.5
9/22/2021 4:15:00 PM 15.97 60.746 0.052 7.1 4.13 9.48
9/22/2021 4:30:00 PM 16.02 60.836 0.053 7.22 3.53 9.41
9/22/2021 4:45:00 PM 16.06 60.908 0.053 7.2 2.5 9.4
9/22/2021 5:00:00 PM 16.07 60.926 0.053 7.2 3.32 9.32
9/22/2021 5:15:00 PM 16.08 60.944 0.053 7.18 4.53 9.24
9/22/2021 5:30:00 PM 16.08 60.944 0.053 7.16 4.46 9.19
9/22/2021 5:45:00 PM 16.08 60.944 0.053 7.02 5.17 9.16
9/22/2021 6:00:00 PM 16.06 60.908 0.054 7.13 7.12 9.12
9/22/2021 6:15:00 PM 16.04 60.872 0.054 7.12 4.13 9.09
9/22/2021 6:30:00 PM 16.03 60.854 0.054 7.12 4.47 9.06
9/22/2021 6:45:00 PM 16.01 60.818 0.054 7.07 6.52 9.05
9/22/2021 7:00:00 PM 15.98 60.764 0.054 7.1 4.59 9.04
9/22/2021 7:15:00 PM 15.96 60.728 0.054 7.1 5.09 9.04
9/22/2021 7:30:00 PM 15.95 60.71 0.055 7.09 4.78 9.03
9/22/2021 7:45:00 PM 15.92 60.656 0.055 6.97 5.31 9.03
9/22/2021 8:00:00 PM 15.9 60.62 0.055 7.03 5.04 9.02
9/22/2021 8:15:00 PM 15.88 60.584 0.054 7 4.9 9.03
9/22/2021 8:30:00 PM 15.87 60.566 0.054 7.08 4.98 9.02
9/22/2021 8:45:00 PM 15.86 60.548 0.054 7.08 4.58 9.02
9/22/2021 9:00:00 PM 15.84 60.512 0.054 7.04 4.64 9.03
9/22/2021 9:15:00 PM 15.83 60.494 0.054 7.03 4.74 9.03
9/22/2021 9:30:00 PM 15.83 60.494 0.054 7.04 4.74 9.03
9/22/2021 9:45:00 PM 15.83 60.494 0.054 7.07 4.96 9.03
9/22/2021 10:00:00 PM 15.83 60.494 0.054 7.08 4.63 9.04
9/22/2021 10:15:00 PM 15.83 60.494 0.054 6.98 4.49 9.03
9/22/2021 10:30:00 PM 15.84 60.512 0.054 7.03 4.38 9.03
9/22/2021 10:45:00 PM 15.84 60.512 0.054 7.07 4.45 9.03
9/22/2021 11:00:00 PM 15.85 60.53 0.054 7.01 4.16 9.03
9/22/2021 11:15:00 PM 15.86 60.548 0.054 6.98 4.12 9.03
9/22/2021 11:30:00 PM 15.87 60.566 0.054 7.07 4.25 9.03
9/22/2021 11:45:00 PM 15.86 60.548 0.054 7.05 4.26 9.02
9/23/2021 12:00:00 AM 15.85 60.53 0.054 7.07 4.34 9.01
9/23/2021 12:15:00 AM 15.83 60.494 0.053 7.06 4.48 9.02
9/23/2021 12:30:00 AM 15.82 60.476 0.053 7.05 4.28 9.02
9/23/2021 12:45:00 AM 15.79 60.422 0.053 7.06 3.8 9.03
9/23/2021 1:00:00 AM 15.76 60.368 0.053 7.05 4.26 9.03
9/23/2021 1:15:00 AM 15.72 60.296 0.053 7.06 4.08 9.06
9/23/2021 1:30:00 AM 15.68 60.224 0.052 7.05 4.94 9.06
9/23/2021 1:45:00 AM 15.64 60.152 0.052 7.02 5.34 9.06
9/23/2021 2:00:00 AM 15.6 60.08 0.052 7.03 5.34 9.08
9/23/2021 2:15:00 AM 15.55 59.99 0.052 6.91 5.85 9.08
9/23/2021 2:30:00 AM 15.5 59.9 0.052 7.02 7.22 9.09
9/23/2021 2:45:00 AM 15.45 59.81 0.052 7.01 7.46 9.1
9/23/2021 3:00:00 AM 15.4 59.72 0.052 6.89 8.06 9.11
9/23/2021 3:15:00 AM 15.36 59.648 0.052 6.97 11.67 9.13
9/23/2021 3:30:00 AM 15.32 59.576 0.052 7 12.63 9.15
9/23/2021 3:45:00 AM 15.28 59.504 0.051 7 15.1 9.18
9/23/2021 4:00:00 AM 15.24 59.432 0.051 6.96 21.83 9.19
9/23/2021 4:15:00 AM 15.19 59.342 0.051 6.97 20.72 9.19
9/23/2021 4:30:00 AM 15.13 59.234 0.051 6.85 25.03 9.21
9/23/2021 4:45:00 AM 15.07 59.126 0.05 6.93 28.99 9.22
9/23/2021 5:00:00 AM 15.02 59.036 0.05 6.93 44.2 9.24
9/23/2021 5:15:00 AM 14.96 58.928 0.05 6.9 49.02 9.24
9/23/2021 5:30:00 AM 14.89 58.802 0.049 6.77 54.13 9.26
9/23/2021 5:45:00 AM 14.72 58.496 0.049 6.85 61.93 9.3
9/23/2021 6:00:00 AM 14.56 58.208 0.047 6.82 68.76 9.34
9/23/2021 6:15:00 AM 14.49 58.082 0.046 6.78 93.22 9.37
9/23/2021 6:30:00 AM 14.41 57.938 0.045 6.75 116.7 9.39
9/23/2021 6:45:00 AM 14.36 57.848 0.043 6.72 121.48 9.42
9/23/2021 7:00:00 AM 14.31 57.758 0.043 6.68 114.77 9.44
9/23/2021 7:15:00 AM 14.26 57.668 0.042 6.58 117.38 9.46
9/23/2021 7:30:00 AM 14.2 57.56 0.042 6.49 109.03 9.48
9/23/2021 7:45:00 AM 14.13 57.434 0.041 6.61 273.1 9.47
9/23/2021 8:00:00 AM 14.06 57.308 0.041 6.48 806.71 9.49
9/23/2021 8:15:00 AM 14.06 57.308 0.043 6.55 124.78 8.65
9/23/2021 8:30:00 AM 14.02 57.236 0.04 6.33 147.22 9.12
9/23/2021 8:45:00 AM 14 57.2 0.041 6.36 169.42 9.12
9/23/2021 9:00:00 AM 14.02 57.236 0.041 6.41 249.52 9.08
9/23/2021 9:15:00 AM 13.89 57.002 0.038 6.38 232.98 8.82
9/23/2021 9:30:00 AM 13.88 56.984 0.039 6.52 226.93 9.28
9/23/2021 9:45:00 AM 13.81 56.858 0.037 6.41 204.1 9.36
9/23/2021 10:00:00 AM 13.76 56.768 0.036 6.44 199.79 9.32
9/23/2021 10:15:00 AM 13.62 56.516 0.033 6.5 204.92 9.63
9/23/2021 10:30:00 AM 13.58 56.444 0.031 6.45 145.69 9.67
9/23/2021 10:45:00 AM 13.55 56.39 0.033 6.44 105.81 9.68
9/23/2021 11:00:00 AM 13.52 56.336 0.038 6.48 119.46 9.68
9/23/2021 11:15:00 AM 13.49 56.282 0.03 6.53 126.45 9.02
9/23/2021 11:30:00 AM 13.48 56.264 0.03 6.51 128.63 9.6
9/23/2021 11:45:00 AM 13.46 56.228 0.034 6.54 129.59 9.64
9/23/2021 12:00:00 PM 13.47 56.246 0.038 6.53 130.01 9.71
9/23/2021 12:15:00 PM 13.5 56.3 0.037 6.46 128.27 9.42
9/23/2021 12:30:00 PM 13.48 56.264 0.035 6.53 131.15 9.7
9/23/2021 12:45:00 PM 13.46 56.228 0.037 6.6 5114.54 9.74
9/23/2021 1:00:00 PM 13.44 56.192 0.037 6.56 4992.42 9.74
9/23/2021 1:15:00 PM 13.42 56.156 0.037 6.62 1682.13 9.75
9/23/2021 1:30:00 PM 13.39 56.102 0.037 6.61 4787.53 9.76
9/23/2021 1:45:00 PM 13.38 56.084 0.037 6.51 270.84 9.76
9/23/2021 2:00:00 PM 13.37 56.066 0.036 6.52 144.52 9.77
9/23/2021 2:15:00 PM 13.35 56.03 0.036 6.5 163.54 9.78
9/23/2021 2:30:00 PM 13.32 55.976 0.036 6.46 241.36 9.79
9/23/2021 2:45:00 PM 13.31 55.958 0.036 6.48 538.03 9.79
9/23/2021 3:00:00 PM 13.27 55.886 0.036 6.5 1470.57 9.8
9/23/2021 3:15:00 PM 13.25 55.85 0.036 6.6 82.75 9.81
9/23/2021 3:30:00 PM 13.21 55.778 0.036 6.54 118.93 9.82
9/23/2021 3:45:00 PM 13.15 55.67 0.036 6.55 69.73 9.83
9/23/2021 4:00:00 PM 13.09 55.562 0.036 6.59 359.99 9.84
9/23/2021 4:15:00 PM 13.03 55.454 0.036 6.56 144.06 9.85
9/23/2021 4:30:00 PM 12.97 55.346 0.036 6.52 115.77 9.87
9/23/2021 4:45:00 PM 12.9 55.22 0.036 6.6 72.72 9.88
9/23/2021 5:00:00 PM 12.85 55.13 0.036 6.57 78.47 9.88
9/23/2021 5:15:00 PM 12.79 55.022 0.036 6.53 73.25 9.89
9/23/2021 5:30:00 PM 12.73 54.914 0.036 6.58 87.1 9.9
9/23/2021 5:45:00 PM 12.68 54.824 0.036 6.55 84.67 9.92
9/23/2021 6:00:00 PM 12.62 54.716 0.036 6.53 83.39 9.93
9/23/2021 6:15:00 PM 12.56 54.608 0.036 6.52 93.31 9.95
9/23/2021 6:30:00 PM 12.5 54.5 0.036 6.53 83.67 9.96
9/23/2021 6:45:00 PM 12.44 54.392 0.036 6.57 73.26 9.97
9/23/2021 7:00:00 PM 12.38 54.284 0.036 6.57 81.78 9.99
9/23/2021 7:15:00 PM 12.32 54.176 0.036 6.57 401.62 10
9/23/2021 7:30:00 PM 12.26 54.068 0.036 6.51 81.84 10.01
9/23/2021 7:45:00 PM 12.21 53.978 0.036 6.58 160.58 10.01
9/23/2021 8:00:00 PM 12.16 53.888 0.036 6.58 154.96 10.02
9/23/2021 8:15:00 PM 12.11 53.798 0.036 6.58 535.41 10.04
9/23/2021 8:30:00 PM 12.06 53.708 0.036 6.55 106.38 10.05
9/23/2021 8:45:00 PM 12.01 53.618 0.036 6.59 108.78 10.06
9/23/2021 9:00:00 PM 11.96 53.528 0.036 6.53 94.7 10.08
9/23/2021 9:15:00 PM 11.91 53.438 0.036 6.56 171.64 10.1
9/23/2021 9:30:00 PM 11.87 53.366 0.036 6.58 93.76 10.11
9/23/2021 9:45:00 PM 11.83 53.294 0.036 6.54 91.56 10.12
9/23/2021 10:00:00 PM 11.8 53.24 0.036 6.55 80.22 10.13
9/23/2021 10:15:00 PM 11.76 53.168 0.036 6.6 130.42 10.13
9/23/2021 10:30:00 PM 11.73 53.114 0.036 6.61 161.85 10.15
9/23/2021 10:45:00 PM 11.69 53.042 0.036 6.61 263.44 10.15
9/23/2021 11:00:00 PM 11.66 52.988 0.036 6.6 126.33 10.16
9/23/2021 11:15:00 PM 11.63 52.934 0.036 6.59 132.77 10.16
9/23/2021 11:30:00 PM 11.6 52.88 0.036 6.63 71.37 10.17
9/23/2021 11:45:00 PM 11.57 52.826 0.036 6.63 65.49 10.17
9/24/2021 12:00:00 AM 11.55 52.79 0.036 6.63 67.2 10.18
9/24/2021 12:15:00 AM 11.53 52.754 0.036 6.63 95.67 10.18
9/24/2021 12:30:00 AM 11.51 52.718 0.036 6.63 83.81 10.19
9/24/2021 12:45:00 AM 11.49 52.682 0.036 6.64 83.54 10.19
9/24/2021 1:00:00 AM 11.47 52.646 0.036 6.65 74.15 10.2
9/24/2021 1:15:00 AM 11.46 52.628 0.036 6.59 142.12 10.19
9/24/2021 1:30:00 AM 11.44 52.592 0.036 6.65 98.77 10.2
9/24/2021 1:45:00 AM 11.43 52.574 0.036 6.65 128.82 10.21
9/24/2021 2:00:00 AM 11.42 52.556 0.036 6.66 135.06 10.2
9/24/2021 2:15:00 AM 11.41 52.538 0.036 6.66 92.4 10.22
9/24/2021 2:30:00 AM 11.39 52.502 0.036 6.67 150.1 10.21
9/24/2021 2:45:00 AM 11.38 52.484 0.036 6.67 187.4 10.23
9/24/2021 3:00:00 AM 11.37 52.466 0.036 6.67 168.41 10.22
9/24/2021 3:15:00 AM 11.36 52.448 0.036 6.66 93.68 10.23
9/24/2021 3:30:00 AM 11.34 52.412 0.036 6.68 86.04 10.23
9/24/2021 3:45:00 AM 11.33 52.394 0.036 6.67 79.56 10.24
9/24/2021 4:00:00 AM 11.32 52.376 0.036 6.66 119.99 10.24
9/24/2021 4:15:00 AM 11.3 52.34 0.036 6.68 106.18 10.24
9/24/2021 4:30:00 AM 11.29 52.322 0.036 6.61 123.24 10.25
9/24/2021 4:45:00 AM 11.26 52.268 0.037 6.58 120.26 10.26
9/24/2021 5:00:00 AM 11.24 52.232 0.037 6.66 113.76 10.27
9/24/2021 5:15:00 AM 11.21 52.178 0.037 6.68 112.2 10.27
9/24/2021 5:30:00 AM 11.18 52.124 0.037 6.68 98.54 10.28
9/24/2021 5:45:00 AM 11.16 52.088 0.037 6.62 111.25 10.29
9/24/2021 6:00:00 AM 11.14 52.052 0.037 6.57 100.38 10.3
9/24/2021 6:15:00 AM 11.12 52.016 0.037 6.57 99.09 10.3
9/24/2021 6:30:00 AM 11.1 51.98 0.037 6.69 103.67 10.3
9/24/2021 6:45:00 AM 11.08 51.944 0.037 6.68 88.3 10.31
9/24/2021 7:00:00 AM 11.06 51.908 0.037 6.68 78.39 10.32
9/24/2021 7:15:00 AM 11.04 51.872 0.037 6.68 77.71 10.32
9/24/2021 7:30:00 AM 11.02 51.836 0.037 6.68 81.89 10.33
9/24/2021 7:45:00 AM 11 51.8 0.037 6.67 79.69 10.35
9/24/2021 8:00:00 AM 10.99 51.782 0.037 6.68 74.76 10.36
9/24/2021 8:15:00 AM 10.99 51.782 0.037 6.58 74 10.36
9/24/2021 8:30:00 AM 11 51.8 0.037 6.69 77.1 10.36
9/24/2021 8:45:00 AM 11 51.8 0.037 6.69 72.77 10.37
9/24/2021 9:00:00 AM 11 51.8 0.037 6.69 75.22 10.37
9/24/2021 9:15:00 AM 11.01 51.818 0.037 6.69 78.38 10.38
9/24/2021 9:30:00 AM 11.01 51.818 0.037 6.56 78.36 10.38
9/24/2021 9:45:00 AM 11.03 51.854 0.037 6.71 77.9 10.38
9/24/2021 10:00:00 AM 11.06 51.908 0.037 6.72 74.28 10.38
9/24/2021 10:15:00 AM 11.08 51.944 0.037 6.7 67.76 10.38
9/24/2021 10:30:00 AM 11.13 52.034 0.037 6.72 71.47 10.39
9/24/2021 10:45:00 AM 11.17 52.106 0.037 6.73 68.98 10.39
9/24/2021 11:00:00 AM 11.21 52.178 0.037 6.74 66.45 10.37
9/24/2021 11:15:00 AM 11.27 52.286 0.037 6.73 66.23 10.35
9/24/2021 11:30:00 AM 11.34 52.412 0.037 6.74 64.73 10.34
9/24/2021 11:45:00 AM 11.44 52.592 0.037 6.74 63.16 10.32
9/24/2021 12:00:00 PM 11.51 52.718 0.037 6.75 65.98 10.3
9/24/2021 12:15:00 PM 11.57 52.826 0.037 6.76 64.6 10.29
9/24/2021 12:30:00 PM 11.65 52.97 0.037 6.75 162.91 10.29
9/24/2021 12:45:00 PM 11.71 53.078 0.037 6.75 175.26 10.28
9/24/2021 1:00:00 PM 11.79 53.222 0.037 6.75 190.73 10.26
9/24/2021 1:15:00 PM 11.84 53.312 0.037 6.76 210.62 10.25
9/24/2021 1:30:00 PM 11.93 53.474 0.037 6.76 231.88 10.23
9/24/2021 1:45:00 PM 11.98 53.564 0.037 6.76 232.76 10.22
9/24/2021 2:00:00 PM 12.07 53.726 0.037 6.62 233.23 10.2
9/24/2021 2:15:00 PM 12.14 53.852 0.037 6.77 260.65 10.18
9/24/2021 2:30:00 PM 12.17 53.906 0.037 6.77 276.75 10.17
9/24/2021 2:45:00 PM 12.19 53.942 0.037 6.63 275.92 10.16
9/24/2021 3:00:00 PM 12.2 53.96 0.037 6.73 291.78 10.15
9/24/2021 3:15:00 PM 12.21 53.978 0.038 6.77 286.7 10.15
9/24/2021 3:30:00 PM 12.21 53.978 0.037 6.7 279.5 10.14
9/24/2021 3:45:00 PM 12.19 53.942 0.037 6.77 285.87 10.14
9/24/2021 4:00:00 PM 12.18 53.924 0.038 6.77 282.11 10.13
9/24/2021 4:15:00 PM 12.17 53.906 0.038 6.76 274.48 10.13
9/24/2021 4:30:00 PM 12.17 53.906 0.038 6.77 287.23 10.13
9/24/2021 4:45:00 PM 12.18 53.924 0.038 6.76 287.94 10.12
9/24/2021 5:00:00 PM 12.15 53.87 0.038 6.76 302.05 10.12
9/24/2021 5:15:00 PM 12.15 53.87 0.038 6.75 308.63 10.12
9/24/2021 5:30:00 PM 12.15 53.87 0.038 6.75 313.42 10.12
9/24/2021 5:45:00 PM 12.12 53.816 0.038 6.76 321.91 10.12
9/24/2021 6:00:00 PM 12.08 53.744 0.038 6.75 350.62 10.12
9/24/2021 6:15:00 PM 12.03 53.654 0.038 6.75 346.6 10.12
9/24/2021 6:30:00 PM 11.98 53.564 0.038 6.74 50.38 10.13
9/24/2021 6:45:00 PM 11.92 53.456 0.038 6.74 34.84 10.13
9/24/2021 7:00:00 PM 11.87 53.366 0.038 6.73 51.41 10.14
9/24/2021 7:15:00 PM 11.82 53.276 0.038 6.74 44.73 10.15
9/24/2021 7:30:00 PM 11.77 53.186 0.038 6.73 42.81 10.16
9/24/2021 7:45:00 PM 11.71 53.078 0.038 6.66 39.01 10.18
9/24/2021 8:00:00 PM 11.66 52.988 0.038 6.68 48.9 10.19
9/24/2021 8:15:00 PM 11.6 52.88 0.038 6.72 68.47 10.19
9/24/2021 8:30:00 PM 11.55 52.79 0.038 6.7 104.51 10.2
9/24/2021 8:45:00 PM 11.49 52.682 0.038 6.72 75.46 10.21
9/24/2021 9:00:00 PM 11.44 52.592 0.038 6.72 85.44 10.22
9/24/2021 9:15:00 PM 11.39 52.502 0.038 6.65 78.97 10.24
9/24/2021 9:30:00 PM 11.34 52.412 0.038 6.64 62.94 10.24
9/24/2021 9:45:00 PM 11.29 52.322 0.038 6.72 64.59 10.27
9/24/2021 10:00:00 PM 11.24 52.232 0.038 6.72 74.24 10.28
9/24/2021 10:15:00 PM 11.2 52.16 0.038 6.63 59.6 10.3
9/24/2021 10:30:00 PM 11.15 52.07 0.038 6.72 64.75 10.31
9/24/2021 10:45:00 PM 11.11 51.998 0.038 6.72 55.11 10.32
9/24/2021 11:00:00 PM 11.06 51.908 0.038 6.73 62.32 10.32
9/24/2021 11:15:00 PM 11.02 51.836 0.038 6.71 84.9 10.34
9/24/2021 11:30:00 PM 10.98 51.764 0.038 6.72 122.51 10.35
9/24/2021 11:45:00 PM 10.93 51.674 0.038 6.71 118.67 10.36
9/25/2021 12:00:00 AM 10.89 51.602 0.038 6.71 89.47 10.36
9/25/2021 12:15:00 AM 10.85 51.53 0.038 6.72 175.58 10.37
9/25/2021 12:30:00 AM 10.81 51.458 0.038 6.62 217.06 10.38
9/25/2021 12:45:00 AM 10.77 51.386 0.038 6.71 237.5 10.39
9/25/2021 1:00:00 AM 10.74 51.332 0.038 6.64 290.5 10.4
9/25/2021 1:15:00 AM 10.7 51.26 0.038 6.72 311.65 10.41
9/25/2021 1:30:00 AM 10.67 51.206 0.039 6.72 53.53 10.41
9/25/2021 1:45:00 AM 10.65 51.17 0.038 6.6 18.16 10.43
9/25/2021 2:00:00 AM 10.63 51.134 0.038 6.72 17.07 10.43
9/25/2021 2:15:00 AM 10.6 51.08 0.039 6.61 820.47 10.44
9/25/2021 2:30:00 AM 10.58 51.044 0.038 6.64 13.8 10.45
9/25/2021 2:45:00 AM 10.56 51.008 0.038 6.7 13.54 10.45
9/25/2021 3:00:00 AM 10.53 50.954 0.039 6.66 14.4 10.46
9/25/2021 3:15:00 AM 10.51 50.918 0.039 6.69 13.05 10.47
9/25/2021 3:30:00 AM 10.48 50.864 0.039 6.72 13.17 10.48
9/25/2021 3:45:00 AM 10.46 50.828 0.039 6.72 11.55 10.48
9/25/2021 4:00:00 AM 10.43 50.774 0.039 6.69 10.89 10.49
9/25/2021 4:15:00 AM 10.41 50.738 0.039 6.72 11.78 10.49
9/25/2021 4:30:00 AM 10.39 50.702 0.039 6.72 10.82 10.5
9/25/2021 4:45:00 AM 10.36 50.648 0.039 6.72 11.57 10.51
9/25/2021 5:00:00 AM 10.34 50.612 0.039 6.72 11.92 10.51
9/25/2021 5:15:00 AM 10.31 50.558 0.039 6.72 11.19 10.51
9/25/2021 5:30:00 AM 10.3 50.54 0.039 6.62 2641.28 10.52
9/25/2021 5:45:00 AM 10.27 50.486 0.039 6.72 11.15 10.52
9/25/2021 6:00:00 AM 10.25 50.45 0.039 6.72 10.58 10.53
9/25/2021 6:15:00 AM 10.23 50.414 0.039 6.71 11.41 10.54
9/25/2021 6:30:00 AM 10.2 50.36 0.039 6.72 10.97 10.54
9/25/2021 6:45:00 AM 10.17 50.306 0.039 6.69 10.46 10.55
9/25/2021 7:00:00 AM 10.14 50.252 0.039 6.69 10.07 10.56
9/25/2021 7:15:00 AM 10.12 50.216 0.039 6.69 10.23 10.57
9/25/2021 7:30:00 AM 10.1 50.18 0.039 6.74 95.42 10.57
9/25/2021 7:45:00 AM 10.08 50.144 0.039 6.75 9.4 10.58
9/25/2021 8:00:00 AM 10.06 50.108 0.039 6.72 19.76 10.59
9/25/2021 8:15:00 AM 10.04 50.072 0.039 6.75 179.04 10.61
9/25/2021 8:30:00 AM 10.03 50.054 0.039 6.77 72.79 10.62
9/25/2021 8:45:00 AM 10.01 50.018 0.039 6.75 8.48 10.63
9/25/2021 9:00:00 AM 10 50 0.039 6.71 10.14 10.63
9/25/2021 9:15:00 AM 10.01 50.018 0.039 6.7 7.41 10.63
9/25/2021 9:30:00 AM 10.03 50.054 0.039 6.78 8.24 10.63
9/25/2021 9:45:00 AM 10.07 50.126 0.039 6.78 7.63 10.63
9/25/2021 10:00:00 AM 10.12 50.216 0.039 6.68 8.55 10.63
9/25/2021 10:15:00 AM 10.18 50.324 0.039 6.71 7.51 10.61
9/25/2021 10:30:00 AM 10.26 50.468 0.039 6.8 7.63 10.61
9/25/2021 10:45:00 AM 10.34 50.612 0.039 6.7 7.83 10.6
9/25/2021 11:00:00 AM 10.44 50.792 0.039 6.8 9.97 10.58
9/25/2021 11:15:00 AM 10.54 50.972 0.039 6.73 7.41 10.56
9/25/2021 11:30:00 AM 10.65 51.17 0.039 6.74 6.95 10.54
9/25/2021 11:45:00 AM 10.76 51.368 0.039 6.75 7.31 10.51
9/25/2021 12:00:00 PM 10.87 51.566 0.039 6.77 6.49 10.48
9/25/2021 12:15:00 PM 10.97 51.746 0.039 6.78 7.93 10.47
9/25/2021 12:30:00 PM 11.06 51.908 0.039 6.75 7.29 10.46
9/25/2021 12:45:00 PM 11.16 52.088 0.039 6.81 6.97 10.44
9/25/2021 1:00:00 PM 11.27 52.286 0.039 6.84 7 10.42
9/25/2021 1:15:00 PM 11.39 52.502 0.039 6.84 8.29 10.38
9/25/2021 1:30:00 PM 11.5 52.7 0.039 6.83 6.6 10.36
9/25/2021 1:45:00 PM 11.62 52.916 0.039 6.85 107.8 10.33
9/25/2021 2:00:00 PM 11.73 53.114 0.039 6.77 10.39 10.3
9/25/2021 2:15:00 PM 11.82 53.276 0.039 6.83 7.97 10.28
9/25/2021 2:30:00 PM 11.91 53.438 0.039 6.75 6.95 10.25
9/25/2021 2:45:00 PM 12 53.6 0.039 6.77 6.52 10.23
9/25/2021 3:00:00 PM 12.06 53.708 0.039 6.82 12.22 10.21
9/25/2021 3:15:00 PM 12.11 53.798 0.039 6.82 8.37 10.19
9/25/2021 3:30:00 PM 12.14 53.852 0.039 6.86 6.44 10.17
9/25/2021 3:45:00 PM 12.15 53.87 0.039 6.84 6.65 10.16
9/25/2021 4:00:00 PM 12.19 53.942 0.039 6.83 6.92 10.15
9/25/2021 4:15:00 PM 12.19 53.942 0.039 6.86 6.93 10.14
9/25/2021 4:30:00 PM 12.19 53.942 0.039 6.86 6.47 10.13
9/25/2021 4:45:00 PM 12.19 53.942 0.039 6.86 6.97 10.12
9/25/2021 5:00:00 PM 12.18 53.924 0.039 6.84 6.45 10.11
9/25/2021 5:15:00 PM 12.18 53.924 0.039 6.76 6.3 10.11
9/25/2021 5:30:00 PM 12.17 53.906 0.039 6.84 16.03 10.11
9/25/2021 5:45:00 PM 12.17 53.906 0.039 6.84 8.24 10.11
9/25/2021 6:00:00 PM 12.15 53.87 0.039 6.86 53.84 10.09
9/25/2021 6:15:00 PM 12.12 53.816 0.039 6.73 6.94 10.1
9/25/2021 6:30:00 PM 12.07 53.726 0.039 6.83 8.8 10.1
9/25/2021 6:45:00 PM 12.03 53.654 0.039 6.83 6.67 10.1
9/25/2021 7:00:00 PM 11.98 53.564 0.039 6.74 7.01 10.1
9/25/2021 7:15:00 PM 11.94 53.492 0.039 6.83 7.07 10.1
9/25/2021 7:30:00 PM 11.91 53.438 0.04 6.79 6.61 10.1
9/25/2021 7:45:00 PM 11.87 53.366 0.04 6.72 6.71 10.1
9/25/2021 8:00:00 PM 11.83 53.294 0.04 6.81 6.94 10.11
9/25/2021 8:15:00 PM 11.8 53.24 0.04 6.8 6.55 10.12
9/25/2021 8:30:00 PM 11.76 53.168 0.04 6.72 6.64 10.13
9/25/2021 8:45:00 PM 11.73 53.114 0.04 6.8 6.58 10.14
9/25/2021 9:00:00 PM 11.69 53.042 0.04 6.81 7.28 10.15
9/25/2021 9:15:00 PM 11.65 52.97 0.04 6.76 6.53 10.16
9/25/2021 9:30:00 PM 11.62 52.916 0.04 6.8 7.34 10.16
9/25/2021 9:45:00 PM 11.58 52.844 0.04 6.76 6.86 10.17
9/25/2021 10:00:00 PM 11.55 52.79 0.04 6.79 6.64 10.18
9/25/2021 10:15:00 PM 11.52 52.736 0.04 6.76 7.07 10.18
9/25/2021 10:30:00 PM 11.49 52.682 0.04 6.8 7.45 10.19
9/25/2021 10:45:00 PM 11.47 52.646 0.04 6.73 6.23 10.19
9/25/2021 11:00:00 PM 11.44 52.592 0.04 6.75 6.63 10.21
9/25/2021 11:15:00 PM 11.42 52.556 0.04 6.73 6.81 10.22
9/25/2021 11:30:00 PM 11.39 52.502 0.04 6.81 6.4 10.22
9/25/2021 11:45:00 PM 11.36 52.448 0.04 6.74 6.27 10.23
9/26/2021 12:00:00 AM 11.34 52.412 0.04 6.79 7.2 10.24
9/26/2021 12:15:00 AM 11.31 52.358 0.04 6.76 6.11 10.24
9/26/2021 12:30:00 AM 11.28 52.304 0.04 6.78 6.56 10.26
9/26/2021 12:45:00 AM 11.24 52.232 0.04 6.73 6.57 10.27
9/26/2021 1:00:00 AM 11.2 52.16 0.04 6.81 6.73 10.27
9/26/2021 1:15:00 AM 11.16 52.088 0.04 6.73 6.69 10.28
9/26/2021 1:30:00 AM 11.11 51.998 0.04 6.8 6.28 10.29
9/26/2021 1:45:00 AM 11.07 51.926 0.04 6.81 6.39 10.3
9/26/2021 2:00:00 AM 11.03 51.854 0.04 6.81 6.8 10.31
9/26/2021 2:15:00 AM 10.98 51.764 0.04 6.8 6.82 10.32
9/26/2021 2:30:00 AM 10.94 51.692 0.04 6.8 5.95 10.33
9/26/2021 2:45:00 AM 10.89 51.602 0.04 6.81 6 10.34
9/26/2021 3:00:00 AM 10.85 51.53 0.04 6.79 6.48 10.34
9/26/2021 3:15:00 AM 10.81 51.458 0.04 6.81 6 10.35
9/26/2021 3:30:00 AM 10.77 51.386 0.04 6.7 7.23 10.36
9/26/2021 3:45:00 AM 10.75 51.35 0.04 6.81 8.44 10.37
9/26/2021 4:00:00 AM 10.73 51.314 0.04 6.71 6.83 10.38
9/26/2021 4:15:00 AM 10.7 51.26 0.04 6.81 6.14 10.39
9/26/2021 4:30:00 AM 10.68 51.224 0.04 6.8 6.07 10.4
9/26/2021 4:45:00 AM 10.66 51.188 0.04 6.81 5.86 10.41
9/26/2021 5:00:00 AM 10.64 51.152 0.04 6.72 6.18 10.41
9/26/2021 5:15:00 AM 10.62 51.116 0.04 6.76 6.01 10.42
9/26/2021 5:30:00 AM 10.59 51.062 0.04 6.82 6.34 10.43
9/26/2021 5:45:00 AM 10.57 51.026 0.04 6.73 6.54 10.43
9/26/2021 6:00:00 AM 10.54 50.972 0.04 6.81 5.95 10.45
9/26/2021 6:15:00 AM 10.51 50.918 0.04 6.82 6.39 10.45
9/26/2021 6:30:00 AM 10.48 50.864 0.04 6.72 6 10.46
9/26/2021 6:45:00 AM 10.46 50.828 0.04 6.76 5.37 10.47
9/26/2021 7:00:00 AM 10.44 50.792 0.04 6.79 5.96 10.47
9/26/2021 7:15:00 AM 10.41 50.738 0.04 6.81 6.54 10.48
9/26/2021 7:30:00 AM 10.38 50.684 0.04 6.82 8.65 10.49
9/26/2021 7:45:00 AM 10.35 50.63 0.04 6.82 8.12 10.5
9/26/2021 8:00:00 AM 10.33 50.594 0.04 6.81 8.36 10.51
9/26/2021 8:15:00 AM 10.31 50.558 0.04 6.83 7.22 10.52
9/26/2021 8:30:00 AM 10.3 50.54 0.04 6.78 7 10.53
9/26/2021 8:45:00 AM 10.28 50.504 0.04 6.83 7.19 10.54
9/26/2021 9:00:00 AM 10.28 50.504 0.04 6.83 6.37 10.55
9/26/2021 9:15:00 AM 10.28 50.504 0.04 6.83 6.3 10.55
9/26/2021 9:30:00 AM 10.29 50.522 0.04 6.76 6.79 10.56
9/26/2021 9:45:00 AM 10.31 50.558 0.04 6.83 6.24 10.56
9/26/2021 10:00:00 AM 10.34 50.612 0.04 6.76 5.86 10.56
9/26/2021 10:15:00 AM 10.39 50.702 0.04 6.77 7.53 10.56
9/26/2021 10:30:00 AM 10.45 50.81 0.04 6.85 5.96 10.55
9/26/2021 10:45:00 AM 10.52 50.936 0.04 6.84 7.37 10.54
9/26/2021 11:00:00 AM 10.61 51.098 0.04 6.82 7.67 10.53
9/26/2021 11:15:00 AM 10.69 51.242 0.04 6.85 9.03 10.51
9/26/2021 11:30:00 AM 10.78 51.404 0.04 6.85 7.45 10.49
9/26/2021 11:45:00 AM 10.87 51.566 0.04 6.86 7.23 10.47
9/26/2021 12:00:00 PM 10.97 51.746 0.04 6.86 9.66 10.48
9/26/2021 12:15:00 PM 11.07 51.926 0.04 6.85 6.43 10.45
9/26/2021 12:30:00 PM 11.2 52.16 0.04 6.87 7.02 10.43
9/26/2021 12:45:00 PM 11.29 52.322 0.04 6.88 9.5 10.41
9/26/2021 1:00:00 PM 11.39 52.502 0.04 6.88 4.99 10.39
9/26/2021 1:15:00 PM 11.49 52.682 0.04 6.86 11.76 10.36
9/26/2021 1:30:00 PM 11.59 52.862 0.04 6.89 7.92 10.35
9/26/2021 1:45:00 PM 11.68 53.024 0.04 6.87 7.04 10.33
9/26/2021 2:00:00 PM 11.79 53.222 0.04 6.87 7.58 10.29
9/26/2021 2:15:00 PM 11.88 53.384 0.04 6.89 4.88 10.27
9/26/2021 2:30:00 PM 11.98 53.564 0.04 6.81 4.53 10.25
9/26/2021 2:45:00 PM 12.02 53.636 0.04 6.89 7.27 10.23
9/26/2021 3:00:00 PM 12.05 53.69 0.04 6.9 7.54 10.22
9/26/2021 3:15:00 PM 12.1 53.78 0.04 6.8 4.93 10.2
9/26/2021 3:30:00 PM 12.11 53.798 0.04 6.9 4.23 10.19
9/26/2021 3:45:00 PM 12.15 53.87 0.04 6.9 6.11 10.18
9/26/2021 4:00:00 PM 12.12 53.816 0.04 6.84 5.87 10.18
9/26/2021 4:15:00 PM 12.06 53.708 0.04 6.91 5.29 10.19
9/26/2021 4:30:00 PM 12.08 53.744 0.04 6.8 5.13 10.17
9/26/2021 4:45:00 PM 12.06 53.708 0.04 6.88 4.28 10.17
9/26/2021 5:00:00 PM 12.05 53.69 0.04 6.88 4.9 10.17
9/26/2021 5:15:00 PM 12.03 53.654 0.04 6.87 4.43 10.16
9/26/2021 5:30:00 PM 12.03 53.654 0.04 6.89 5 10.16
9/26/2021 5:45:00 PM 12.03 53.654 0.04 6.79 4.86 10.15
9/26/2021 6:00:00 PM 12.02 53.636 0.04 6.89 6.67 10.15
9/26/2021 6:15:00 PM 12 53.6 0.04 6.8 9.52 10.14
9/26/2021 6:30:00 PM 11.97 53.546 0.04 6.88 8.43 10.13
9/26/2021 6:45:00 PM 11.94 53.492 0.041 6.88 9.05 10.13
9/26/2021 7:00:00 PM 11.91 53.438 0.041 6.77 4.64 10.12
9/26/2021 7:15:00 PM 11.88 53.384 0.041 6.87 4.8 10.12
9/26/2021 7:30:00 PM 11.84 53.312 0.041 6.77 4.72 10.12
9/26/2021 7:45:00 PM 11.8 53.24 0.041 6.86 4.81 10.12
9/26/2021 8:00:00 PM 11.75 53.15 0.041 6.76 5.35 10.13
9/26/2021 8:15:00 PM 11.7 53.06 0.041 6.78 4.61 10.14
9/26/2021 8:30:00 PM 11.66 52.988 0.041 6.78 5.1 10.15
9/26/2021 8:45:00 PM 11.61 52.898 0.041 6.77 5.03 10.16
9/26/2021 9:00:00 PM 11.57 52.826 0.041 6.86 5.3 10.17
9/26/2021 9:15:00 PM 11.52 52.736 0.041 6.84 4.57 10.18
9/26/2021 9:30:00 PM 11.47 52.646 0.041 6.86 4.48 10.19
9/26/2021 9:45:00 PM 11.42 52.556 0.041 6.85 5.07 10.19
9/26/2021 10:00:00 PM 11.38 52.484 0.041 6.76 4.82 10.21
9/26/2021 10:15:00 PM 11.35 52.43 0.041 6.78 5.12 10.23
9/26/2021 10:30:00 PM 11.31 52.358 0.041 6.83 5.04 10.23
9/26/2021 10:45:00 PM 11.26 52.268 0.041 6.85 4.63 10.25
9/26/2021 11:00:00 PM 11.21 52.178 0.041 6.75 5.03 10.26
9/26/2021 11:15:00 PM 11.17 52.106 0.041 6.78 4.68 10.29
9/26/2021 11:30:00 PM 11.12 52.016 0.041 6.84 14.47 10.29
9/26/2021 11:45:00 PM 11.08 51.944 0.041 6.81 4.93 10.29
9/27/2021 12:00:00 AM 11.04 51.872 0.041 6.76 4.68 10.31
9/27/2021 12:15:00 AM 11 51.8 0.041 6.8 5.21 10.32
9/27/2021 12:30:00 AM 10.96 51.728 0.041 6.76 6.1 10.33
9/27/2021 12:45:00 AM 10.93 51.674 0.041 6.77 6.53 10.33
9/27/2021 1:00:00 AM 10.9 51.62 0.041 6.77 5.18 10.34
9/27/2021 1:15:00 AM 10.87 51.566 0.041 6.79 4.94 10.34
9/27/2021 1:30:00 AM 10.83 51.494 0.041 6.82 5.39 10.35
9/27/2021 1:45:00 AM 10.79 51.422 0.041 6.84 5.47 10.37
9/27/2021 2:00:00 AM 10.75 51.35 0.041 6.74 5.22 10.37
9/27/2021 2:15:00 AM 10.71 51.278 0.041 6.79 4.7 10.38
9/27/2021 2:30:00 AM 10.67 51.206 0.041 6.84 4.95 10.39
9/27/2021 2:45:00 AM 10.63 51.134 0.041 6.73 4.55 10.41
9/27/2021 3:00:00 AM 10.6 51.08 0.041 6.85 4.8 10.42
9/27/2021 3:15:00 AM 10.57 51.026 0.041 6.8 4.87 10.42
9/27/2021 3:30:00 AM 10.55 50.99 0.041 6.75 4.92 10.43
9/27/2021 3:45:00 AM 10.53 50.954 0.041 6.76 5.14 10.44
9/27/2021 4:00:00 AM 10.52 50.936 0.041 6.76 4.99 10.45
9/27/2021 4:15:00 AM 10.51 50.918 0.041 6.78 5.05 10.45
9/27/2021 4:30:00 AM 10.49 50.882 0.041 6.82 6.38 10.45
9/27/2021 4:45:00 AM 10.48 50.864 0.041 6.85 6.08 10.46
9/27/2021 5:00:00 AM 10.48 50.864 0.041 6.83 4.8 10.46
9/27/2021 5:15:00 AM 10.47 50.846 0.041 6.84 5.26 10.47
9/27/2021 5:30:00 AM 10.46 50.828 0.041 6.84 4.33 10.47
9/27/2021 5:45:00 AM 10.45 50.81 0.041 6.76 4.53 10.47
9/27/2021 6:00:00 AM 10.44 50.792 0.041 6.77 4.71 10.48
9/27/2021 6:15:00 AM 10.42 50.756 0.041 6.85 4.23 10.48
9/27/2021 6:30:00 AM 10.39 50.702 0.041 6.82 4.31 10.48
9/27/2021 6:45:00 AM 10.37 50.666 0.041 6.82 4.95 10.48
9/27/2021 7:00:00 AM 10.35 50.63 0.041 6.75 4.31 10.49
9/27/2021 7:15:00 AM 10.33 50.594 0.041 6.79 6.43 10.49
9/27/2021 7:30:00 AM 10.31 50.558 0.041 6.76 5.06 10.5
9/27/2021 7:45:00 AM 10.29 50.522 0.041 6.81 8.8 10.51
9/27/2021 8:00:00 AM 10.28 50.504 0.041 6.75 4.56 10.51
9/27/2021 8:15:00 AM 10.26 50.468 0.041 6.77 8.02 10.52
9/27/2021 8:30:00 AM 10.26 50.468 0.041 6.78 4.34 10.53
9/27/2021 8:45:00 AM 10.26 50.468 0.041 6.86 5.82 10.54
9/27/2021 9:00:00 AM 10.27 50.486 0.041 6.78 7.5 10.54
9/27/2021 9:15:00 AM 10.31 50.558 0.041 6.86 6.88 10.54
9/27/2021 9:30:00 AM 10.36 50.648 0.041 6.86 7.37 10.54
9/27/2021 9:45:00 AM 10.42 50.756 0.041 6.87 4.39 10.54
9/27/2021 10:00:00 AM 10.49 50.882 0.041 6.81 4.94 10.53
9/27/2021 10:15:00 AM 10.57 51.026 0.041 6.88 5.04 10.52
9/27/2021 10:30:00 AM 10.66 51.188 0.041 6.9 4 10.5
9/27/2021 10:45:00 AM 10.76 51.368 0.041 6.9 3.75 10.48
9/27/2021 11:00:00 AM 10.85 51.53 0.041 6.8 3.89 10.46
9/27/2021 11:15:00 AM 10.94 51.692 0.041 6.92 3.96 10.45
9/27/2021 11:30:00 AM 11.07 51.926 0.041 6.91 3.82 10.45
9/27/2021 11:45:00 AM 11.21 52.178 0.041 6.92 4.05 10.42
9/27/2021 12:00:00 PM 11.34 52.412 0.041 6.91 3.88 10.38
9/27/2021 12:15:00 PM 11.47 52.646 0.041 6.83 3.77 10.35
9/27/2021 12:30:00 PM 11.62 52.916 0.041 6.93 4.08 10.34
9/27/2021 12:45:00 PM 11.77 53.186 0.041 6.93 3.91 10.31
9/27/2021 1:00:00 PM 11.9 53.42 0.041 6.94 4.26 10.28
9/27/2021 1:15:00 PM 12.03 53.654 0.041 6.94 4.48 10.25
9/27/2021 1:30:00 PM 12.16 53.888 0.042 6.95 4.09 10.23
9/27/2021 1:45:00 PM 12.28 54.104 0.042 6.97 4.51 10.21
9/27/2021 2:00:00 PM 12.38 54.284 0.042 6.94 4.05 10.19
9/27/2021 2:15:00 PM 12.48 54.464 0.042 6.86 4.34 10.16
9/27/2021 2:30:00 PM 12.59 54.662 0.042 6.94 3.87 10.13
9/27/2021 2:45:00 PM 12.7 54.86 0.041 6.97 3.85 10.1
9/27/2021 3:00:00 PM 12.81 55.058 0.041 6.92 3.68 10.07
9/27/2021 3:15:00 PM 12.9 55.22 0.041 6.97 3.82 10.05
9/27/2021 3:30:00 PM 12.98 55.364 0.041 6.83 3.83 10.03
9/27/2021 3:45:00 PM 13.06 55.508 0.041 6.96 3.66 10.01
9/27/2021 4:00:00 PM 13.09 55.562 0.041 6.96 3.66 9.98
9/27/2021 4:15:00 PM 13.11 55.598 0.041 6.95 3.88 9.97
9/27/2021 4:30:00 PM 13.12 55.616 0.041 6.86 3.92 9.95
9/27/2021 4:45:00 PM 13.11 55.598 0.041 6.9 3.83 9.94
9/27/2021 5:00:00 PM 13.12 55.616 0.041 6.97 3.76 9.93
9/27/2021 5:15:00 PM 13.12 55.616 0.041 6.97 3.86 9.92
9/27/2021 5:30:00 PM 13.11 55.598 0.042 6.96 8.15 9.91
9/27/2021 5:45:00 PM 13.1 55.58 0.042 6.96 7.86 9.9
9/27/2021 6:00:00 PM 13.08 55.544 0.042 6.95 8.02 9.89
9/27/2021 6:15:00 PM 13.05 55.49 0.042 6.95 8.02 9.88
9/27/2021 6:30:00 PM 13.01 55.418 0.042 6.94 10.25 9.87
9/27/2021 6:45:00 PM 12.98 55.364 0.042 6.81 11.34 9.86
9/27/2021 7:00:00 PM 12.94 55.292 0.042 6.93 7.64 9.86
9/27/2021 7:15:00 PM 12.9 55.22 0.042 6.92 4.93 9.86
9/27/2021 7:30:00 PM 12.87 55.166 0.042 6.8 4.49 9.85
9/27/2021 7:45:00 PM 12.83 55.094 0.042 6.81 4.94 9.85
9/27/2021 8:00:00 PM 12.78 55.004 0.042 6.9 4.59 9.84
9/27/2021 8:15:00 PM 12.73 54.914 0.042 6.87 4.55 9.85
9/27/2021 8:30:00 PM 12.68 54.824 0.042 6.77 4.17 9.87
9/27/2021 8:45:00 PM 12.63 54.734 0.042 6.89 4.47 9.88
9/27/2021 9:00:00 PM 12.58 54.644 0.042 6.86 4.69 9.89
9/27/2021 9:15:00 PM 12.53 54.554 0.042 6.79 4.2 9.9
9/27/2021 9:30:00 PM 12.49 54.482 0.042 6.87 4.48 9.92
9/27/2021 9:45:00 PM 12.44 54.392 0.042 6.74 4.01 9.93
9/27/2021 10:00:00 PM 12.39 54.302 0.042 6.86 4.2 9.94
9/27/2021 10:15:00 PM 12.34 54.212 0.042 6.85 4.44 9.95
9/27/2021 10:30:00 PM 12.29 54.122 0.042 6.86 4.28 9.96
9/27/2021 10:45:00 PM 12.24 54.032 0.042 6.72 4.39 9.97
9/27/2021 11:00:00 PM 12.19 53.942 0.042 6.85 4.26 9.98
9/27/2021 11:15:00 PM 12.15 53.87 0.042 6.81 4.66 9.99
9/27/2021 11:30:00 PM 12.1 53.78 0.042 6.78 6.83 10
9/27/2021 11:45:00 PM 12.06 53.708 0.042 6.77 4.35 10.01
9/28/2021 12:00:00 AM 12.02 53.636 0.042 6.78 4.88 10.02
9/28/2021 12:15:00 AM 11.98 53.564 0.042 6.77 4.09 10.03
9/28/2021 12:30:00 AM 11.94 53.492 0.042 6.86 4.63 10.05
9/28/2021 12:45:00 AM 11.9 53.42 0.042 6.73 4.24 10.05
9/28/2021 1:00:00 AM 11.85 53.33 0.042 6.85 4.44 10.07
9/28/2021 1:15:00 AM 11.81 53.258 0.042 6.86 4.3 10.08
9/28/2021 1:30:00 AM 11.77 53.186 0.042 6.86 4.19 10.09
9/28/2021 1:45:00 AM 11.74 53.132 0.042 6.86 4.23 10.1
9/28/2021 2:00:00 AM 11.72 53.096 0.042 6.85 4.09 10.1
9/28/2021 2:15:00 AM 11.7 53.06 0.042 6.86 4.03 10.11
9/28/2021 2:30:00 AM 11.68 53.024 0.042 6.73 4.16 10.12
9/28/2021 2:45:00 AM 11.66 52.988 0.042 6.87 3.87 10.12
9/28/2021 3:00:00 AM 11.63 52.934 0.042 6.86 3.96 10.12
9/28/2021 3:15:00 AM 11.61 52.898 0.042 6.74 4.23 10.13
9/28/2021 3:30:00 AM 11.59 52.862 0.042 6.85 4.06 10.13
9/28/2021 3:45:00 AM 11.57 52.826 0.042 6.75 4.65 10.13
9/28/2021 4:00:00 AM 11.54 52.772 0.043 6.86 4.11 10.13
9/28/2021 4:15:00 AM 11.51 52.718 0.043 6.74 4.55 10.14
9/28/2021 4:30:00 AM 11.49 52.682 0.043 6.85 4.11 10.15
9/28/2021 4:45:00 AM 11.46 52.628 0.042 6.74 3.92 10.15
9/28/2021 5:00:00 AM 11.43 52.574 0.043 6.77 4.05 10.15
9/28/2021 5:15:00 AM 11.41 52.538 0.043 6.77 3.93 10.15
9/28/2021 5:30:00 AM 11.39 52.502 0.043 6.85 3.93 10.17
9/28/2021 5:45:00 AM 11.37 52.466 0.043 6.84 3.87 10.16
9/28/2021 6:00:00 AM 11.36 52.448 0.043 6.72 3.99 10.18
9/28/2021 6:15:00 AM 11.34 52.412 0.043 6.85 4.12 10.18
9/28/2021 6:30:00 AM 11.32 52.376 0.043 6.84 4.03 10.18
9/28/2021 6:45:00 AM 11.31 52.358 0.042 6.84 4.03 10.18
9/28/2021 7:00:00 AM 11.31 52.358 0.043 6.77 4.34 10.2
9/28/2021 7:15:00 AM 11.31 52.358 0.043 6.85 4.04 10.19
9/28/2021 7:30:00 AM 11.31 52.358 0.043 6.73 9.21 10.2
9/28/2021 7:45:00 AM 11.31 52.358 0.043 6.78 9.97 10.21
9/28/2021 8:00:00 AM 11.32 52.376 0.043 6.85 10.06 10.21
9/28/2021 8:15:00 AM 11.32 52.376 0.043 6.8 7.9 10.2
9/28/2021 8:30:00 AM 11.33 52.394 0.043 6.84 8.98 10.21
9/28/2021 8:45:00 AM 11.33 52.394 0.043 6.79 8.39 10.21
9/28/2021 9:00:00 AM 11.34 52.412 0.043 6.75 9.68 10.21
9/28/2021 9:15:00 AM 11.35 52.43 0.043 6.85 6.37 10.21
9/28/2021 9:30:00 AM 11.36 52.448 0.043 6.85 7.99 10.21
9/28/2021 9:45:00 AM 11.37 52.466 0.043 6.85 8.69 10.22
9/28/2021 10:00:00 AM 11.39 52.502 0.043 6.73 8.14 10.22
9/28/2021 10:15:00 AM 11.4 52.52 0.043 6.85 8.43 10.22
9/28/2021 10:30:00 AM 11.43 52.574 0.043 6.85 10.08 10.22
9/28/2021 10:45:00 AM 11.44 52.592 0.043 6.85 10.01 10.23
9/28/2021 11:00:00 AM 11.48 52.664 0.043 6.86 11.38 10.23
9/28/2021 11:15:00 AM 11.54 52.772 0.043 6.76 5.97 10.26
9/28/2021 11:30:00 AM 11.6 52.88 0.043 6.89 7 10.26
9/28/2021 11:45:00 AM 11.67 53.006 0.043 6.9 6.19 10.26
9/28/2021 12:00:00 PM 11.76 53.168 0.043 6.91 10.09 10.26
9/28/2021 12:15:00 PM 11.83 53.294 0.043 6.93 8.46 10.26
9/28/2021 12:30:00 PM 11.87 53.366 0.043 6.82 9.14 10.24
9/28/2021 12:45:00 PM 11.92 53.456 0.043 6.94 10.46 10.21
9/28/2021 1:00:00 PM 12.05 53.69 0.043 6.94 13.35 10.2
9/28/2021 1:15:00 PM 12.06 53.708 0.043 6.85 6.89 10.19
9/28/2021 1:30:00 PM 12.18 53.924 0.043 6.95 9.32 10.2
9/28/2021 1:45:00 PM 12.31 54.158 0.043 6.95 7.3 10.19
9/28/2021 2:00:00 PM 12.41 54.338 0.043 6.95 8.61 10.17
9/28/2021 2:15:00 PM 12.6 54.68 0.042 6.93 6.49 10.13
9/28/2021 2:30:00 PM 12.65 54.77 0.042 6.94 12.78 10.11
9/28/2021 2:45:00 PM 12.74 54.932 0.042 6.98 12.98 10.09
9/28/2021 3:00:00 PM 12.88 55.184 0.042 6.99 8.2 10.08
9/28/2021 3:15:00 PM 12.96 55.328 0.042 6.89 12.88 10.05
9/28/2021 3:30:00 PM 12.97 55.346 0.042 7 7.62 10.04
9/28/2021 3:45:00 PM 13.06 55.508 0.042 6.87 7.85 10.02
9/28/2021 4:00:00 PM 13.1 55.58 0.042 6.99 9.88 10
9/28/2021 4:15:00 PM 13.09 55.562 0.042 6.96 10.05 9.99
9/28/2021 4:30:00 PM 13.07 55.526 0.042 7 6.84 9.98
9/28/2021 4:45:00 PM 13.03 55.454 0.042 6.99 6.05 9.98
9/28/2021 5:00:00 PM 12.96 55.328 0.043 6.99 6.98 9.97
9/28/2021 5:15:00 PM 12.9 55.22 0.043 6.99 6.62 9.97
9/28/2021 5:30:00 PM 12.84 55.112 0.042 6.99 6.37 9.96
9/28/2021 5:45:00 PM 12.78 55.004 0.043 6.83 8.59 9.95
9/28/2021 6:00:00 PM 12.72 54.896 0.043 6.88 3.86 9.96
9/28/2021 6:15:00 PM 12.64 54.752 0.043 6.91 3.65 9.96
9/28/2021 6:30:00 PM 12.57 54.626 0.043 6.97 3.85 9.97
9/28/2021 6:45:00 PM 12.5 54.5 0.043 6.96 3.84 9.98
9/28/2021 7:00:00 PM 12.43 54.374 0.043 6.82 3.89 9.99
9/28/2021 7:15:00 PM 12.36 54.248 0.043 6.94 3.87 10
9/28/2021 7:30:00 PM 12.3 54.14 0.043 6.95 3.93 10
9/28/2021 7:45:00 PM 12.25 54.05 0.043 6.94 3.73 10.01
9/28/2021 8:00:00 PM 12.2 53.96 0.043 6.92 4.15 10.01
9/28/2021 8:15:00 PM 12.15 53.87 0.043 6.82 4.25 10.01
9/28/2021 8:30:00 PM 12.09 53.762 0.043 6.83 4.25 10.02
9/28/2021 8:45:00 PM 12.04 53.672 0.043 6.93 4.2 10.04
9/28/2021 9:00:00 PM 11.99 53.582 0.043 6.93 4.25 10.05
9/28/2021 9:15:00 PM 11.93 53.474 0.043 6.93 4.25 10.07
9/28/2021 9:30:00 PM 11.88 53.384 0.043 6.92 3.85 10.09
9/28/2021 9:45:00 PM 11.82 53.276 0.043 6.92 4.05 10.11
9/28/2021 10:00:00 PM 11.76 53.168 0.043 6.92 3.92 10.12
9/28/2021 10:15:00 PM 11.71 53.078 0.043 6.92 3.94 10.13
9/28/2021 10:30:00 PM 11.65 52.97 0.043 6.84 3.93 10.15
9/28/2021 10:45:00 PM 11.6 52.88 0.043 6.92 8.4 10.16
9/28/2021 11:00:00 PM 11.54 52.772 0.043 6.91 4.22 10.17
9/28/2021 11:15:00 PM 11.5 52.7 0.043 6.92 4.57 10.18
9/28/2021 11:30:00 PM 11.46 52.628 0.043 6.79 4.69 10.19
9/28/2021 11:45:00 PM 11.42 52.556 0.043 6.93 4.85 10.2
9/29/2021 12:00:00 AM 11.36 52.448 0.043 6.92 4.96 10.22
9/29/2021 12:15:00 AM 11.32 52.376 0.043 6.92 4.7 10.24
9/29/2021 12:30:00 AM 11.27 52.286 0.043 6.92 4.45 10.25
9/29/2021 12:45:00 AM 11.22 52.196 0.043 6.9 4.52 10.27
9/29/2021 1:00:00 AM 11.17 52.106 0.043 6.78 4.94 10.28
9/29/2021 1:15:00 AM 11.13 52.034 0.043 6.91 4.47 10.29
9/29/2021 1:30:00 AM 11.09 51.962 0.043 6.8 4.24 10.3
9/29/2021 1:45:00 AM 11.04 51.872 0.043 6.92 4.44 10.31
9/29/2021 2:00:00 AM 10.99 51.782 0.043 6.92 4.43 10.32
9/29/2021 2:15:00 AM 10.94 51.692 0.043 6.78 4.69 10.33
9/29/2021 2:30:00 AM 10.88 51.584 0.043 6.92 4.68 10.35
9/29/2021 2:45:00 AM 10.82 51.476 0.043 6.91 4.62 10.35
9/29/2021 3:00:00 AM 10.76 51.368 0.043 6.91 4.91 10.37
9/29/2021 3:15:00 AM 10.7 51.26 0.043 6.92 4.14 10.38
9/29/2021 3:30:00 AM 10.65 51.17 0.043 6.9 3.9 10.4
9/29/2021 3:45:00 AM 10.6 51.08 0.043 6.81 3.71 10.41
9/29/2021 4:00:00 AM 10.55 50.99 0.043 6.81 3.81 10.43
9/29/2021 4:15:00 AM 10.5 50.9 0.043 6.92 3.93 10.45
9/29/2021 4:30:00 AM 10.45 50.81 0.043 6.8 3.84 10.45
9/29/2021 4:45:00 AM 10.4 50.72 0.043 6.91 3.69 10.47
9/29/2021 5:00:00 AM 10.35 50.63 0.043 6.92 3.46 10.48
9/29/2021 5:15:00 AM 10.29 50.522 0.043 6.91 3.86 10.5
9/29/2021 5:30:00 AM 10.23 50.414 0.043 6.86 4.06 10.5
9/29/2021 5:45:00 AM 10.18 50.324 0.043 6.92 3.61 10.51
9/29/2021 6:00:00 AM 10.13 50.234 0.043 6.79 3.4 10.53
9/29/2021 6:15:00 AM 10.07 50.126 0.043 6.92 3.63 10.55
9/29/2021 6:30:00 AM 10.02 50.036 0.043 6.91 3.76 10.57
9/29/2021 6:45:00 AM 9.98 49.964 0.043 6.91 3.62 10.58
9/29/2021 7:00:00 AM 9.94 49.892 0.043 6.91 3.82 10.6
9/29/2021 7:15:00 AM 9.91 49.838 0.043 6.91 4.14 10.61
9/29/2021 7:30:00 AM 9.88 49.784 0.043 6.89 3.48 10.63
9/29/2021 7:45:00 AM 9.85 49.73 0.043 6.92 3.61 10.64
9/29/2021 8:00:00 AM 9.81 49.658 0.043 6.78 3.75 10.66
9/29/2021 8:15:00 AM 9.78 49.604 0.043 6.9 3.66 10.68
9/29/2021 8:30:00 AM 9.74 49.532 0.043 6.93 3.52 10.7
9/29/2021 8:45:00 AM 9.71 49.478 0.043 6.93 4.91 10.71
9/29/2021 9:00:00 AM 9.68 49.424 0.043 6.94 3.47 10.73
9/29/2021 9:15:00 AM 9.67 49.406 0.043 6.79 3.51 10.74
9/29/2021 9:30:00 AM 9.68 49.424 0.043 6.93 3.54 10.75
9/29/2021 9:45:00 AM 9.71 49.478 0.043 6.94 3.44 10.76
9/29/2021 10:00:00 AM 9.76 49.568 0.043 6.91 3.65 10.75
9/29/2021 10:15:00 AM 9.82 49.676 0.043 6.95 3.39 10.75
9/29/2021 10:30:00 AM 9.89 49.802 0.043 6.83 3.29 10.74
9/29/2021 10:45:00 AM 9.99 49.982 0.043 6.87 3.42 10.74
9/29/2021 11:00:00 AM 10.08 50.144 0.043 6.97 3.68 10.72
9/29/2021 11:15:00 AM 10.2 50.36 0.043 6.84 3.95 10.71
9/29/2021 11:30:00 AM 10.31 50.558 0.043 6.89 4.11 10.69
9/29/2021 11:45:00 AM 10.41 50.738 0.043 6.99 5.4 10.68
9/29/2021 12:00:00 PM 10.55 50.99 0.043 6.99 5.03 10.66
9/29/2021 12:15:00 PM 10.72 51.296 0.043 7 4.35 10.62
9/29/2021 12:30:00 PM 10.89 51.602 0.043 6.97 4.01 10.59
9/29/2021 12:45:00 PM 11.03 51.854 0.043 6.97 5.91 10.56
9/29/2021 1:00:00 PM 11.13 52.034 0.043 6.9 5.44 10.55
9/29/2021 1:15:00 PM 11.25 52.25 0.043 7.01 4.68 10.52
9/29/2021 1:30:00 PM 11.39 52.502 0.043 6.9 5.9 10.48
9/29/2021 1:45:00 PM 11.56 52.808 0.043 7.02 7.43 10.45
9/29/2021 2:00:00 PM 11.67 53.006 0.043 6.96 6.98 10.44
9/29/2021 2:15:00 PM 11.72 53.096 0.043 7.02 6.25 10.42
9/29/2021 2:30:00 PM 11.82 53.276 0.043 6.98 5.02 10.4
9/29/2021 2:45:00 PM 11.89 53.402 0.043 7.03 4.57 10.37
9/29/2021 3:00:00 PM 11.98 53.564 0.043 7.02 4.24 10.33
9/29/2021 3:15:00 PM 12.05 53.69 0.043 7.03 3.78 10.31
9/29/2021 3:30:00 PM 12.13 53.834 0.043 6.99 4.27 10.31
9/29/2021 3:45:00 PM 12.16 53.888 0.043 7.03 5.94 10.28
9/29/2021 4:00:00 PM 12.25 54.05 0.043 6.91 8.49 10.27
9/29/2021 4:15:00 PM 12.28 54.104 0.043 7.03 8.24 10.26
9/29/2021 4:30:00 PM 12.24 54.032 0.043 6.93 7.01 10.26
9/29/2021 4:45:00 PM 12.16 53.888 0.043 6.96 7.84 10.25
9/29/2021 5:00:00 PM 12.06 53.708 0.043 7.03 6.74 10.24
9/29/2021 5:15:00 PM 11.97 53.546 0.043 6.89 5.84 10.24
9/29/2021 5:30:00 PM 11.9 53.42 0.043 7.02 5.24 10.25
9/29/2021 5:45:00 PM 11.84 53.312 0.043 6.88 4.61 10.24
9/29/2021 6:00:00 PM 11.79 53.222 0.043 7 4.01 10.24
9/29/2021 6:15:00 PM 11.75 53.15 0.043 6.99 4.04 10.23
9/29/2021 6:30:00 PM 11.71 53.078 0.043 6.99 3.8 10.22
9/29/2021 6:45:00 PM 11.66 52.988 0.043 6.84 3.93 10.22
9/29/2021 7:00:00 PM 11.61 52.898 0.043 6.99 5.74 10.22
9/29/2021 7:15:00 PM 11.55 52.79 0.043 6.84 9.39 10.22
9/29/2021 7:30:00 PM 11.49 52.682 0.043 6.96 15.2 10.21
9/29/2021 7:45:00 PM 11.43 52.574 0.044 6.84 21.16 10.22
9/29/2021 8:00:00 PM 11.4 52.52 0.044 6.97 17.89 10.23
9/29/2021 8:15:00 PM 11.36 52.448 0.044 6.91 17.93 10.23
9/29/2021 8:30:00 PM 11.33 52.394 0.044 6.95 13.31 10.24
9/29/2021 8:45:00 PM 11.29 52.322 0.044 6.95 10.93 10.25
9/29/2021 9:00:00 PM 11.26 52.268 0.044 6.95 9.92 10.25
9/29/2021 9:15:00 PM 11.22 52.196 0.044 6.94 8.37 10.28
9/29/2021 9:30:00 PM 11.18 52.124 0.044 6.94 6.48 10.28
9/29/2021 9:45:00 PM 11.13 52.034 0.044 6.91 5.74 10.29
9/29/2021 10:00:00 PM 11.09 51.962 0.044 6.95 4.66 10.3
9/29/2021 10:15:00 PM 11.04 51.872 0.044 6.86 4.51 10.31
9/29/2021 10:30:00 PM 11 51.8 0.044 6.94 4.51 10.33
9/29/2021 10:45:00 PM 10.95 51.71 0.044 6.94 4.26 10.34
9/29/2021 11:00:00 PM 10.91 51.638 0.044 6.94 4.2 10.34
9/29/2021 11:15:00 PM 10.86 51.548 0.044 6.81 3.98 10.35
9/29/2021 11:30:00 PM 10.81 51.458 0.044 6.94 3.75 10.37
9/29/2021 11:45:00 PM 10.76 51.368 0.044 6.92 4.18 10.38
9/30/2021 12:00:00 AM 10.71 51.278 0.044 6.94 4.12 10.39
9/30/2021 12:15:00 AM 10.65 51.17 0.044 6.94 4.18 10.41
9/30/2021 12:30:00 AM 10.6 51.08 0.044 6.93 3.93 10.42
9/30/2021 12:45:00 AM 10.55 50.99 0.044 6.79 4.1 10.43
9/30/2021 1:00:00 AM 10.52 50.936 0.044 6.93 3.83 10.45
9/30/2021 1:15:00 AM 10.49 50.882 0.044 6.79 3.65 10.46
9/30/2021 1:30:00 AM 10.45 50.81 0.044 6.92 3.94 10.47
9/30/2021 1:45:00 AM 10.43 50.774 0.044 6.89 3.83 10.48
9/30/2021 2:00:00 AM 10.4 50.72 0.044 6.85 3.94 10.49
9/30/2021 2:15:00 AM 10.36 50.648 0.044 6.91 3.73 10.5
9/30/2021 2:30:00 AM 10.32 50.576 0.044 6.93 3.71 10.51
9/30/2021 2:45:00 AM 10.26 50.468 0.044 6.93 3.76 10.52
9/30/2021 3:00:00 AM 10.21 50.378 0.044 6.94 3.88 10.53
9/30/2021 3:15:00 AM 10.16 50.288 0.044 6.93 3.54 10.54
9/30/2021 3:30:00 AM 10.12 50.216 0.044 6.81 3.59 10.55
9/30/2021 3:45:00 AM 10.07 50.126 0.044 6.84 3.7 10.56
9/30/2021 4:00:00 AM 10.03 50.054 0.044 6.93 3.6 10.58
9/30/2021 4:15:00 AM 10 50 0.044 6.81 3.95 10.59
9/30/2021 4:30:00 AM 9.98 49.964 0.044 6.86 3.5 10.6
9/30/2021 4:45:00 AM 9.96 49.928 0.044 6.93 3.5 10.61
9/30/2021 5:00:00 AM 9.94 49.892 0.044 6.88 4.32 10.62
9/30/2021 5:15:00 AM 9.91 49.838 0.044 6.84 3.74 10.63
9/30/2021 5:30:00 AM 9.88 49.784 0.044 6.94 3.87 10.64
9/30/2021 5:45:00 AM 9.86 49.748 0.044 6.93 3.42 10.65
9/30/2021 6:00:00 AM 9.83 49.694 0.044 6.92 3.72 10.65
9/30/2021 6:15:00 AM 9.8 49.64 0.044 6.94 3.55 10.66
9/30/2021 6:30:00 AM 9.77 49.586 0.044 6.88 3.7 10.67
9/30/2021 6:45:00 AM 9.75 49.55 0.044 6.86 9.1 10.67
9/30/2021 7:00:00 AM 9.73 49.514 0.044 6.86 6.35 10.68
9/30/2021 7:15:00 AM 9.7 49.46 0.044 6.87 3.89 10.69
9/30/2021 7:30:00 AM 9.68 49.424 0.044 6.87 6.36 10.7
9/30/2021 7:45:00 AM 9.67 49.406 0.044 6.93 3.6 10.72
9/30/2021 8:00:00 AM 9.65 49.37 0.044 6.84 3.38 10.73
9/30/2021 8:15:00 AM 9.63 49.334 0.044 6.93 3.45 10.74
9/30/2021 8:30:00 AM 9.62 49.316 0.044 6.96 3.38 10.77
9/30/2021 8:45:00 AM 9.62 49.316 0.044 6.96 3.46 10.79
9/30/2021 9:00:00 AM 9.63 49.334 0.044 6.97 3.39 10.81
9/30/2021 9:15:00 AM 9.63 49.334 0.044 6.96 3.19 10.82
9/30/2021 9:30:00 AM 9.65 49.37 0.044 6.97 3.77 10.84
9/30/2021 9:45:00 AM 9.69 49.442 0.044 6.97 3.93 10.86
9/30/2021 10:00:00 AM 9.73 49.514 0.044 6.98 3.98